Provisional Data: Yellow Breeches Creek near Lisburn, PA


Please select a monitoring station.
Please select start date.
Please select start date.

Toggle Unit: C/F Toggle Unit: C/F
Sample Time Temperature (C) Temperature (F) Specific Conductivity (mS/cm) pH   Turbidity (NTU+) DO (mg/L)
10/20/2020 12:00:00 AM -100000 -179968 -100000 -100000 -100000 -100000
10/20/2020 12:15:00 AM -100000 -179968 -100000 -100000 -100000 -100000
10/20/2020 12:30:00 AM -100000 -179968 -100000 -100000 -100000 -100000
10/20/2020 12:45:00 AM -100000 -179968 -100000 -100000 -100000 -100000
10/20/2020 1:00:00 AM -100000 -179968 -100000 -100000 -100000 -100000
10/20/2020 1:15:00 AM -100000 -179968 -100000 -100000 -100000 -100000
10/20/2020 1:30:00 AM -100000 -179968 -100000 -100000 -100000 -100000
10/20/2020 1:45:00 AM -100000 -179968 -100000 -100000 -100000 -100000
10/20/2020 2:00:00 AM -100000 -179968 -100000 -100000 -100000 -100000
10/20/2020 2:15:00 AM -100000 -179968 -100000 -100000 -100000 -100000
10/20/2020 2:30:00 AM -100000 -179968 -100000 -100000 -100000 -100000
10/20/2020 2:45:00 AM -100000 -179968 -100000 -100000 -100000 -100000
10/20/2020 3:00:00 AM -100000 -179968 -100000 -100000 -100000 -100000
10/20/2020 3:15:00 AM -100000 -179968 -100000 -100000 -100000 -100000
10/20/2020 3:30:00 AM -100000 -179968 -100000 -100000 -100000 -100000
10/20/2020 3:45:00 AM -100000 -179968 -100000 -100000 -100000 -100000
10/20/2020 4:00:00 AM -100000 -179968 -100000 -100000 -100000 -100000
10/20/2020 4:15:00 AM -100000 -179968 -100000 -100000 -100000 -100000
10/20/2020 4:30:00 AM -100000 -179968 -100000 -100000 -100000 -100000
10/20/2020 4:45:00 AM -100000 -179968 -100000 -100000 -100000 -100000
10/20/2020 5:00:00 AM -100000 -179968 -100000 -100000 -100000 -100000
10/20/2020 5:15:00 AM -100000 -179968 -100000 -100000 -100000 -100000
10/20/2020 5:30:00 AM -100000 -179968 -100000 -100000 -100000 -100000
10/20/2020 5:45:00 AM -100000 -179968 -100000 -100000 -100000 -100000
10/20/2020 6:00:00 AM -100000 -179968 -100000 -100000 -100000 -100000
10/20/2020 6:15:00 AM -100000 -179968 -100000 -100000 -100000 -100000
10/20/2020 6:30:00 AM -100000 -179968 -100000 -100000 -100000 -100000
10/20/2020 6:45:00 AM -100000 -179968 -100000 -100000 -100000 -100000
10/20/2020 7:00:00 AM -100000 -179968 -100000 -100000 -100000 -100000
10/20/2020 7:15:00 AM -100000 -179968 -100000 -100000 -100000 -100000
10/20/2020 7:30:00 AM -100000 -179968 -100000 -100000 -100000 -100000
10/20/2020 7:45:00 AM -100000 -179968 -100000 -100000 -100000 -100000
10/20/2020 8:00:00 AM -100000 -179968 -100000 -100000 -100000 -100000
10/20/2020 8:15:00 AM -100000 -179968 -100000 -100000 -100000 -100000
10/20/2020 8:30:00 AM -100000 -179968 -100000 -100000 -100000 -100000
10/20/2020 8:45:00 AM -100000 -179968 -100000 -100000 -100000 -100000
10/20/2020 9:00:00 AM -100000 -179968 -100000 -100000 -100000 -100000
10/20/2020 9:15:00 AM -100000 -179968 -100000 -100000 -100000 -100000
10/20/2020 9:30:00 AM -100000 -179968 -100000 -100000 -100000 -100000
10/20/2020 9:45:00 AM -100000 -179968 -100000 -100000 -100000 -100000
10/20/2020 10:00:00 AM -100000 -179968 -100000 -100000 -100000 -100000
10/20/2020 10:15:00 AM -100000 -179968 -100000 -100000 -100000 -100000
10/20/2020 10:30:00 AM 13.21 55.778 0 7 0 0
10/20/2020 10:45:00 AM 13.26 55.868 331.5 7.62 14.47 10.3
10/20/2020 11:00:00 AM 13.28 55.904 332 8.6 29.56 10.35
10/20/2020 11:15:00 AM 13.37 56.066 332.6 9.33 51.18 8.41
10/20/2020 11:30:00 AM 13.45 56.21 333 9.73 54.02 7.32
10/20/2020 11:45:00 AM 13.48 56.264 333.6 9.6 65.58 6.27
10/20/2020 12:00:00 PM 13.57 56.426 334.2 9.51 69.22 6.19
10/20/2020 12:15:00 PM 13.67 56.606 334.3 9.94 12.99 7.73
10/20/2020 12:30:00 PM 13.8 56.84 334.2 9.88 12.1 11.14
10/20/2020 12:45:00 PM 13.9 57.02 334 9.78 11.66 11.3
10/20/2020 1:00:00 PM 13.99 57.182 333.9 9.7 12.34 11.41
10/20/2020 1:15:00 PM 14.04 57.272 333.2 9.53 11.37 11.43
10/20/2020 1:30:00 PM 14.1 57.38 332.8 9.41 12.19 11.49
10/20/2020 1:45:00 PM 14.2 57.56 332.3 9.36 10.76 11.57
10/20/2020 2:00:00 PM 14.3 57.74 332 9.64 11.91 11.62
10/20/2020 2:15:00 PM 14.42 57.956 331.2 9.53 10.94 11.73
10/20/2020 2:30:00 PM 14.52 58.136 331.2 9.34 12.37 11.79
10/20/2020 2:45:00 PM 14.58 58.244 331.3 9.29 11.45 11.85
10/20/2020 3:00:00 PM 14.64 58.352 330.9 9.18 10.1 11.87
10/20/2020 3:15:00 PM 14.69 58.442 330.6 9.48 11.07 11.86
10/20/2020 3:30:00 PM 14.78 58.604 330 9.55 10.96 11.91
10/20/2020 3:45:00 PM 14.83 58.694 329.9 9.35 9.81 11.88
10/20/2020 4:00:00 PM 14.88 58.784 329.7 9.21 11.12 11.88
10/20/2020 4:15:00 PM 14.91 58.838 329.2 9.13 11.11 11.83
10/20/2020 4:30:00 PM 14.93 58.874 328.8 9.18 11.07 11.77
10/20/2020 4:45:00 PM 14.94 58.892 328.5 9.46 10.6 11.7
10/20/2020 5:00:00 PM 14.95 58.91 328.1 9.58 11.43 11.6
10/20/2020 5:15:00 PM 14.97 58.946 327.9 9.45 10.73 11.51
10/20/2020 5:30:00 PM 14.98 58.964 327.8 9.33 11.15 11.43
10/20/2020 5:45:00 PM 14.97 58.946 327.5 9.68 10.35 11.31
10/20/2020 6:00:00 PM 14.96 58.928 327.3 9.66 9.25 11.17
10/20/2020 6:15:00 PM 14.93 58.874 327.5 9.8 10.5 11
10/20/2020 6:30:00 PM 14.91 58.838 327.4 9.88 11.23 10.88
10/20/2020 6:45:00 PM 14.88 58.784 327.6 9.85 11.1 10.76
10/20/2020 7:00:00 PM 14.86 58.748 327.4 9.98 10.98 10.63
10/20/2020 7:15:00 PM 14.83 58.694 327.3 10 11.38 10.49
10/20/2020 7:30:00 PM 14.81 58.658 327.2 9.69 13.38 10.37
10/20/2020 7:45:00 PM 14.78 58.604 327.2 9.68 11.82 10.28
10/20/2020 8:00:00 PM 14.75 58.55 327 9.56 12.08 10.18
10/20/2020 8:15:00 PM 14.72 58.496 327.2 9.91 13.83 10.04
10/20/2020 8:30:00 PM 14.7 58.46 327.4 9.88 11.71 9.96
10/20/2020 8:45:00 PM 14.67 58.406 327.5 9.7 12.9 9.87
10/20/2020 9:00:00 PM 14.65 58.37 327.7 9.38 12.49 9.78
10/20/2020 9:15:00 PM 14.63 58.334 327.6 9.29 12.83 9.7
10/20/2020 9:30:00 PM 14.61 58.298 327.7 9.34 11.75 9.61
10/20/2020 9:45:00 PM 14.59 58.262 327.4 9.3 10.68 9.54
10/20/2020 10:00:00 PM 14.57 58.226 327.1 9.55 11.59 9.47
10/20/2020 10:15:00 PM 14.55 58.19 327.1 9.47 11.66 9.39
10/20/2020 10:30:00 PM 14.53 58.154 327.2 9.47 11.54 9.32
10/20/2020 10:45:00 PM 14.51 58.118 327.4 9.09 12.26 9.27
10/20/2020 11:00:00 PM 14.5 58.1 328 9.12 11.32 9.21
10/20/2020 11:15:00 PM 14.48 58.064 328.8 9.31 11.6 9.14
10/20/2020 11:30:00 PM 14.46 58.028 329.6 9.34 12.71 9.1
10/20/2020 11:45:00 PM 14.45 58.01 330.2 9.28 23.6 9.03
10/21/2020 12:00:00 AM 14.43 57.974 330.8 9.21 18.63 8.97
10/21/2020 12:15:00 AM 14.41 57.938 331.5 9.17 12.87 8.97
10/21/2020 12:30:00 AM 14.39 57.902 331.4 9.21 12.86 8.95
10/21/2020 12:45:00 AM 14.38 57.884 331.4 8.98 13.41 8.9
10/21/2020 1:00:00 AM -100000 -179968 -100000 -100000 -100000 -100000
10/21/2020 1:15:00 AM -100000 -179968 -100000 -100000 -100000 -100000
10/21/2020 1:30:00 AM -100000 -179968 -100000 -100000 -100000 -100000
10/21/2020 1:45:00 AM -100000 -179968 -100000 -100000 -100000 -100000
10/21/2020 2:00:00 AM -100000 -179968 -100000 -100000 -100000 -100000
10/21/2020 2:15:00 AM -100000 -179968 -100000 -100000 -100000 -100000
10/21/2020 2:30:00 AM -100000 -179968 -100000 -100000 -100000 -100000
10/21/2020 2:45:00 AM -100000 -179968 -100000 -100000 -100000 -100000
10/21/2020 3:00:00 AM -100000 -179968 -100000 -100000 -100000 -100000
10/21/2020 3:15:00 AM -100000 -179968 -100000 -100000 -100000 -100000
10/21/2020 3:30:00 AM -100000 -179968 -100000 -100000 -100000 -100000
10/21/2020 3:45:00 AM -100000 -179968 -100000 -100000 -100000 -100000
10/21/2020 4:00:00 AM -100000 -179968 -100000 -100000 -100000 -100000
10/21/2020 4:15:00 AM -100000 -179968 -100000 -100000 -100000 -100000
10/21/2020 4:30:00 AM -100000 -179968 -100000 -100000 -100000 -100000
10/21/2020 4:45:00 AM -100000 -179968 -100000 -100000 -100000 -100000
10/21/2020 5:00:00 AM -100000 -179968 -100000 -100000 -100000 -100000
10/21/2020 5:15:00 AM -100000 -179968 -100000 -100000 -100000 -100000
10/21/2020 5:30:00 AM -100000 -179968 -100000 -100000 -100000 -100000
10/21/2020 5:45:00 AM -100000 -179968 -100000 -100000 -100000 -100000
10/21/2020 6:00:00 AM -100000 -179968 -100000 -100000 -100000 -100000
10/21/2020 6:15:00 AM -100000 -179968 -100000 -100000 -100000 -100000
10/21/2020 6:30:00 AM -100000 -179968 -100000 -100000 -100000 -100000
10/21/2020 6:45:00 AM -100000 -179968 -100000 -100000 -100000 -100000
10/21/2020 7:00:00 AM -100000 -179968 -100000 -100000 -100000 -100000
10/21/2020 7:15:00 AM -100000 -179968 -100000 -100000 -100000 -100000
10/21/2020 7:30:00 AM -100000 -179968 -100000 -100000 -100000 -100000
10/21/2020 7:45:00 AM -100000 -179968 -100000 -100000 -100000 -100000
10/21/2020 8:00:00 AM -100000 -179968 -100000 -100000 -100000 -100000
10/21/2020 8:15:00 AM -100000 -179968 -100000 -100000 -100000 -100000
10/21/2020 8:30:00 AM -100000 -179968 -100000 -100000 -100000 -100000
10/21/2020 8:45:00 AM -100000 -179968 -100000 -100000 -100000 -100000
10/21/2020 9:00:00 AM -100000 -179968 -100000 -100000 -100000 -100000
10/21/2020 9:15:00 AM -100000 -179968 -100000 -100000 -100000 -100000
10/21/2020 9:30:00 AM -100000 -179968 -100000 -100000 -100000 -100000
10/21/2020 9:45:00 AM -100000 -179968 -100000 -100000 -100000 -100000
10/21/2020 10:00:00 AM -100000 -179968 -100000 -100000 -100000 -100000
10/21/2020 10:15:00 AM -100000 -179968 -100000 -100000 -100000 -100000
10/21/2020 10:30:00 AM -100000 -179968 -100000 -100000 -100000 -100000
10/21/2020 10:45:00 AM -100000 -179968 -100000 -100000 -100000 -100000
10/21/2020 11:00:00 AM -100000 -179968 -100000 -100000 -100000 -100000
10/21/2020 11:15:00 AM -100000 -179968 -100000 -100000 -100000 -100000
10/21/2020 11:30:00 AM -100000 -179968 -100000 -100000 -100000 -100000
10/21/2020 11:45:00 AM -100000 -179968 -100000 -100000 -100000 -100000
10/21/2020 12:00:00 PM -100000 -179968 -100000 -100000 -100000 -100000
10/21/2020 12:15:00 PM -100000 -179968 -100000 -100000 -100000 -100000
10/21/2020 12:30:00 PM -100000 -179968 -100000 -100000 -100000 -100000
10/21/2020 12:45:00 PM -100000 -179968 -100000 -100000 -100000 -100000
10/21/2020 1:00:00 PM 15.31 59.558 0 7 0 0
10/21/2020 1:15:00 PM 15.36 59.648 333.6 7.9 9.36 10.32
10/21/2020 1:30:00 PM 15.46 59.828 333.2 8.3 9.34 10.44
10/21/2020 1:45:00 PM 15.57 60.026 332.7 8.55 9.47 10.54
10/21/2020 2:00:00 PM 15.65 60.17 332.1 8.67 8.56 10.64
10/21/2020 2:15:00 PM 15.74 60.332 332.2 8.76 8.33 10.69
10/21/2020 2:30:00 PM 15.82 60.476 332 8.66 8.07 10.74
10/21/2020 2:45:00 PM 15.89 60.602 331.7 8.8 8.16 10.79
10/21/2020 3:00:00 PM 15.97 60.746 331.7 8.82 8.89 10.83
10/21/2020 3:15:00 PM 16.03 60.854 331.2 8.72 7.93 10.82
10/21/2020 3:30:00 PM 16.08 60.944 330.9 8.79 8.18 10.86
10/21/2020 3:45:00 PM 16.12 61.016 330.5 8.72 8.12 10.87
10/21/2020 4:00:00 PM 16.17 61.106 330.3 8.71 7.67 10.85
10/21/2020 4:15:00 PM 16.22 61.196 329.8 8.74 8.07 10.85
10/21/2020 4:30:00 PM 16.25 61.25 329.4 8.85 7.64 10.81
10/21/2020 4:45:00 PM 16.28 61.304 329 8.9 8.09 10.76
10/21/2020 5:00:00 PM 16.3 61.34 328.6 8.92 7.86 10.69
10/21/2020 5:15:00 PM 16.3 61.34 328.1 8.84 7.58 10.62
10/21/2020 5:30:00 PM 16.3 61.34 328 8.76 7.04 10.52
10/21/2020 5:45:00 PM 16.28 61.304 327.8 8.79 10.26 10.4
10/21/2020 6:00:00 PM 16.26 61.268 327.8 8.75 7.01 10.29
10/21/2020 6:15:00 PM 16.23 61.214 327.7 8.96 7.2 10.16
10/21/2020 6:30:00 PM 16.2 61.16 327.7 8.94 7.73 10.04
10/21/2020 6:45:00 PM 16.17 61.106 327.5 8.93 7.59 9.87
10/21/2020 7:00:00 PM 16.14 61.052 327.1 8.98 7.49 9.79
10/21/2020 7:15:00 PM 16.11 60.998 326.9 8.97 8.57 9.67
10/21/2020 7:30:00 PM 16.07 60.926 326.5 8.98 9.27 9.55
10/21/2020 7:45:00 PM -100000 -179968 -100000 -100000 -100000 -100000
10/21/2020 8:00:00 PM -100000 -179968 -100000 -100000 -100000 -100000
10/21/2020 8:15:00 PM -100000 -179968 -100000 -100000 -100000 -100000
10/21/2020 8:30:00 PM -100000 -179968 -100000 -100000 -100000 -100000
10/21/2020 8:45:00 PM -100000 -179968 -100000 -100000 -100000 -100000
10/21/2020 9:00:00 PM -100000 -179968 -100000 -100000 -100000 -100000
10/21/2020 9:15:00 PM -100000 -179968 -100000 -100000 -100000 -100000
10/21/2020 9:30:00 PM -100000 -179968 -100000 -100000 -100000 -100000
10/21/2020 9:45:00 PM -100000 -179968 -100000 -100000 -100000 -100000
10/21/2020 10:00:00 PM -100000 -179968 -100000 -100000 -100000 -100000
10/21/2020 10:15:00 PM -100000 -179968 -100000 -100000 -100000 -100000
10/21/2020 10:30:00 PM -100000 -179968 -100000 -100000 -100000 -100000
10/21/2020 10:45:00 PM -100000 -179968 -100000 -100000 -100000 -100000
10/21/2020 11:00:00 PM -100000 -179968 -100000 -100000 -100000 -100000
10/21/2020 11:15:00 PM -100000 -179968 -100000 -100000 -100000 -100000
10/21/2020 11:30:00 PM -100000 -179968 -100000 -100000 -100000 -100000
10/21/2020 11:45:00 PM -100000 -179968 -100000 -100000 -100000 -100000
10/22/2020 12:00:00 AM -100000 -179968 -100000 -100000 -100000 -100000
10/22/2020 12:15:00 AM -100000 -179968 -100000 -100000 -100000 -100000
10/22/2020 12:30:00 AM -100000 -179968 -100000 -100000 -100000 -100000
10/22/2020 12:45:00 AM -100000 -179968 -100000 -100000 -100000 -100000
10/22/2020 1:00:00 AM -100000 -179968 -100000 -100000 -100000 -100000
10/22/2020 1:15:00 AM -100000 -179968 -100000 -100000 -100000 -100000
10/22/2020 1:30:00 AM -100000 -179968 -100000 -100000 -100000 -100000
10/22/2020 1:45:00 AM -100000 -179968 -100000 -100000 -100000 -100000
10/22/2020 2:00:00 AM -100000 -179968 -100000 -100000 -100000 -100000
10/22/2020 2:15:00 AM -100000 -179968 -100000 -100000 -100000 -100000
10/22/2020 2:30:00 AM -100000 -179968 -100000 -100000 -100000 -100000
10/22/2020 2:45:00 AM -100000 -179968 -100000 -100000 -100000 -100000
10/22/2020 3:00:00 AM -100000 -179968 -100000 -100000 -100000 -100000
10/22/2020 3:15:00 AM -100000 -179968 -100000 -100000 -100000 -100000
10/22/2020 3:30:00 AM -100000 -179968 -100000 -100000 -100000 -100000
10/22/2020 3:45:00 AM -100000 -179968 -100000 -100000 -100000 -100000
10/22/2020 4:00:00 AM -100000 -179968 -100000 -100000 -100000 -100000
10/22/2020 4:15:00 AM -100000 -179968 -100000 -100000 -100000 -100000
10/22/2020 4:30:00 AM -100000 -179968 -100000 -100000 -100000 -100000
10/22/2020 4:45:00 AM -100000 -179968 -100000 -100000 -100000 -100000
10/22/2020 5:00:00 AM -100000 -179968 -100000 -100000 -100000 -100000
10/22/2020 5:15:00 AM -100000 -179968 -100000 -100000 -100000 -100000
10/22/2020 5:30:00 AM -100000 -179968 -100000 -100000 -100000 -100000
10/22/2020 5:45:00 AM -100000 -179968 -100000 -100000 -100000 -100000
10/22/2020 6:00:00 AM -100000 -179968 -100000 -100000 -100000 -100000
10/22/2020 6:15:00 AM -100000 -179968 -100000 -100000 -100000 -100000
10/22/2020 6:30:00 AM -100000 -179968 -100000 -100000 -100000 -100000
10/22/2020 6:45:00 AM -100000 -179968 -100000 -100000 -100000 -100000
10/22/2020 7:00:00 AM -100000 -179968 -100000 -100000 -100000 -100000
10/22/2020 7:15:00 AM -100000 -179968 -100000 -100000 -100000 -100000
10/22/2020 7:30:00 AM -100000 -179968 -100000 -100000 -100000 -100000
10/22/2020 7:45:00 AM -100000 -179968 -100000 -100000 -100000 -100000
10/22/2020 8:00:00 AM -100000 -179968 -100000 -100000 -100000 -100000
10/22/2020 8:15:00 AM -100000 -179968 -100000 -100000 -100000 -100000
10/22/2020 8:30:00 AM -100000 -179968 -100000 -100000 -100000 -100000
10/22/2020 8:45:00 AM -100000 -179968 -100000 -100000 -100000 -100000
10/22/2020 9:00:00 AM -100000 -179968 -100000 -100000 -100000 -100000
10/22/2020 9:15:00 AM -100000 -179968 -100000 -100000 -100000 -100000
10/22/2020 9:30:00 AM -100000 -179968 -100000 -100000 -100000 -100000
10/22/2020 9:45:00 AM -100000 -179968 -100000 -100000 -100000 -100000
10/22/2020 10:00:00 AM -100000 -179968 -100000 -100000 -100000 -100000
10/22/2020 10:15:00 AM -100000 -179968 -100000 -100000 -100000 -100000
10/22/2020 10:30:00 AM -100000 -179968 -100000 -100000 -100000 -100000
10/22/2020 10:45:00 AM -100000 -179968 -100000 -100000 -100000 -100000
10/22/2020 11:00:00 AM -100000 -179968 -100000 -100000 -100000 -100000
10/22/2020 11:15:00 AM -100000 -179968 -100000 -100000 -100000 -100000
10/22/2020 11:30:00 AM -100000 -179968 -100000 -100000 -100000 -100000
10/22/2020 11:45:00 AM -100000 -179968 -100000 -100000 -100000 -100000
10/22/2020 12:00:00 PM -100000 -179968 -100000 -100000 -100000 -100000
10/22/2020 12:15:00 PM -100000 -179968 -100000 -100000 -100000 -100000
10/22/2020 12:30:00 PM -100000 -179968 -100000 -100000 -100000 -100000
10/22/2020 12:45:00 PM -100000 -179968 -100000 -100000 -100000 -100000
10/22/2020 1:00:00 PM -100000 -179968 -100000 -100000 -100000 -100000
10/22/2020 1:15:00 PM -100000 -179968 -100000 -100000 -100000 -100000
10/22/2020 1:30:00 PM -100000 -179968 -100000 -100000 -100000 -100000
10/22/2020 1:45:00 PM -100000 -179968 -100000 -100000 -100000 -100000
10/22/2020 2:00:00 PM -100000 -179968 -100000 -100000 -100000 -100000
10/22/2020 2:15:00 PM -100000 -179968 -100000 -100000 -100000 -100000
10/22/2020 2:30:00 PM -100000 -179968 -100000 -100000 -100000 -100000
10/22/2020 2:45:00 PM -100000 -179968 -100000 -100000 -100000 -100000
10/22/2020 3:00:00 PM -100000 -179968 -100000 -100000 -100000 -100000
10/22/2020 3:15:00 PM -100000 -179968 -100000 -100000 -100000 -100000
10/22/2020 3:30:00 PM -100000 -179968 -100000 -100000 -100000 -100000
10/22/2020 3:45:00 PM -100000 -179968 -100000 -100000 -100000 -100000
10/22/2020 4:00:00 PM -100000 -179968 -100000 -100000 -100000 -100000
10/22/2020 4:15:00 PM -100000 -179968 -100000 -100000 -100000 -100000
10/22/2020 4:30:00 PM -100000 -179968 -100000 -100000 -100000 -100000
10/22/2020 4:45:00 PM -100000 -179968 -100000 -100000 -100000 -100000
10/22/2020 5:00:00 PM -100000 -179968 -100000 -100000 -100000 -100000
10/22/2020 5:15:00 PM -100000 -179968 -100000 -100000 -100000 -100000
10/22/2020 5:30:00 PM -100000 -179968 -100000 -100000 -100000 -100000
10/22/2020 5:45:00 PM -100000 -179968 -100000 -100000 -100000 -100000
10/22/2020 6:00:00 PM -100000 -179968 -100000 -100000 -100000 -100000
10/22/2020 6:15:00 PM -100000 -179968 -100000 -100000 -100000 -100000
10/22/2020 6:30:00 PM -100000 -179968 -100000 -100000 -100000 -100000
10/22/2020 6:45:00 PM -100000 -179968 -100000 -100000 -100000 -100000
10/22/2020 7:00:00 PM -100000 -179968 -100000 -100000 -100000 -100000
10/22/2020 7:15:00 PM -100000 -179968 -100000 -100000 -100000 -100000
10/22/2020 7:30:00 PM -100000 -179968 -100000 -100000 -100000 -100000
10/22/2020 7:45:00 PM -100000 -179968 -100000 -100000 -100000 -100000
10/22/2020 8:00:00 PM -100000 -179968 -100000 -100000 -100000 -100000
10/22/2020 8:15:00 PM -100000 -179968 -100000 -100000 -100000 -100000
10/22/2020 8:30:00 PM -100000 -179968 -100000 -100000 -100000 -100000
10/22/2020 8:45:00 PM -100000 -179968 -100000 -100000 -100000 -100000
10/22/2020 9:00:00 PM -100000 -179968 -100000 -100000 -100000 -100000
10/22/2020 9:15:00 PM -100000 -179968 -100000 -100000 -100000 -100000
10/22/2020 9:30:00 PM -100000 -179968 -100000 -100000 -100000 -100000
10/22/2020 9:45:00 PM -100000 -179968 -100000 -100000 -100000 -100000
10/22/2020 10:00:00 PM -100000 -179968 -100000 -100000 -100000 -100000
10/22/2020 10:15:00 PM -100000 -179968 -100000 -100000 -100000 -100000
10/22/2020 10:30:00 PM -100000 -179968 -100000 -100000 -100000 -100000
10/22/2020 10:45:00 PM -100000 -179968 -100000 -100000 -100000 -100000
10/22/2020 11:00:00 PM -100000 -179968 -100000 -100000 -100000 -100000
10/22/2020 11:15:00 PM -100000 -179968 -100000 -100000 -100000 -100000
10/22/2020 11:30:00 PM -100000 -179968 -100000 -100000 -100000 -100000
10/22/2020 11:45:00 PM -100000 -179968 -100000 -100000 -100000 -100000
10/23/2020 12:00:00 AM -100000 -179968 -100000 -100000 -100000 -100000
10/23/2020 12:15:00 AM -100000 -179968 -100000 -100000 -100000 -100000
10/23/2020 12:30:00 AM -100000 -179968 -100000 -100000 -100000 -100000
10/23/2020 12:45:00 AM -100000 -179968 -100000 -100000 -100000 -100000
10/23/2020 1:00:00 AM -100000 -179968 -100000 -100000 -100000 -100000
10/23/2020 1:15:00 AM -100000 -179968 -100000 -100000 -100000 -100000
10/23/2020 1:30:00 AM -100000 -179968 -100000 -100000 -100000 -100000
10/23/2020 1:45:00 AM -100000 -179968 -100000 -100000 -100000 -100000
10/23/2020 2:00:00 AM -100000 -179968 -100000 -100000 -100000 -100000
10/23/2020 2:15:00 AM -100000 -179968 -100000 -100000 -100000 -100000
10/23/2020 2:30:00 AM -100000 -179968 -100000 -100000 -100000 -100000
10/23/2020 2:45:00 AM -100000 -179968 -100000 -100000 -100000 -100000
10/23/2020 3:00:00 AM -100000 -179968 -100000 -100000 -100000 -100000
10/23/2020 3:15:00 AM -100000 -179968 -100000 -100000 -100000 -100000
10/23/2020 3:30:00 AM -100000 -179968 -100000 -100000 -100000 -100000
10/23/2020 3:45:00 AM -100000 -179968 -100000 -100000 -100000 -100000
10/23/2020 4:00:00 AM -100000 -179968 -100000 -100000 -100000 -100000
10/23/2020 4:15:00 AM -100000 -179968 -100000 -100000 -100000 -100000
10/23/2020 4:30:00 AM -100000 -179968 -100000 -100000 -100000 -100000
10/23/2020 4:45:00 AM -100000 -179968 -100000 -100000 -100000 -100000
10/23/2020 5:00:00 AM -100000 -179968 -100000 -100000 -100000 -100000
10/23/2020 5:15:00 AM -100000 -179968 -100000 -100000 -100000 -100000
10/23/2020 5:30:00 AM -100000 -179968 -100000 -100000 -100000 -100000
10/23/2020 5:45:00 AM -100000 -179968 -100000 -100000 -100000 -100000
10/23/2020 6:00:00 AM -100000 -179968 -100000 -100000 -100000 -100000
10/23/2020 6:15:00 AM -100000 -179968 -100000 -100000 -100000 -100000
10/23/2020 6:30:00 AM -100000 -179968 -100000 -100000 -100000 -100000
10/23/2020 6:45:00 AM -100000 -179968 -100000 -100000 -100000 -100000
10/23/2020 7:00:00 AM -100000 -179968 -100000 -100000 -100000 -100000
10/23/2020 7:15:00 AM -100000 -179968 -100000 -100000 -100000 -100000
10/23/2020 7:30:00 AM -100000 -179968 -100000 -100000 -100000 -100000
10/23/2020 7:45:00 AM -100000 -179968 -100000 -100000 -100000 -100000
10/23/2020 8:00:00 AM -100000 -179968 -100000 -100000 -100000 -100000
10/23/2020 8:15:00 AM -100000 -179968 -100000 -100000 -100000 -100000
10/23/2020 8:30:00 AM -100000 -179968 -100000 -100000 -100000 -100000
10/23/2020 8:45:00 AM -100000 -179968 -100000 -100000 -100000 -100000
10/23/2020 9:00:00 AM -100000 -179968 -100000 -100000 -100000 -100000
10/23/2020 9:15:00 AM -100000 -179968 -100000 -100000 -100000 -100000
10/23/2020 9:30:00 AM -100000 -179968 -100000 -100000 -100000 -100000
10/23/2020 9:45:00 AM -100000 -179968 -100000 -100000 -100000 -100000
10/23/2020 10:00:00 AM -100000 -179968 -100000 -100000 -100000 -100000
10/23/2020 10:15:00 AM -100000 -179968 -100000 -100000 -100000 -100000
10/23/2020 10:30:00 AM -100000 -179968 -100000 -100000 -100000 -100000
10/23/2020 10:45:00 AM -100000 -179968 -100000 -100000 -100000 -100000
10/23/2020 11:00:00 AM -100000 -179968 -100000 -100000 -100000 -100000
10/23/2020 11:15:00 AM -100000 -179968 -100000 -100000 -100000 -100000
10/23/2020 11:30:00 AM -100000 -179968 -100000 -100000 -100000 -100000
10/23/2020 11:45:00 AM -100000 -179968 -100000 -100000 -100000 -100000
10/23/2020 12:00:00 PM -100000 -179968 -100000 -100000 -100000 -100000
10/23/2020 12:15:00 PM -100000 -179968 -100000 -100000 -100000 -100000
10/23/2020 12:30:00 PM 16.35 61.43 332.7 7.57 6.62 9.67
10/23/2020 12:45:00 PM -100000 -179968 -100000 -100000 -100000 -100000
10/23/2020 1:00:00 PM -100000 -179968 -100000 -100000 -100000 -100000
10/23/2020 1:15:00 PM -100000 -179968 -100000 -100000 -100000 -100000
10/23/2020 1:30:00 PM -100000 -179968 -100000 -100000 -100000 -100000
10/23/2020 1:45:00 PM -100000 -179968 -100000 -100000 -100000 -100000
10/23/2020 2:00:00 PM -100000 -179968 -100000 -100000 -100000 -100000
10/23/2020 2:15:00 PM -100000 -179968 -100000 -100000 -100000 -100000
10/23/2020 2:30:00 PM -100000 -179968 -100000 -100000 -100000 -100000
10/23/2020 2:45:00 PM -100000 -179968 -100000 -100000 -100000 -100000
10/23/2020 3:00:00 PM -100000 -179968 -100000 -100000 -100000 -100000
10/23/2020 3:15:00 PM -100000 -179968 -100000 -100000 -100000 -100000
10/23/2020 3:30:00 PM -100000 -179968 -100000 -100000 -100000 -100000
10/23/2020 3:45:00 PM -100000 -179968 -100000 -100000 -100000 -100000
10/23/2020 4:00:00 PM -100000 -179968 -100000 -100000 -100000 -100000
10/23/2020 4:15:00 PM -100000 -179968 -100000 -100000 -100000 -100000
10/23/2020 4:30:00 PM -100000 -179968 -100000 -100000 -100000 -100000
10/23/2020 4:45:00 PM -100000 -179968 -100000 -100000 -100000 -100000
10/23/2020 5:00:00 PM -100000 -179968 -100000 -100000 -100000 -100000
10/23/2020 5:15:00 PM -100000 -179968 -100000 -100000 -100000 -100000
10/23/2020 5:30:00 PM -100000 -179968 -100000 -100000 -100000 -100000
10/23/2020 5:45:00 PM -100000 -179968 -100000 -100000 -100000 -100000
10/23/2020 6:00:00 PM -100000 -179968 -100000 -100000 -100000 -100000
10/23/2020 6:15:00 PM -100000 -179968 -100000 -100000 -100000 -100000
10/23/2020 6:30:00 PM -100000 -179968 -100000 -100000 -100000 -100000
10/23/2020 6:45:00 PM -100000 -179968 -100000 -100000 -100000 -100000
10/23/2020 7:00:00 PM -100000 -179968 -100000 -100000 -100000 -100000
10/23/2020 7:15:00 PM -100000 -179968 -100000 -100000 -100000 -100000
10/23/2020 7:30:00 PM -100000 -179968 -100000 -100000 -100000 -100000
10/23/2020 7:45:00 PM -100000 -179968 -100000 -100000 -100000 -100000
10/23/2020 8:00:00 PM -100000 -179968 -100000 -100000 -100000 -100000
10/23/2020 8:15:00 PM -100000 -179968 -100000 -100000 -100000 -100000
10/23/2020 8:30:00 PM -100000 -179968 -100000 -100000 -100000 -100000
10/23/2020 8:45:00 PM -100000 -179968 -100000 -100000 -100000 -100000
10/23/2020 9:00:00 PM -100000 -179968 -100000 -100000 -100000 -100000
10/23/2020 9:15:00 PM -100000 -179968 -100000 -100000 -100000 -100000
10/23/2020 9:30:00 PM -100000 -179968 -100000 -100000 -100000 -100000
10/23/2020 9:45:00 PM -100000 -179968 -100000 -100000 -100000 -100000
10/23/2020 10:00:00 PM -100000 -179968 -100000 -100000 -100000 -100000
10/23/2020 10:15:00 PM -100000 -179968 -100000 -100000 -100000 -100000
10/23/2020 10:30:00 PM -100000 -179968 -100000 -100000 -100000 -100000
10/23/2020 10:45:00 PM -100000 -179968 -100000 -100000 -100000 -100000
10/23/2020 11:00:00 PM -100000 -179968 -100000 -100000 -100000 -100000
10/23/2020 11:15:00 PM -100000 -179968 -100000 -100000 -100000 -100000
10/23/2020 11:30:00 PM -100000 -179968 -100000 -100000 -100000 -100000
10/23/2020 11:45:00 PM -100000 -179968 -100000 -100000 -100000 -100000
10/24/2020 12:00:00 AM -100000 -179968 -100000 -100000 -100000 -100000
10/24/2020 12:15:00 AM -100000 -179968 -100000 -100000 -100000 -100000
10/24/2020 12:30:00 AM -100000 -179968 -100000 -100000 -100000 -100000
10/24/2020 12:45:00 AM -100000 -179968 -100000 -100000 -100000 -100000
10/24/2020 1:00:00 AM -100000 -179968 -100000 -100000 -100000 -100000
10/24/2020 1:15:00 AM -100000 -179968 -100000 -100000 -100000 -100000
10/24/2020 1:30:00 AM -100000 -179968 -100000 -100000 -100000 -100000
10/24/2020 1:45:00 AM -100000 -179968 -100000 -100000 -100000 -100000
10/24/2020 2:00:00 AM -100000 -179968 -100000 -100000 -100000 -100000
10/24/2020 2:15:00 AM -100000 -179968 -100000 -100000 -100000 -100000
10/24/2020 2:30:00 AM -100000 -179968 -100000 -100000 -100000 -100000
10/24/2020 2:45:00 AM -100000 -179968 -100000 -100000 -100000 -100000
10/24/2020 3:00:00 AM -100000 -179968 -100000 -100000 -100000 -100000
10/24/2020 3:15:00 AM -100000 -179968 -100000 -100000 -100000 -100000
10/24/2020 3:30:00 AM -100000 -179968 -100000 -100000 -100000 -100000
10/24/2020 3:45:00 AM -100000 -179968 -100000 -100000 -100000 -100000
10/24/2020 4:00:00 AM -100000 -179968 -100000 -100000 -100000 -100000
10/24/2020 4:15:00 AM -100000 -179968 -100000 -100000 -100000 -100000
10/24/2020 4:30:00 AM -100000 -179968 -100000 -100000 -100000 -100000
10/24/2020 4:45:00 AM -100000 -179968 -100000 -100000 -100000 -100000
10/24/2020 5:00:00 AM -100000 -179968 -100000 -100000 -100000 -100000
10/24/2020 5:15:00 AM -100000 -179968 -100000 -100000 -100000 -100000
10/24/2020 5:30:00 AM -100000 -179968 -100000 -100000 -100000 -100000
10/24/2020 5:45:00 AM -100000 -179968 -100000 -100000 -100000 -100000
10/24/2020 6:00:00 AM -100000 -179968 -100000 -100000 -100000 -100000
10/24/2020 6:15:00 AM -100000 -179968 -100000 -100000 -100000 -100000
10/24/2020 6:30:00 AM -100000 -179968 -100000 -100000 -100000 -100000
10/24/2020 6:45:00 AM -100000 -179968 -100000 -100000 -100000 -100000
10/24/2020 7:00:00 AM -100000 -179968 -100000 -100000 -100000 -100000
10/24/2020 7:15:00 AM -100000 -179968 -100000 -100000 -100000 -100000
10/24/2020 7:30:00 AM -100000 -179968 -100000 -100000 -100000 -100000
10/24/2020 7:45:00 AM -100000 -179968 -100000 -100000 -100000 -100000
10/24/2020 8:00:00 AM -100000 -179968 -100000 -100000 -100000 -100000
10/24/2020 8:15:00 AM -100000 -179968 -100000 -100000 -100000 -100000
10/24/2020 8:30:00 AM -100000 -179968 -100000 -100000 -100000 -100000
10/24/2020 8:45:00 AM -100000 -179968 -100000 -100000 -100000 -100000
10/24/2020 9:00:00 AM -100000 -179968 -100000 -100000 -100000 -100000
10/24/2020 9:15:00 AM -100000 -179968 -100000 -100000 -100000 -100000
10/24/2020 9:30:00 AM -100000 -179968 -100000 -100000 -100000 -100000
10/24/2020 9:45:00 AM -100000 -179968 -100000 -100000 -100000 -100000
10/24/2020 10:00:00 AM -100000 -179968 -100000 -100000 -100000 -100000
10/24/2020 10:15:00 AM -100000 -179968 -100000 -100000 -100000 -100000
10/24/2020 10:30:00 AM -100000 -179968 -100000 -100000 -100000 -100000
10/24/2020 10:45:00 AM -100000 -179968 -100000 -100000 -100000 -100000
10/24/2020 11:00:00 AM -100000 -179968 -100000 -100000 -100000 -100000
10/24/2020 11:15:00 AM -100000 -179968 -100000 -100000 -100000 -100000
10/24/2020 11:30:00 AM -100000 -179968 -100000 -100000 -100000 -100000
10/24/2020 11:45:00 AM -100000 -179968 -100000 -100000 -100000 -100000
10/24/2020 12:00:00 PM -100000 -179968 -100000 -100000 -100000 -100000
10/24/2020 12:15:00 PM -100000 -179968 -100000 -100000 -100000 -100000
10/24/2020 12:30:00 PM -100000 -179968 -100000 -100000 -100000 -100000
10/24/2020 12:45:00 PM -100000 -179968 -100000 -100000 -100000 -100000
10/24/2020 1:00:00 PM -100000 -179968 -100000 -100000 -100000 -100000
10/24/2020 1:15:00 PM -100000 -179968 -100000 -100000 -100000 -100000
10/24/2020 1:30:00 PM -100000 -179968 -100000 -100000 -100000 -100000
10/24/2020 1:45:00 PM -100000 -179968 -100000 -100000 -100000 -100000
10/24/2020 2:00:00 PM -100000 -179968 -100000 -100000 -100000 -100000
10/24/2020 2:15:00 PM -100000 -179968 -100000 -100000 -100000 -100000
10/24/2020 2:30:00 PM -100000 -179968 -100000 -100000 -100000 -100000
10/24/2020 2:45:00 PM -100000 -179968 -100000 -100000 -100000 -100000
10/24/2020 3:00:00 PM -100000 -179968 -100000 -100000 -100000 -100000
10/24/2020 3:15:00 PM -100000 -179968 -100000 -100000 -100000 -100000
10/24/2020 3:30:00 PM -100000 -179968 -100000 -100000 -100000 -100000
10/24/2020 3:45:00 PM -100000 -179968 -100000 -100000 -100000 -100000
10/24/2020 4:00:00 PM -100000 -179968 -100000 -100000 -100000 -100000
10/24/2020 4:15:00 PM -100000 -179968 -100000 -100000 -100000 -100000
10/24/2020 4:30:00 PM -100000 -179968 -100000 -100000 -100000 -100000
10/24/2020 4:45:00 PM -100000 -179968 -100000 -100000 -100000 -100000
10/24/2020 5:00:00 PM -100000 -179968 -100000 -100000 -100000 -100000
10/24/2020 5:15:00 PM -100000 -179968 -100000 -100000 -100000 -100000
10/24/2020 5:30:00 PM -100000 -179968 -100000 -100000 -100000 -100000
10/24/2020 5:45:00 PM -100000 -179968 -100000 -100000 -100000 -100000
10/24/2020 6:00:00 PM -100000 -179968 -100000 -100000 -100000 -100000
10/24/2020 6:15:00 PM -100000 -179968 -100000 -100000 -100000 -100000
10/24/2020 6:30:00 PM -100000 -179968 -100000 -100000 -100000 -100000
10/24/2020 6:45:00 PM -100000 -179968 -100000 -100000 -100000 -100000
10/24/2020 7:00:00 PM -100000 -179968 -100000 -100000 -100000 -100000
10/24/2020 7:15:00 PM -100000 -179968 -100000 -100000 -100000 -100000
10/24/2020 7:30:00 PM -100000 -179968 -100000 -100000 -100000 -100000
10/24/2020 7:45:00 PM -100000 -179968 -100000 -100000 -100000 -100000
10/24/2020 8:00:00 PM -100000 -179968 -100000 -100000 -100000 -100000
10/24/2020 8:15:00 PM -100000 -179968 -100000 -100000 -100000 -100000
10/24/2020 8:30:00 PM -100000 -179968 -100000 -100000 -100000 -100000
10/24/2020 8:45:00 PM -100000 -179968 -100000 -100000 -100000 -100000
10/24/2020 9:00:00 PM -100000 -179968 -100000 -100000 -100000 -100000
10/24/2020 9:15:00 PM -100000 -179968 -100000 -100000 -100000 -100000
10/24/2020 9:30:00 PM -100000 -179968 -100000 -100000 -100000 -100000
10/24/2020 9:45:00 PM -100000 -179968 -100000 -100000 -100000 -100000
10/24/2020 10:00:00 PM -100000 -179968 -100000 -100000 -100000 -100000
10/24/2020 10:15:00 PM -100000 -179968 -100000 -100000 -100000 -100000
10/24/2020 10:30:00 PM -100000 -179968 -100000 -100000 -100000 -100000
10/24/2020 10:45:00 PM -100000 -179968 -100000 -100000 -100000 -100000
10/24/2020 11:00:00 PM -100000 -179968 -100000 -100000 -100000 -100000
10/24/2020 11:15:00 PM -100000 -179968 -100000 -100000 -100000 -100000
10/24/2020 11:30:00 PM -100000 -179968 -100000 -100000 -100000 -100000
10/24/2020 11:45:00 PM -100000 -179968 -100000 -100000 -100000 -100000
10/25/2020 12:00:00 AM -100000 -179968 -100000 -100000 -100000 -100000
10/25/2020 12:15:00 AM -100000 -179968 -100000 -100000 -100000 -100000
10/25/2020 12:30:00 AM -100000 -179968 -100000 -100000 -100000 -100000
10/25/2020 12:45:00 AM -100000 -179968 -100000 -100000 -100000 -100000
10/25/2020 1:00:00 AM -100000 -179968 -100000 -100000 -100000 -100000
10/25/2020 1:15:00 AM -100000 -179968 -100000 -100000 -100000 -100000
10/25/2020 1:30:00 AM -100000 -179968 -100000 -100000 -100000 -100000
10/25/2020 1:45:00 AM -100000 -179968 -100000 -100000 -100000 -100000
10/25/2020 2:00:00 AM -100000 -179968 -100000 -100000 -100000 -100000
10/25/2020 2:15:00 AM -100000 -179968 -100000 -100000 -100000 -100000
10/25/2020 2:30:00 AM -100000 -179968 -100000 -100000 -100000 -100000
10/25/2020 2:45:00 AM -100000 -179968 -100000 -100000 -100000 -100000
10/25/2020 3:00:00 AM -100000 -179968 -100000 -100000 -100000 -100000
10/25/2020 3:15:00 AM -100000 -179968 -100000 -100000 -100000 -100000
10/25/2020 3:30:00 AM -100000 -179968 -100000 -100000 -100000 -100000
10/25/2020 3:45:00 AM -100000 -179968 -100000 -100000 -100000 -100000
10/25/2020 4:00:00 AM -100000 -179968 -100000 -100000 -100000 -100000
10/25/2020 4:15:00 AM -100000 -179968 -100000 -100000 -100000 -100000
10/25/2020 4:30:00 AM -100000 -179968 -100000 -100000 -100000 -100000
10/25/2020 4:45:00 AM -100000 -179968 -100000 -100000 -100000 -100000
10/25/2020 5:00:00 AM -100000 -179968 -100000 -100000 -100000 -100000
10/25/2020 5:15:00 AM -100000 -179968 -100000 -100000 -100000 -100000
10/25/2020 5:30:00 AM -100000 -179968 -100000 -100000 -100000 -100000
10/25/2020 5:45:00 AM -100000 -179968 -100000 -100000 -100000 -100000
10/25/2020 6:00:00 AM -100000 -179968 -100000 -100000 -100000 -100000
10/25/2020 6:15:00 AM -100000 -179968 -100000 -100000 -100000 -100000
10/25/2020 6:30:00 AM -100000 -179968 -100000 -100000 -100000 -100000
10/25/2020 6:45:00 AM -100000 -179968 -100000 -100000 -100000 -100000
10/25/2020 7:00:00 AM -100000 -179968 -100000 -100000 -100000 -100000
10/25/2020 7:15:00 AM -100000 -179968 -100000 -100000 -100000 -100000
10/25/2020 7:30:00 AM -100000 -179968 -100000 -100000 -100000 -100000
10/25/2020 7:45:00 AM -100000 -179968 -100000 -100000 -100000 -100000
10/25/2020 8:00:00 AM -100000 -179968 -100000 -100000 -100000 -100000
10/25/2020 8:15:00 AM -100000 -179968 -100000 -100000 -100000 -100000
10/25/2020 8:30:00 AM -100000 -179968 -100000 -100000 -100000 -100000
10/25/2020 8:45:00 AM -100000 -179968 -100000 -100000 -100000 -100000
10/25/2020 9:00:00 AM -100000 -179968 -100000 -100000 -100000 -100000
10/25/2020 9:15:00 AM -100000 -179968 -100000 -100000 -100000 -100000
10/25/2020 9:30:00 AM -100000 -179968 -100000 -100000 -100000 -100000
10/25/2020 9:45:00 AM -100000 -179968 -100000 -100000 -100000 -100000
10/25/2020 10:00:00 AM -100000 -179968 -100000 -100000 -100000 -100000
10/25/2020 10:15:00 AM -100000 -179968 -100000 -100000 -100000 -100000
10/25/2020 10:30:00 AM -100000 -179968 -100000 -100000 -100000 -100000
10/25/2020 10:45:00 AM -100000 -179968 -100000 -100000 -100000 -100000
10/25/2020 11:00:00 AM -100000 -179968 -100000 -100000 -100000 -100000
10/25/2020 11:15:00 AM -100000 -179968 -100000 -100000 -100000 -100000
10/25/2020 11:30:00 AM -100000 -179968 -100000 -100000 -100000 -100000
10/25/2020 11:45:00 AM -100000 -179968 -100000 -100000 -100000 -100000
10/25/2020 12:00:00 PM -100000 -179968 -100000 -100000 -100000 -100000
10/25/2020 12:15:00 PM -100000 -179968 -100000 -100000 -100000 -100000
10/25/2020 12:30:00 PM -100000 -179968 -100000 -100000 -100000 -100000
10/25/2020 12:45:00 PM -100000 -179968 -100000 -100000 -100000 -100000
10/25/2020 1:00:00 PM -100000 -179968 -100000 -100000 -100000 -100000
10/25/2020 1:15:00 PM -100000 -179968 -100000 -100000 -100000 -100000
10/25/2020 1:30:00 PM -100000 -179968 -100000 -100000 -100000 -100000
10/25/2020 1:45:00 PM -100000 -179968 -100000 -100000 -100000 -100000
10/25/2020 2:00:00 PM -100000 -179968 -100000 -100000 -100000 -100000
10/25/2020 2:15:00 PM -100000 -179968 -100000 -100000 -100000 -100000
10/25/2020 2:30:00 PM -100000 -179968 -100000 -100000 -100000 -100000
10/25/2020 2:45:00 PM -100000 -179968 -100000 -100000 -100000 -100000
10/25/2020 3:00:00 PM -100000 -179968 -100000 -100000 -100000 -100000
10/25/2020 3:15:00 PM -100000 -179968 -100000 -100000 -100000 -100000
10/25/2020 3:30:00 PM -100000 -179968 -100000 -100000 -100000 -100000
10/25/2020 3:45:00 PM -100000 -179968 -100000 -100000 -100000 -100000
10/25/2020 4:00:00 PM -100000 -179968 -100000 -100000 -100000 -100000
10/25/2020 4:15:00 PM -100000 -179968 -100000 -100000 -100000 -100000
10/25/2020 4:30:00 PM -100000 -179968 -100000 -100000 -100000 -100000
10/25/2020 4:45:00 PM -100000 -179968 -100000 -100000 -100000 -100000
10/25/2020 5:00:00 PM -100000 -179968 -100000 -100000 -100000 -100000
10/25/2020 5:15:00 PM -100000 -179968 -100000 -100000 -100000 -100000
10/25/2020 5:30:00 PM -100000 -179968 -100000 -100000 -100000 -100000
10/25/2020 5:45:00 PM -100000 -179968 -100000 -100000 -100000 -100000
10/25/2020 6:00:00 PM -100000 -179968 -100000 -100000 -100000 -100000
10/25/2020 6:15:00 PM -100000 -179968 -100000 -100000 -100000 -100000
10/25/2020 6:30:00 PM -100000 -179968 -100000 -100000 -100000 -100000
10/25/2020 6:45:00 PM -100000 -179968 -100000 -100000 -100000 -100000
10/25/2020 7:00:00 PM -100000 -179968 -100000 -100000 -100000 -100000
10/25/2020 7:15:00 PM -100000 -179968 -100000 -100000 -100000 -100000
10/25/2020 7:30:00 PM -100000 -179968 -100000 -100000 -100000 -100000
10/25/2020 7:45:00 PM -100000 -179968 -100000 -100000 -100000 -100000
10/25/2020 8:00:00 PM -100000 -179968 -100000 -100000 -100000 -100000
10/25/2020 8:15:00 PM -100000 -179968 -100000 -100000 -100000 -100000
10/25/2020 8:30:00 PM -100000 -179968 -100000 -100000 -100000 -100000
10/25/2020 8:45:00 PM -100000 -179968 -100000 -100000 -100000 -100000
10/25/2020 9:00:00 PM -100000 -179968 -100000 -100000 -100000 -100000
10/25/2020 9:15:00 PM -100000 -179968 -100000 -100000 -100000 -100000
10/25/2020 9:30:00 PM -100000 -179968 -100000 -100000 -100000 -100000
10/25/2020 9:45:00 PM -100000 -179968 -100000 -100000 -100000 -100000
10/25/2020 10:00:00 PM -100000 -179968 -100000 -100000 -100000 -100000
10/25/2020 10:15:00 PM -100000 -179968 -100000 -100000 -100000 -100000
10/25/2020 10:30:00 PM -100000 -179968 -100000 -100000 -100000 -100000
10/25/2020 10:45:00 PM -100000 -179968 -100000 -100000 -100000 -100000
10/25/2020 11:00:00 PM -100000 -179968 -100000 -100000 -100000 -100000
10/25/2020 11:15:00 PM -100000 -179968 -100000 -100000 -100000 -100000
10/25/2020 11:30:00 PM -100000 -179968 -100000 -100000 -100000 -100000
10/25/2020 11:45:00 PM -100000 -179968 -100000 -100000 -100000 -100000
10/26/2020 12:00:00 AM -100000 -179968 -100000 -100000 -100000 -100000
10/26/2020 12:15:00 AM -100000 -179968 -100000 -100000 -100000 -100000
10/26/2020 12:30:00 AM -100000 -179968 -100000 -100000 -100000 -100000
10/26/2020 12:45:00 AM -100000 -179968 -100000 -100000 -100000 -100000
10/26/2020 1:00:00 AM -100000 -179968 -100000 -100000 -100000 -100000
10/26/2020 1:15:00 AM -100000 -179968 -100000 -100000 -100000 -100000
10/26/2020 1:30:00 AM -100000 -179968 -100000 -100000 -100000 -100000
10/26/2020 1:45:00 AM -100000 -179968 -100000 -100000 -100000 -100000
10/26/2020 2:00:00 AM -100000 -179968 -100000 -100000 -100000 -100000
10/26/2020 2:15:00 AM -100000 -179968 -100000 -100000 -100000 -100000
10/26/2020 2:30:00 AM -100000 -179968 -100000 -100000 -100000 -100000
10/26/2020 2:45:00 AM -100000 -179968 -100000 -100000 -100000 -100000
10/26/2020 3:00:00 AM -100000 -179968 -100000 -100000 -100000 -100000
10/26/2020 3:15:00 AM -100000 -179968 -100000 -100000 -100000 -100000
10/26/2020 3:30:00 AM -100000 -179968 -100000 -100000 -100000 -100000
10/26/2020 3:45:00 AM -100000 -179968 -100000 -100000 -100000 -100000
10/26/2020 4:00:00 AM -100000 -179968 -100000 -100000 -100000 -100000
10/26/2020 4:15:00 AM -100000 -179968 -100000 -100000 -100000 -100000
10/26/2020 4:30:00 AM -100000 -179968 -100000 -100000 -100000 -100000
10/26/2020 4:45:00 AM -100000 -179968 -100000 -100000 -100000 -100000
10/26/2020 5:00:00 AM -100000 -179968 -100000 -100000 -100000 -100000
10/26/2020 5:15:00 AM -100000 -179968 -100000 -100000 -100000 -100000
10/26/2020 5:30:00 AM -100000 -179968 -100000 -100000 -100000 -100000
10/26/2020 5:45:00 AM -100000 -179968 -100000 -100000 -100000 -100000
10/26/2020 6:00:00 AM -100000 -179968 -100000 -100000 -100000 -100000
10/26/2020 6:15:00 AM -100000 -179968 -100000 -100000 -100000 -100000
10/26/2020 6:30:00 AM -100000 -179968 -100000 -100000 -100000 -100000
10/26/2020 6:45:00 AM -100000 -179968 -100000 -100000 -100000 -100000
10/26/2020 7:00:00 AM -100000 -179968 -100000 -100000 -100000 -100000
10/26/2020 7:15:00 AM -100000 -179968 -100000 -100000 -100000 -100000
10/26/2020 7:30:00 AM -100000 -179968 -100000 -100000 -100000 -100000
10/26/2020 7:45:00 AM -100000 -179968 -100000 -100000 -100000 -100000
10/26/2020 8:00:00 AM -100000 -179968 -100000 -100000 -100000 -100000
10/26/2020 8:15:00 AM -100000 -179968 -100000 -100000 -100000 -100000
10/26/2020 8:30:00 AM -100000 -179968 -100000 -100000 -100000 -100000
10/26/2020 8:45:00 AM -100000 -179968 -100000 -100000 -100000 -100000
10/26/2020 9:00:00 AM -100000 -179968 -100000 -100000 -100000 -100000
10/26/2020 9:15:00 AM -100000 -179968 -100000 -100000 -100000 -100000
10/26/2020 9:30:00 AM -100000 -179968 -100000 -100000 -100000 -100000
10/26/2020 9:45:00 AM -100000 -179968 -100000 -100000 -100000 -100000
10/26/2020 10:00:00 AM -100000 -179968 -100000 -100000 -100000 -100000
10/26/2020 10:15:00 AM -100000 -179968 -100000 -100000 -100000 -100000
10/26/2020 10:30:00 AM -100000 -179968 -100000 -100000 -100000 -100000
10/26/2020 10:45:00 AM -100000 -179968 -100000 -100000 -100000 -100000
10/26/2020 11:00:00 AM -100000 -179968 -100000 -100000 -100000 -100000
10/26/2020 11:15:00 AM -100000 -179968 -100000 -100000 -100000 -100000
10/26/2020 11:30:00 AM -100000 -179968 -100000 -100000 -100000 -100000
10/26/2020 11:45:00 AM -100000 -179968 -100000 -100000 -100000 -100000
10/26/2020 12:00:00 PM -100000 -179968 -100000 -100000 -100000 -100000
10/26/2020 12:15:00 PM -100000 -179968 -100000 -100000 -100000 -100000
10/26/2020 12:30:00 PM -100000 -179968 -100000 -100000 -100000 -100000
10/26/2020 12:45:00 PM -100000 -179968 -100000 -100000 -100000 -100000
10/26/2020 1:00:00 PM -100000 -179968 -100000 -100000 -100000 -100000
10/26/2020 1:15:00 PM -100000 -179968 -100000 -100000 -100000 -100000
10/26/2020 1:30:00 PM -100000 -179968 -100000 -100000 -100000 -100000
10/26/2020 1:45:00 PM -100000 -179968 -100000 -100000 -100000 -100000
10/26/2020 2:00:00 PM -100000 -179968 -100000 -100000 -100000 -100000
10/26/2020 2:15:00 PM -100000 -179968 -100000 -100000 -100000 -100000
10/26/2020 2:30:00 PM -100000 -179968 -100000 -100000 -100000 -100000
10/26/2020 2:45:00 PM -100000 -179968 -100000 -100000 -100000 -100000
10/26/2020 3:00:00 PM -100000 -179968 -100000 -100000 -100000 -100000
10/26/2020 3:15:00 PM -100000 -179968 -100000 -100000 -100000 -100000
10/26/2020 3:30:00 PM -100000 -179968 -100000 -100000 -100000 -100000
10/26/2020 3:45:00 PM -100000 -179968 -100000 -100000 -100000 -100000
10/26/2020 4:00:00 PM -100000 -179968 -100000 -100000 -100000 -100000
10/26/2020 4:15:00 PM -100000 -179968 -100000 -100000 -100000 -100000
10/26/2020 4:30:00 PM -100000 -179968 -100000 -100000 -100000 -100000
10/26/2020 4:45:00 PM -100000 -179968 -100000 -100000 -100000 -100000
10/26/2020 5:00:00 PM -100000 -179968 -100000 -100000 -100000 -100000
10/26/2020 5:15:00 PM -100000 -179968 -100000 -100000 -100000 -100000
10/26/2020 5:30:00 PM -100000 -179968 -100000 -100000 -100000 -100000
10/26/2020 5:45:00 PM -100000 -179968 -100000 -100000 -100000 -100000
10/26/2020 6:00:00 PM -100000 -179968 -100000 -100000 -100000 -100000
10/26/2020 6:15:00 PM -100000 -179968 -100000 -100000 -100000 -100000
10/26/2020 6:30:00 PM -100000 -179968 -100000 -100000 -100000 -100000
10/26/2020 6:45:00 PM -100000 -179968 -100000 -100000 -100000 -100000
10/26/2020 7:00:00 PM -100000 -179968 -100000 -100000 -100000 -100000
10/26/2020 7:15:00 PM -100000 -179968 -100000 -100000 -100000 -100000
10/26/2020 7:30:00 PM -100000 -179968 -100000 -100000 -100000 -100000
10/26/2020 7:45:00 PM -100000 -179968 -100000 -100000 -100000 -100000
10/26/2020 8:00:00 PM -100000 -179968 -100000 -100000 -100000 -100000
10/26/2020 8:15:00 PM -100000 -179968 -100000 -100000 -100000 -100000
10/26/2020 8:30:00 PM -100000 -179968 -100000 -100000 -100000 -100000
10/26/2020 8:45:00 PM -100000 -179968 -100000 -100000 -100000 -100000
10/26/2020 9:00:00 PM -100000 -179968 -100000 -100000 -100000 -100000
10/26/2020 9:15:00 PM -100000 -179968 -100000 -100000 -100000 -100000
10/26/2020 9:30:00 PM -100000 -179968 -100000 -100000 -100000 -100000
10/26/2020 9:45:00 PM -100000 -179968 -100000 -100000 -100000 -100000
10/26/2020 10:00:00 PM -100000 -179968 -100000 -100000 -100000 -100000
10/26/2020 10:15:00 PM -100000 -179968 -100000 -100000 -100000 -100000
10/26/2020 10:30:00 PM -100000 -179968 -100000 -100000 -100000 -100000
10/26/2020 10:45:00 PM -100000 -179968 -100000 -100000 -100000 -100000
10/26/2020 11:00:00 PM -100000 -179968 -100000 -100000 -100000 -100000
10/26/2020 11:15:00 PM -100000 -179968 -100000 -100000 -100000 -100000
10/26/2020 11:30:00 PM -100000 -179968 -100000 -100000 -100000 -100000
10/26/2020 11:45:00 PM -100000 -179968 -100000 -100000 -100000 -100000
10/27/2020 12:00:00 AM -100000 -179968 -100000 -100000 -100000 -100000
10/27/2020 12:15:00 AM -100000 -179968 -100000 -100000 -100000 -100000
10/27/2020 12:30:00 AM -100000 -179968 -100000 -100000 -100000 -100000
10/27/2020 12:45:00 AM -100000 -179968 -100000 -100000 -100000 -100000
10/27/2020 1:00:00 AM -100000 -179968 -100000 -100000 -100000 -100000
10/27/2020 1:15:00 AM -100000 -179968 -100000 -100000 -100000 -100000
10/27/2020 1:30:00 AM -100000 -179968 -100000 -100000 -100000 -100000
10/27/2020 1:45:00 AM -100000 -179968 -100000 -100000 -100000 -100000
10/27/2020 2:00:00 AM -100000 -179968 -100000 -100000 -100000 -100000
10/27/2020 2:15:00 AM -100000 -179968 -100000 -100000 -100000 -100000
10/27/2020 2:30:00 AM -100000 -179968 -100000 -100000 -100000 -100000
10/27/2020 2:45:00 AM -100000 -179968 -100000 -100000 -100000 -100000
10/27/2020 3:00:00 AM -100000 -179968 -100000 -100000 -100000 -100000
10/27/2020 3:15:00 AM -100000 -179968 -100000 -100000 -100000 -100000
10/27/2020 3:30:00 AM -100000 -179968 -100000 -100000 -100000 -100000
10/27/2020 3:45:00 AM -100000 -179968 -100000 -100000 -100000 -100000
10/27/2020 4:00:00 AM -100000 -179968 -100000 -100000 -100000 -100000
10/27/2020 4:15:00 AM -100000 -179968 -100000 -100000 -100000 -100000
10/27/2020 4:30:00 AM -100000 -179968 -100000 -100000 -100000 -100000
10/27/2020 4:45:00 AM -100000 -179968 -100000 -100000 -100000 -100000
10/27/2020 5:00:00 AM -100000 -179968 -100000 -100000 -100000 -100000
10/27/2020 5:15:00 AM -100000 -179968 -100000 -100000 -100000 -100000
10/27/2020 5:30:00 AM -100000 -179968 -100000 -100000 -100000 -100000
10/27/2020 5:45:00 AM -100000 -179968 -100000 -100000 -100000 -100000
10/27/2020 6:00:00 AM -100000 -179968 -100000 -100000 -100000 -100000
10/27/2020 6:15:00 AM -100000 -179968 -100000 -100000 -100000 -100000
10/27/2020 6:30:00 AM -100000 -179968 -100000 -100000 -100000 -100000
10/27/2020 6:45:00 AM -100000 -179968 -100000 -100000 -100000 -100000
10/27/2020 7:00:00 AM -100000 -179968 -100000 -100000 -100000 -100000
10/27/2020 7:15:00 AM -100000 -179968 -100000 -100000 -100000 -100000
10/27/2020 7:30:00 AM -100000 -179968 -100000 -100000 -100000 -100000
10/27/2020 7:45:00 AM -100000 -179968 -100000 -100000 -100000 -100000
10/27/2020 8:00:00 AM -100000 -179968 -100000 -100000 -100000 -100000
10/27/2020 8:15:00 AM -100000 -179968 -100000 -100000 -100000 -100000
10/27/2020 8:30:00 AM -100000 -179968 -100000 -100000 -100000 -100000
10/27/2020 8:45:00 AM -100000 -179968 -100000 -100000 -100000 -100000
10/27/2020 9:00:00 AM -100000 -179968 -100000 -100000 -100000 -100000
10/27/2020 9:15:00 AM -100000 -179968 -100000 -100000 -100000 -100000
10/27/2020 9:30:00 AM -100000 -179968 -100000 -100000 -100000 -100000
10/27/2020 9:45:00 AM -100000 -179968 -100000 -100000 -100000 -100000
10/27/2020 10:00:00 AM -100000 -179968 -100000 -100000 -100000 -100000
10/27/2020 10:15:00 AM 12.25 54.05 332.7 7.21 8.57 10.02
10/27/2020 10:30:00 AM 12.27 54.086 332.8 7.55 9.92 10.12
10/27/2020 10:45:00 AM 12.32 54.176 332.7 9.22 10.75 10.24
10/27/2020 11:00:00 AM 12.37 54.266 333 10.89 13.4 10.35
10/27/2020 11:15:00 AM 12.42 54.356 333.4 10.58 9.02 10.44
10/27/2020 11:30:00 AM 12.46 54.428 333.7 11.67 9.03 10.57
10/27/2020 11:45:00 AM 12.51 54.518 333.9 12.43 9.51 10.69
10/27/2020 12:00:00 PM 12.57 54.626 334.1 11.98 8.8 10.82
10/27/2020 12:15:00 PM 12.62 54.716 334.5 12.68 8.92 10.92
10/27/2020 12:30:00 PM 12.69 54.842 334.2 12.34 8.4 11.08
10/27/2020 12:45:00 PM -100000 -179968 -100000 -100000 -100000 -100000
10/27/2020 1:00:00 PM -100000 -179968 -100000 -100000 -100000 -100000
10/27/2020 1:15:00 PM -100000 -179968 -100000 -100000 -100000 -100000
10/27/2020 1:30:00 PM -100000 -179968 -100000 -100000 -100000 -100000
10/27/2020 1:45:00 PM -100000 -179968 -100000 -100000 -100000 -100000
10/27/2020 2:00:00 PM -100000 -179968 -100000 -100000 -100000 -100000
10/27/2020 2:15:00 PM -100000 -179968 -100000 -100000 -100000 -100000
10/27/2020 2:30:00 PM -100000 -179968 -100000 -100000 -100000 -100000
10/27/2020 2:45:00 PM -100000 -179968 -100000 -100000 -100000 -100000
10/27/2020 3:00:00 PM -100000 -179968 -100000 -100000 -100000 -100000
10/27/2020 3:15:00 PM -100000 -179968 -100000 -100000 -100000 -100000
10/27/2020 3:30:00 PM -100000 -179968 -100000 -100000 -100000 -100000
10/27/2020 3:45:00 PM -100000 -179968 -100000 -100000 -100000 -100000
10/27/2020 4:00:00 PM -100000 -179968 -100000 -100000 -100000 -100000
10/27/2020 4:15:00 PM -100000 -179968 -100000 -100000 -100000 -100000
10/27/2020 4:30:00 PM -100000 -179968 -100000 -100000 -100000 -100000
10/27/2020 4:45:00 PM -100000 -179968 -100000 -100000 -100000 -100000
10/27/2020 5:00:00 PM -100000 -179968 -100000 -100000 -100000 -100000
10/27/2020 5:15:00 PM -100000 -179968 -100000 -100000 -100000 -100000
10/27/2020 5:30:00 PM -100000 -179968 -100000 -100000 -100000 -100000
10/27/2020 5:45:00 PM -100000 -179968 -100000 -100000 -100000 -100000
10/27/2020 6:00:00 PM -100000 -179968 -100000 -100000 -100000 -100000
10/27/2020 6:15:00 PM -100000 -179968 -100000 -100000 -100000 -100000
10/27/2020 6:30:00 PM -100000 -179968 -100000 -100000 -100000 -100000
10/27/2020 6:45:00 PM -100000 -179968 -100000 -100000 -100000 -100000
10/27/2020 7:00:00 PM -100000 -179968 -100000 -100000 -100000 -100000
10/27/2020 7:15:00 PM -100000 -179968 -100000 -100000 -100000 -100000
10/27/2020 7:30:00 PM -100000 -179968 -100000 -100000 -100000 -100000
10/27/2020 7:45:00 PM -100000 -179968 -100000 -100000 -100000 -100000
10/27/2020 8:00:00 PM -100000 -179968 -100000 -100000 -100000 -100000
10/27/2020 8:15:00 PM -100000 -179968 -100000 -100000 -100000 -100000
10/27/2020 8:30:00 PM -100000 -179968 -100000 -100000 -100000 -100000
10/27/2020 8:45:00 PM -100000 -179968 -100000 -100000 -100000 -100000
10/27/2020 9:00:00 PM -100000 -179968 -100000 -100000 -100000 -100000
10/27/2020 9:15:00 PM -100000 -179968 -100000 -100000 -100000 -100000
10/27/2020 9:30:00 PM -100000 -179968 -100000 -100000 -100000 -100000
10/27/2020 9:45:00 PM -100000 -179968 -100000 -100000 -100000 -100000
10/27/2020 10:00:00 PM -100000 -179968 -100000 -100000 -100000 -100000
10/27/2020 10:15:00 PM -100000 -179968 -100000 -100000 -100000 -100000
10/27/2020 10:30:00 PM -100000 -179968 -100000 -100000 -100000 -100000
10/27/2020 10:45:00 PM -100000 -179968 -100000 -100000 -100000 -100000
10/27/2020 11:00:00 PM -100000 -179968 -100000 -100000 -100000 -100000
10/27/2020 11:15:00 PM -100000 -179968 -100000 -100000 -100000 -100000
10/27/2020 11:30:00 PM -100000 -179968 -100000 -100000 -100000 -100000
10/27/2020 11:45:00 PM -100000 -179968 -100000 -100000 -100000 -100000
10/28/2020 12:00:00 AM -100000 -179968 -100000 -100000 -100000 -100000
10/28/2020 12:15:00 AM -100000 -179968 -100000 -100000 -100000 -100000
10/28/2020 12:30:00 AM -100000 -179968 -100000 -100000 -100000 -100000
10/28/2020 12:45:00 AM -100000 -179968 -100000 -100000 -100000 -100000
10/28/2020 1:00:00 AM -100000 -179968 -100000 -100000 -100000 -100000
10/28/2020 1:15:00 AM -100000 -179968 -100000 -100000 -100000 -100000
10/28/2020 1:30:00 AM -100000 -179968 -100000 -100000 -100000 -100000
10/28/2020 1:45:00 AM -100000 -179968 -100000 -100000 -100000 -100000
10/28/2020 2:00:00 AM -100000 -179968 -100000 -100000 -100000 -100000
10/28/2020 2:15:00 AM -100000 -179968 -100000 -100000 -100000 -100000
10/28/2020 2:30:00 AM -100000 -179968 -100000 -100000 -100000 -100000
10/28/2020 2:45:00 AM -100000 -179968 -100000 -100000 -100000 -100000
10/28/2020 3:00:00 AM -100000 -179968 -100000 -100000 -100000 -100000
10/28/2020 3:15:00 AM -100000 -179968 -100000 -100000 -100000 -100000
10/28/2020 3:30:00 AM -100000 -179968 -100000 -100000 -100000 -100000
10/28/2020 3:45:00 AM -100000 -179968 -100000 -100000 -100000 -100000
10/28/2020 4:00:00 AM -100000 -179968 -100000 -100000 -100000 -100000
10/28/2020 4:15:00 AM -100000 -179968 -100000 -100000 -100000 -100000
10/28/2020 4:30:00 AM -100000 -179968 -100000 -100000 -100000 -100000
10/28/2020 4:45:00 AM -100000 -179968 -100000 -100000 -100000 -100000
10/28/2020 5:00:00 AM -100000 -179968 -100000 -100000 -100000 -100000
10/28/2020 5:15:00 AM -100000 -179968 -100000 -100000 -100000 -100000
10/28/2020 5:30:00 AM -100000 -179968 -100000 -100000 -100000 -100000
10/28/2020 5:45:00 AM -100000 -179968 -100000 -100000 -100000 -100000
10/28/2020 6:00:00 AM -100000 -179968 -100000 -100000 -100000 -100000
10/28/2020 6:15:00 AM -100000 -179968 -100000 -100000 -100000 -100000
10/28/2020 6:30:00 AM -100000 -179968 -100000 -100000 -100000 -100000
10/28/2020 6:45:00 AM -100000 -179968 -100000 -100000 -100000 -100000
10/28/2020 7:00:00 AM -100000 -179968 -100000 -100000 -100000 -100000
10/28/2020 7:15:00 AM -100000 -179968 -100000 -100000 -100000 -100000
10/28/2020 7:30:00 AM -100000 -179968 -100000 -100000 -100000 -100000
10/28/2020 7:45:00 AM -100000 -179968 -100000 -100000 -100000 -100000
10/28/2020 8:00:00 AM -100000 -179968 -100000 -100000 -100000 -100000
10/28/2020 8:15:00 AM -100000 -179968 -100000 -100000 -100000 -100000
10/28/2020 8:30:00 AM -100000 -179968 -100000 -100000 -100000 -100000
10/28/2020 8:45:00 AM -100000 -179968 -100000 -100000 -100000 -100000
10/28/2020 9:00:00 AM -100000 -179968 -100000 -100000 -100000 -100000
10/28/2020 9:15:00 AM -100000 -179968 -100000 -100000 -100000 -100000
10/28/2020 9:30:00 AM -100000 -179968 -100000 -100000 -100000 -100000
10/28/2020 9:45:00 AM -100000 -179968 -100000 -100000 -100000 -100000
10/28/2020 10:00:00 AM -100000 -179968 -100000 -100000 -100000 -100000
10/28/2020 10:15:00 AM -100000 -179968 -100000 -100000 -100000 -100000
10/28/2020 10:30:00 AM -100000 -179968 -100000 -100000 -100000 -100000
10/28/2020 10:45:00 AM -100000 -179968 -100000 -100000 -100000 -100000
10/28/2020 11:00:00 AM -100000 -179968 -100000 -100000 -100000 -100000
10/28/2020 11:15:00 AM -100000 -179968 -100000 -100000 -100000 -100000
10/28/2020 11:30:00 AM -100000 -179968 -100000 -100000 -100000 -100000
10/28/2020 11:45:00 AM -100000 -179968 -100000 -100000 -100000 -100000
10/28/2020 12:00:00 PM -100000 -179968 -100000 -100000 -100000 -100000
10/28/2020 12:15:00 PM -100000 -179968 -100000 -100000 -100000 -100000
10/28/2020 12:30:00 PM -100000 -179968 -100000 -100000 -100000 -100000
10/28/2020 12:45:00 PM -100000 -179968 -100000 -100000 -100000 -100000
10/28/2020 1:00:00 PM -100000 -179968 -100000 -100000 -100000 -100000
10/28/2020 1:15:00 PM -100000 -179968 -100000 -100000 -100000 -100000
10/28/2020 1:30:00 PM -100000 -179968 -100000 -100000 -100000 -100000
10/28/2020 1:45:00 PM -100000 -179968 -100000 -100000 -100000 -100000
10/28/2020 2:00:00 PM -100000 -179968 -100000 -100000 -100000 -100000
10/28/2020 2:15:00 PM -100000 -179968 -100000 -100000 -100000 -100000
10/28/2020 2:30:00 PM -100000 -179968 -100000 -100000 -100000 -100000
10/28/2020 2:45:00 PM -100000 -179968 -100000 -100000 -100000 -100000
10/28/2020 3:00:00 PM -100000 -179968 -100000 -100000 -100000 -100000
10/28/2020 3:15:00 PM -100000 -179968 -100000 -100000 -100000 -100000
10/28/2020 3:30:00 PM -100000 -179968 -100000 -100000 -100000 -100000
10/28/2020 3:45:00 PM -100000 -179968 -100000 -100000 -100000 -100000
10/28/2020 4:00:00 PM -100000 -179968 -100000 -100000 -100000 -100000
10/28/2020 4:15:00 PM -100000 -179968 -100000 -100000 -100000 -100000
10/28/2020 4:30:00 PM -100000 -179968 -100000 -100000 -100000 -100000
10/28/2020 4:45:00 PM -100000 -179968 -100000 -100000 -100000 -100000
10/28/2020 5:00:00 PM -100000 -179968 -100000 -100000 -100000 -100000
10/28/2020 5:15:00 PM -100000 -179968 -100000 -100000 -100000 -100000
10/28/2020 5:30:00 PM -100000 -179968 -100000 -100000 -100000 -100000
10/28/2020 5:45:00 PM -100000 -179968 -100000 -100000 -100000 -100000
10/28/2020 6:00:00 PM -100000 -179968 -100000 -100000 -100000 -100000
10/28/2020 6:15:00 PM -100000 -179968 -100000 -100000 -100000 -100000
10/28/2020 6:30:00 PM -100000 -179968 -100000 -100000 -100000 -100000
10/28/2020 6:45:00 PM -100000 -179968 -100000 -100000 -100000 -100000
10/28/2020 7:00:00 PM -100000 -179968 -100000 -100000 -100000 -100000
10/28/2020 7:15:00 PM -100000 -179968 -100000 -100000 -100000 -100000
10/28/2020 7:30:00 PM -100000 -179968 -100000 -100000 -100000 -100000
10/28/2020 7:45:00 PM -100000 -179968 -100000 -100000 -100000 -100000
10/28/2020 8:00:00 PM -100000 -179968 -100000 -100000 -100000 -100000
10/28/2020 8:15:00 PM -100000 -179968 -100000 -100000 -100000 -100000
10/28/2020 8:30:00 PM -100000 -179968 -100000 -100000 -100000 -100000
10/28/2020 8:45:00 PM -100000 -179968 -100000 -100000 -100000 -100000
10/28/2020 9:00:00 PM -100000 -179968 -100000 -100000 -100000 -100000
10/28/2020 9:15:00 PM -100000 -179968 -100000 -100000 -100000 -100000
10/28/2020 9:30:00 PM -100000 -179968 -100000 -100000 -100000 -100000
10/28/2020 9:45:00 PM -100000 -179968 -100000 -100000 -100000 -100000
10/28/2020 10:00:00 PM -100000 -179968 -100000 -100000 -100000 -100000
10/28/2020 10:15:00 PM -100000 -179968 -100000 -100000 -100000 -100000
10/28/2020 10:30:00 PM -100000 -179968 -100000 -100000 -100000 -100000
10/28/2020 10:45:00 PM -100000 -179968 -100000 -100000 -100000 -100000
10/28/2020 11:00:00 PM -100000 -179968 -100000 -100000 -100000 -100000
10/28/2020 11:15:00 PM -100000 -179968 -100000 -100000 -100000 -100000
10/28/2020 11:30:00 PM -100000 -179968 -100000 -100000 -100000 -100000
10/28/2020 11:45:00 PM -100000 -179968 -100000 -100000 -100000 -100000
10/29/2020 12:00:00 AM -100000 -179968 -100000 -100000 -100000 -100000
10/29/2020 12:15:00 AM -100000 -179968 -100000 -100000 -100000 -100000
10/29/2020 12:30:00 AM -100000 -179968 -100000 -100000 -100000 -100000
10/29/2020 12:45:00 AM -100000 -179968 -100000 -100000 -100000 -100000
10/29/2020 1:00:00 AM -100000 -179968 -100000 -100000 -100000 -100000
10/29/2020 1:15:00 AM -100000 -179968 -100000 -100000 -100000 -100000
10/29/2020 1:30:00 AM -100000 -179968 -100000 -100000 -100000 -100000
10/29/2020 1:45:00 AM -100000 -179968 -100000 -100000 -100000 -100000
10/29/2020 2:00:00 AM -100000 -179968 -100000 -100000 -100000 -100000
10/29/2020 2:15:00 AM -100000 -179968 -100000 -100000 -100000 -100000
10/29/2020 2:30:00 AM -100000 -179968 -100000 -100000 -100000 -100000
10/29/2020 2:45:00 AM -100000 -179968 -100000 -100000 -100000 -100000
10/29/2020 3:00:00 AM -100000 -179968 -100000 -100000 -100000 -100000
10/29/2020 3:15:00 AM -100000 -179968 -100000 -100000 -100000 -100000
10/29/2020 3:30:00 AM -100000 -179968 -100000 -100000 -100000 -100000
10/29/2020 3:45:00 AM -100000 -179968 -100000 -100000 -100000 -100000
10/29/2020 4:00:00 AM -100000 -179968 -100000 -100000 -100000 -100000
10/29/2020 4:15:00 AM -100000 -179968 -100000 -100000 -100000 -100000
10/29/2020 4:30:00 AM -100000 -179968 -100000 -100000 -100000 -100000
10/29/2020 4:45:00 AM -100000 -179968 -100000 -100000 -100000 -100000
10/29/2020 5:00:00 AM -100000 -179968 -100000 -100000 -100000 -100000
10/29/2020 5:15:00 AM -100000 -179968 -100000 -100000 -100000 -100000
10/29/2020 5:30:00 AM -100000 -179968 -100000 -100000 -100000 -100000
10/29/2020 5:45:00 AM -100000 -179968 -100000 -100000 -100000 -100000
10/29/2020 6:00:00 AM -100000 -179968 -100000 -100000 -100000 -100000
10/29/2020 6:15:00 AM -100000 -179968 -100000 -100000 -100000 -100000
10/29/2020 6:30:00 AM -100000 -179968 -100000 -100000 -100000 -100000
10/29/2020 6:45:00 AM -100000 -179968 -100000 -100000 -100000 -100000
10/29/2020 7:00:00 AM -100000 -179968 -100000 -100000 -100000 -100000
10/29/2020 7:15:00 AM -100000 -179968 -100000 -100000 -100000 -100000
10/29/2020 7:30:00 AM -100000 -179968 -100000 -100000 -100000 -100000
10/29/2020 7:45:00 AM -100000 -179968 -100000 -100000 -100000 -100000
10/29/2020 8:00:00 AM -100000 -179968 -100000 -100000 -100000 -100000
10/29/2020 8:15:00 AM -100000 -179968 -100000 -100000 -100000 -100000
10/29/2020 8:30:00 AM -100000 -179968 -100000 -100000 -100000 -100000
10/29/2020 8:45:00 AM -100000 -179968 -100000 -100000 -100000 -100000
10/29/2020 9:00:00 AM -100000 -179968 -100000 -100000 -100000 -100000
10/29/2020 9:15:00 AM -100000 -179968 -100000 -100000 -100000 -100000
10/29/2020 9:30:00 AM -100000 -179968 -100000 -100000 -100000 -100000
10/29/2020 9:45:00 AM -100000 -179968 -100000 -100000 -100000 -100000
10/29/2020 10:00:00 AM -100000 -179968 -100000 -100000 -100000 -100000
10/29/2020 10:15:00 AM -100000 -179968 -100000 -100000 -100000 -100000
10/29/2020 10:30:00 AM -100000 -179968 -100000 -100000 -100000 -100000
10/29/2020 10:45:00 AM -100000 -179968 -100000 -100000 -100000 -100000
10/29/2020 11:00:00 AM -100000 -179968 -100000 -100000 -100000 -100000
10/29/2020 11:15:00 AM -100000 -179968 -100000 -100000 -100000 -100000
10/29/2020 11:30:00 AM -100000 -179968 -100000 -100000 -100000 -100000
10/29/2020 11:45:00 AM -100000 -179968 -100000 -100000 -100000 -100000
10/29/2020 12:00:00 PM -100000 -179968 -100000 -100000 -100000 -100000
10/29/2020 12:15:00 PM -100000 -179968 -100000 -100000 -100000 -100000
10/29/2020 12:30:00 PM -100000 -179968 -100000 -100000 -100000 -100000
10/29/2020 12:45:00 PM -100000 -179968 -100000 -100000 -100000 -100000
10/29/2020 1:00:00 PM -100000 -179968 -100000 -100000 -100000 -100000
10/29/2020 1:15:00 PM -100000 -179968 -100000 -100000 -100000 -100000
10/29/2020 1:30:00 PM -100000 -179968 -100000 -100000 -100000 -100000
10/29/2020 1:45:00 PM -100000 -179968 -100000 -100000 -100000 -100000
10/29/2020 2:00:00 PM -100000 -179968 -100000 -100000 -100000 -100000
10/29/2020 2:15:00 PM -100000 -179968 -100000 -100000 -100000 -100000
10/29/2020 2:30:00 PM -100000 -179968 -100000 -100000 -100000 -100000
10/29/2020 2:45:00 PM -100000 -179968 -100000 -100000 -100000 -100000
10/29/2020 3:00:00 PM -100000 -179968 -100000 -100000 -100000 -100000
10/29/2020 3:15:00 PM -100000 -179968 -100000 -100000 -100000 -100000
10/29/2020 3:30:00 PM -100000 -179968 -100000 -100000 -100000 -100000
10/29/2020 3:45:00 PM -100000 -179968 -100000 -100000 -100000 -100000
10/29/2020 4:00:00 PM -100000 -179968 -100000 -100000 -100000 -100000
10/29/2020 4:15:00 PM -100000 -179968 -100000 -100000 -100000 -100000
10/29/2020 4:30:00 PM -100000 -179968 -100000 -100000 -100000 -100000
10/29/2020 4:45:00 PM -100000 -179968 -100000 -100000 -100000 -100000
10/29/2020 5:00:00 PM -100000 -179968 -100000 -100000 -100000 -100000
10/29/2020 5:15:00 PM -100000 -179968 -100000 -100000 -100000 -100000
10/29/2020 5:30:00 PM -100000 -179968 -100000 -100000 -100000 -100000
10/29/2020 5:45:00 PM -100000 -179968 -100000 -100000 -100000 -100000
10/29/2020 6:00:00 PM -100000 -179968 -100000 -100000 -100000 -100000
10/29/2020 6:15:00 PM -100000 -179968 -100000 -100000 -100000 -100000
10/29/2020 6:30:00 PM -100000 -179968 -100000 -100000 -100000 -100000
10/29/2020 6:45:00 PM -100000 -179968 -100000 -100000 -100000 -100000
10/29/2020 7:00:00 PM -100000 -179968 -100000 -100000 -100000 -100000
10/29/2020 7:15:00 PM -100000 -179968 -100000 -100000 -100000 -100000
10/29/2020 7:30:00 PM -100000 -179968 -100000 -100000 -100000 -100000
10/29/2020 7:45:00 PM -100000 -179968 -100000 -100000 -100000 -100000
10/29/2020 8:00:00 PM -100000 -179968 -100000 -100000 -100000 -100000
10/29/2020 8:15:00 PM -100000 -179968 -100000 -100000 -100000 -100000
10/29/2020 8:30:00 PM -100000 -179968 -100000 -100000 -100000 -100000
10/29/2020 8:45:00 PM -100000 -179968 -100000 -100000 -100000 -100000
10/29/2020 9:00:00 PM -100000 -179968 -100000 -100000 -100000 -100000
10/29/2020 9:15:00 PM -100000 -179968 -100000 -100000 -100000 -100000
10/29/2020 9:30:00 PM -100000 -179968 -100000 -100000 -100000 -100000
10/29/2020 9:45:00 PM -100000 -179968 -100000 -100000 -100000 -100000
10/29/2020 10:00:00 PM -100000 -179968 -100000 -100000 -100000 -100000
10/29/2020 10:15:00 PM -100000 -179968 -100000 -100000 -100000 -100000
10/29/2020 10:30:00 PM -100000 -179968 -100000 -100000 -100000 -100000
10/29/2020 10:45:00 PM -100000 -179968 -100000 -100000 -100000 -100000
10/29/2020 11:00:00 PM -100000 -179968 -100000 -100000 -100000 -100000
10/29/2020 11:15:00 PM -100000 -179968 -100000 -100000 -100000 -100000
10/29/2020 11:30:00 PM -100000 -179968 -100000 -100000 -100000 -100000
10/29/2020 11:45:00 PM -100000 -179968 -100000 -100000 -100000 -100000
10/30/2020 12:00:00 AM -100000 -179968 -100000 -100000 -100000 -100000
10/30/2020 12:15:00 AM -100000 -179968 -100000 -100000 -100000 -100000
10/30/2020 12:30:00 AM -100000 -179968 -100000 -100000 -100000 -100000
10/30/2020 12:45:00 AM -100000 -179968 -100000 -100000 -100000 -100000
10/30/2020 1:00:00 AM -100000 -179968 -100000 -100000 -100000 -100000
10/30/2020 1:15:00 AM -100000 -179968 -100000 -100000 -100000 -100000
10/30/2020 1:30:00 AM -100000 -179968 -100000 -100000 -100000 -100000
10/30/2020 1:45:00 AM -100000 -179968 -100000 -100000 -100000 -100000
10/30/2020 2:00:00 AM -100000 -179968 -100000 -100000 -100000 -100000
10/30/2020 2:15:00 AM -100000 -179968 -100000 -100000 -100000 -100000
10/30/2020 2:30:00 AM -100000 -179968 -100000 -100000 -100000 -100000
10/30/2020 2:45:00 AM -100000 -179968 -100000 -100000 -100000 -100000
10/30/2020 3:00:00 AM -100000 -179968 -100000 -100000 -100000 -100000
10/30/2020 3:15:00 AM -100000 -179968 -100000 -100000 -100000 -100000
10/30/2020 3:30:00 AM -100000 -179968 -100000 -100000 -100000 -100000
10/30/2020 3:45:00 AM -100000 -179968 -100000 -100000 -100000 -100000
10/30/2020 4:00:00 AM -100000 -179968 -100000 -100000 -100000 -100000
10/30/2020 4:15:00 AM -100000 -179968 -100000 -100000 -100000 -100000
10/30/2020 4:30:00 AM -100000 -179968 -100000 -100000 -100000 -100000
10/30/2020 4:45:00 AM -100000 -179968 -100000 -100000 -100000 -100000
10/30/2020 5:00:00 AM -100000 -179968 -100000 -100000 -100000 -100000
10/30/2020 5:15:00 AM -100000 -179968 -100000 -100000 -100000 -100000
10/30/2020 5:30:00 AM -100000 -179968 -100000 -100000 -100000 -100000
10/30/2020 5:45:00 AM -100000 -179968 -100000 -100000 -100000 -100000
10/30/2020 6:00:00 AM -100000 -179968 -100000 -100000 -100000 -100000
10/30/2020 6:15:00 AM -100000 -179968 -100000 -100000 -100000 -100000
10/30/2020 6:30:00 AM -100000 -179968 -100000 -100000 -100000 -100000
10/30/2020 6:45:00 AM -100000 -179968 -100000 -100000 -100000 -100000
10/30/2020 7:00:00 AM -100000 -179968 -100000 -100000 -100000 -100000
10/30/2020 7:15:00 AM -100000 -179968 -100000 -100000 -100000 -100000
10/30/2020 7:30:00 AM -100000 -179968 -100000 -100000 -100000 -100000
10/30/2020 7:45:00 AM -100000 -179968 -100000 -100000 -100000 -100000
10/30/2020 8:00:00 AM -100000 -179968 -100000 -100000 -100000 -100000
10/30/2020 8:15:00 AM -100000 -179968 -100000 -100000 -100000 -100000
10/30/2020 8:30:00 AM -100000 -179968 -100000 -100000 -100000 -100000
10/30/2020 8:45:00 AM -100000 -179968 -100000 -100000 -100000 -100000
10/30/2020 9:00:00 AM -100000 -179968 -100000 -100000 -100000 -100000
10/30/2020 9:15:00 AM -100000 -179968 -100000 -100000 -100000 -100000
10/30/2020 9:30:00 AM -100000 -179968 -100000 -100000 -100000 -100000
10/30/2020 9:45:00 AM -100000 -179968 -100000 -100000 -100000 -100000
10/30/2020 10:00:00 AM -100000 -179968 -100000 -100000 -100000 -100000
10/30/2020 10:15:00 AM -100000 -179968 -100000 -100000 -100000 -100000
10/30/2020 10:30:00 AM -100000 -179968 -100000 -100000 -100000 -100000
10/30/2020 10:45:00 AM -100000 -179968 -100000 -100000 -100000 -100000
10/30/2020 11:00:00 AM -100000 -179968 -100000 -100000 -100000 -100000
10/30/2020 11:15:00 AM -100000 -179968 -100000 -100000 -100000 -100000
10/30/2020 11:30:00 AM -100000 -179968 -100000 -100000 -100000 -100000
10/30/2020 11:45:00 AM -100000 -179968 -100000 -100000 -100000 -100000
10/30/2020 12:00:00 PM -100000 -179968 -100000 -100000 -100000 -100000
10/30/2020 12:15:00 PM -100000 -179968 -100000 -100000 -100000 -100000
10/30/2020 12:30:00 PM -100000 -179968 -100000 -100000 -100000 -100000
10/30/2020 12:45:00 PM -100000 -179968 -100000 -100000 -100000 -100000
10/30/2020 1:00:00 PM -100000 -179968 -100000 -100000 -100000 -100000
10/30/2020 1:15:00 PM -100000 -179968 -100000 -100000 -100000 -100000
10/30/2020 1:30:00 PM -100000 -179968 -100000 -100000 -100000 -100000
10/30/2020 1:45:00 PM -100000 -179968 -100000 -100000 -100000 -100000
10/30/2020 2:00:00 PM -100000 -179968 -100000 -100000 -100000 -100000
10/30/2020 2:15:00 PM -100000 -179968 -100000 -100000 -100000 -100000
10/30/2020 2:30:00 PM -100000 -179968 -100000 -100000 -100000 -100000
10/30/2020 2:45:00 PM -100000 -179968 -100000 -100000 -100000 -100000
10/30/2020 3:00:00 PM -100000 -179968 -100000 -100000 -100000 -100000
10/30/2020 3:15:00 PM -100000 -179968 -100000 -100000 -100000 -100000
10/30/2020 3:30:00 PM -100000 -179968 -100000 -100000 -100000 -100000
10/30/2020 3:45:00 PM -100000 -179968 -100000 -100000 -100000 -100000
10/30/2020 4:00:00 PM -100000 -179968 -100000 -100000 -100000 -100000
10/30/2020 4:15:00 PM -100000 -179968 -100000 -100000 -100000 -100000
10/30/2020 4:30:00 PM -100000 -179968 -100000 -100000 -100000 -100000
10/30/2020 4:45:00 PM -100000 -179968 -100000 -100000 -100000 -100000
10/30/2020 5:00:00 PM -100000 -179968 -100000 -100000 -100000 -100000
10/30/2020 5:15:00 PM -100000 -179968 -100000 -100000 -100000 -100000
10/30/2020 5:30:00 PM -100000 -179968 -100000 -100000 -100000 -100000
10/30/2020 5:45:00 PM -100000 -179968 -100000 -100000 -100000 -100000
10/30/2020 6:00:00 PM -100000 -179968 -100000 -100000 -100000 -100000
10/30/2020 6:15:00 PM -100000 -179968 -100000 -100000 -100000 -100000
10/30/2020 6:30:00 PM -100000 -179968 -100000 -100000 -100000 -100000
10/30/2020 6:45:00 PM -100000 -179968 -100000 -100000 -100000 -100000
10/30/2020 7:00:00 PM -100000 -179968 -100000 -100000 -100000 -100000
10/30/2020 7:15:00 PM -100000 -179968 -100000 -100000 -100000 -100000
10/30/2020 7:30:00 PM -100000 -179968 -100000 -100000 -100000 -100000
10/30/2020 7:45:00 PM -100000 -179968 -100000 -100000 -100000 -100000
10/30/2020 8:00:00 PM -100000 -179968 -100000 -100000 -100000 -100000
10/30/2020 8:15:00 PM -100000 -179968 -100000 -100000 -100000 -100000
10/30/2020 8:30:00 PM -100000 -179968 -100000 -100000 -100000 -100000
10/30/2020 8:45:00 PM -100000 -179968 -100000 -100000 -100000 -100000
10/30/2020 9:00:00 PM -100000 -179968 -100000 -100000 -100000 -100000
10/30/2020 9:15:00 PM -100000 -179968 -100000 -100000 -100000 -100000
10/30/2020 9:30:00 PM -100000 -179968 -100000 -100000 -100000 -100000
10/30/2020 9:45:00 PM -100000 -179968 -100000 -100000 -100000 -100000
10/30/2020 10:00:00 PM -100000 -179968 -100000 -100000 -100000 -100000
10/30/2020 10:15:00 PM -100000 -179968 -100000 -100000 -100000 -100000
10/30/2020 10:30:00 PM -100000 -179968 -100000 -100000 -100000 -100000
10/30/2020 10:45:00 PM -100000 -179968 -100000 -100000 -100000 -100000
10/30/2020 11:00:00 PM -100000 -179968 -100000 -100000 -100000 -100000
10/30/2020 11:15:00 PM -100000 -179968 -100000 -100000 -100000 -100000
10/30/2020 11:30:00 PM -100000 -179968 -100000 -100000 -100000 -100000
10/30/2020 11:45:00 PM -100000 -179968 -100000 -100000 -100000 -100000
10/31/2020 12:00:00 AM -100000 -179968 -100000 -100000 -100000 -100000
10/31/2020 12:15:00 AM -100000 -179968 -100000 -100000 -100000 -100000
10/31/2020 12:30:00 AM -100000 -179968 -100000 -100000 -100000 -100000
10/31/2020 12:45:00 AM -100000 -179968 -100000 -100000 -100000 -100000
10/31/2020 1:00:00 AM -100000 -179968 -100000 -100000 -100000 -100000
10/31/2020 1:15:00 AM -100000 -179968 -100000 -100000 -100000 -100000
10/31/2020 1:30:00 AM -100000 -179968 -100000 -100000 -100000 -100000
10/31/2020 1:45:00 AM -100000 -179968 -100000 -100000 -100000 -100000
10/31/2020 2:00:00 AM -100000 -179968 -100000 -100000 -100000 -100000
10/31/2020 2:15:00 AM -100000 -179968 -100000 -100000 -100000 -100000
10/31/2020 2:30:00 AM -100000 -179968 -100000 -100000 -100000 -100000
10/31/2020 2:45:00 AM -100000 -179968 -100000 -100000 -100000 -100000
10/31/2020 3:00:00 AM -100000 -179968 -100000 -100000 -100000 -100000
10/31/2020 3:15:00 AM -100000 -179968 -100000 -100000 -100000 -100000
10/31/2020 3:30:00 AM -100000 -179968 -100000 -100000 -100000 -100000
10/31/2020 3:45:00 AM -100000 -179968 -100000 -100000 -100000 -100000
10/31/2020 4:00:00 AM -100000 -179968 -100000 -100000 -100000 -100000
10/31/2020 4:15:00 AM -100000 -179968 -100000 -100000 -100000 -100000
10/31/2020 4:30:00 AM -100000 -179968 -100000 -100000 -100000 -100000
10/31/2020 4:45:00 AM -100000 -179968 -100000 -100000 -100000 -100000
10/31/2020 5:00:00 AM -100000 -179968 -100000 -100000 -100000 -100000
10/31/2020 5:15:00 AM -100000 -179968 -100000 -100000 -100000 -100000
10/31/2020 5:30:00 AM -100000 -179968 -100000 -100000 -100000 -100000
10/31/2020 5:45:00 AM -100000 -179968 -100000 -100000 -100000 -100000
10/31/2020 6:00:00 AM -100000 -179968 -100000 -100000 -100000 -100000
10/31/2020 6:15:00 AM -100000 -179968 -100000 -100000 -100000 -100000
10/31/2020 6:30:00 AM -100000 -179968 -100000 -100000 -100000 -100000
10/31/2020 6:45:00 AM -100000 -179968 -100000 -100000 -100000 -100000
10/31/2020 7:00:00 AM -100000 -179968 -100000 -100000 -100000 -100000
10/31/2020 7:15:00 AM -100000 -179968 -100000 -100000 -100000 -100000
10/31/2020 7:30:00 AM -100000 -179968 -100000 -100000 -100000 -100000
10/31/2020 7:45:00 AM -100000 -179968 -100000 -100000 -100000 -100000
10/31/2020 8:00:00 AM -100000 -179968 -100000 -100000 -100000 -100000
10/31/2020 8:15:00 AM -100000 -179968 -100000 -100000 -100000 -100000
10/31/2020 8:30:00 AM -100000 -179968 -100000 -100000 -100000 -100000
10/31/2020 8:45:00 AM -100000 -179968 -100000 -100000 -100000 -100000
10/31/2020 9:00:00 AM -100000 -179968 -100000 -100000 -100000 -100000
10/31/2020 9:15:00 AM -100000 -179968 -100000 -100000 -100000 -100000
10/31/2020 9:30:00 AM -100000 -179968 -100000 -100000 -100000 -100000
10/31/2020 9:45:00 AM -100000 -179968 -100000 -100000 -100000 -100000
10/31/2020 10:00:00 AM -100000 -179968 -100000 -100000 -100000 -100000
10/31/2020 10:15:00 AM -100000 -179968 -100000 -100000 -100000 -100000
10/31/2020 10:30:00 AM -100000 -179968 -100000 -100000 -100000 -100000
10/31/2020 10:45:00 AM -100000 -179968 -100000 -100000 -100000 -100000
10/31/2020 11:00:00 AM -100000 -179968 -100000 -100000 -100000 -100000
10/31/2020 11:15:00 AM -100000 -179968 -100000 -100000 -100000 -100000
10/31/2020 11:30:00 AM -100000 -179968 -100000 -100000 -100000 -100000
10/31/2020 11:45:00 AM -100000 -179968 -100000 -100000 -100000 -100000
10/31/2020 12:00:00 PM -100000 -179968 -100000 -100000 -100000 -100000
10/31/2020 12:15:00 PM -100000 -179968 -100000 -100000 -100000 -100000
10/31/2020 12:30:00 PM -100000 -179968 -100000 -100000 -100000 -100000
10/31/2020 12:45:00 PM -100000 -179968 -100000 -100000 -100000 -100000
10/31/2020 1:00:00 PM -100000 -179968 -100000 -100000 -100000 -100000
10/31/2020 1:15:00 PM -100000 -179968 -100000 -100000 -100000 -100000
10/31/2020 1:30:00 PM -100000 -179968 -100000 -100000 -100000 -100000
10/31/2020 1:45:00 PM -100000 -179968 -100000 -100000 -100000 -100000
10/31/2020 2:00:00 PM -100000 -179968 -100000 -100000 -100000 -100000
10/31/2020 2:15:00 PM -100000 -179968 -100000 -100000 -100000 -100000
10/31/2020 2:30:00 PM -100000 -179968 -100000 -100000 -100000 -100000
10/31/2020 2:45:00 PM -100000 -179968 -100000 -100000 -100000 -100000
10/31/2020 3:00:00 PM -100000 -179968 -100000 -100000 -100000 -100000
10/31/2020 3:15:00 PM -100000 -179968 -100000 -100000 -100000 -100000
10/31/2020 3:30:00 PM -100000 -179968 -100000 -100000 -100000 -100000
10/31/2020 3:45:00 PM -100000 -179968 -100000 -100000 -100000 -100000
10/31/2020 4:00:00 PM -100000 -179968 -100000 -100000 -100000 -100000
10/31/2020 4:15:00 PM -100000 -179968 -100000 -100000 -100000 -100000
10/31/2020 4:30:00 PM -100000 -179968 -100000 -100000 -100000 -100000
10/31/2020 4:45:00 PM -100000 -179968 -100000 -100000 -100000 -100000
10/31/2020 5:00:00 PM -100000 -179968 -100000 -100000 -100000 -100000
10/31/2020 5:15:00 PM -100000 -179968 -100000 -100000 -100000 -100000
10/31/2020 5:30:00 PM -100000 -179968 -100000 -100000 -100000 -100000
10/31/2020 5:45:00 PM -100000 -179968 -100000 -100000 -100000 -100000
10/31/2020 6:00:00 PM -100000 -179968 -100000 -100000 -100000 -100000
10/31/2020 6:15:00 PM -100000 -179968 -100000 -100000 -100000 -100000
10/31/2020 6:30:00 PM -100000 -179968 -100000 -100000 -100000 -100000
10/31/2020 6:45:00 PM -100000 -179968 -100000 -100000 -100000 -100000
10/31/2020 7:00:00 PM -100000 -179968 -100000 -100000 -100000 -100000
10/31/2020 7:15:00 PM -100000 -179968 -100000 -100000 -100000 -100000
10/31/2020 7:30:00 PM -100000 -179968 -100000 -100000 -100000 -100000
10/31/2020 7:45:00 PM -100000 -179968 -100000 -100000 -100000 -100000
10/31/2020 8:00:00 PM -100000 -179968 -100000 -100000 -100000 -100000
10/31/2020 8:15:00 PM -100000 -179968 -100000 -100000 -100000 -100000
10/31/2020 8:30:00 PM -100000 -179968 -100000 -100000 -100000 -100000
10/31/2020 8:45:00 PM -100000 -179968 -100000 -100000 -100000 -100000
10/31/2020 9:00:00 PM -100000 -179968 -100000 -100000 -100000 -100000
10/31/2020 9:15:00 PM -100000 -179968 -100000 -100000 -100000 -100000
10/31/2020 9:30:00 PM -100000 -179968 -100000 -100000 -100000 -100000
10/31/2020 9:45:00 PM -100000 -179968 -100000 -100000 -100000 -100000
10/31/2020 10:00:00 PM -100000 -179968 -100000 -100000 -100000 -100000
10/31/2020 10:15:00 PM -100000 -179968 -100000 -100000 -100000 -100000
10/31/2020 10:30:00 PM -100000 -179968 -100000 -100000 -100000 -100000
10/31/2020 10:45:00 PM -100000 -179968 -100000 -100000 -100000 -100000
10/31/2020 11:00:00 PM -100000 -179968 -100000 -100000 -100000 -100000
10/31/2020 11:15:00 PM -100000 -179968 -100000 -100000 -100000 -100000
10/31/2020 11:30:00 PM -100000 -179968 -100000 -100000 -100000 -100000
10/31/2020 11:45:00 PM -100000 -179968 -100000 -100000 -100000 -100000
11/1/2020 12:00:00 AM -100000 -179968 -100000 -100000 -100000 -100000
11/1/2020 12:15:00 AM -100000 -179968 -100000 -100000 -100000 -100000
11/1/2020 12:30:00 AM -100000 -179968 -100000 -100000 -100000 -100000
11/1/2020 12:45:00 AM -100000 -179968 -100000 -100000 -100000 -100000
11/1/2020 1:00:00 AM -100000 -179968 -100000 -100000 -100000 -100000
11/1/2020 1:15:00 AM -100000 -179968 -100000 -100000 -100000 -100000
11/1/2020 1:30:00 AM -100000 -179968 -100000 -100000 -100000 -100000
11/1/2020 1:45:00 AM -100000 -179968 -100000 -100000 -100000 -100000
11/1/2020 2:00:00 AM -100000 -179968 -100000 -100000 -100000 -100000
11/1/2020 2:15:00 AM -100000 -179968 -100000 -100000 -100000 -100000
11/1/2020 2:30:00 AM -100000 -179968 -100000 -100000 -100000 -100000
11/1/2020 2:45:00 AM -100000 -179968 -100000 -100000 -100000 -100000
11/1/2020 3:00:00 AM -100000 -179968 -100000 -100000 -100000 -100000
11/1/2020 3:15:00 AM -100000 -179968 -100000 -100000 -100000 -100000
11/1/2020 3:30:00 AM -100000 -179968 -100000 -100000 -100000 -100000
11/1/2020 3:45:00 AM -100000 -179968 -100000 -100000 -100000 -100000
11/1/2020 4:00:00 AM -100000 -179968 -100000 -100000 -100000 -100000
11/1/2020 4:15:00 AM -100000 -179968 -100000 -100000 -100000 -100000
11/1/2020 4:30:00 AM -100000 -179968 -100000 -100000 -100000 -100000
11/1/2020 4:45:00 AM -100000 -179968 -100000 -100000 -100000 -100000
11/1/2020 5:00:00 AM -100000 -179968 -100000 -100000 -100000 -100000
11/1/2020 5:15:00 AM -100000 -179968 -100000 -100000 -100000 -100000
11/1/2020 5:30:00 AM -100000 -179968 -100000 -100000 -100000 -100000
11/1/2020 5:45:00 AM -100000 -179968 -100000 -100000 -100000 -100000
11/1/2020 6:00:00 AM -100000 -179968 -100000 -100000 -100000 -100000
11/1/2020 6:15:00 AM -100000 -179968 -100000 -100000 -100000 -100000
11/1/2020 6:30:00 AM -100000 -179968 -100000 -100000 -100000 -100000
11/1/2020 6:45:00 AM -100000 -179968 -100000 -100000 -100000 -100000
11/1/2020 7:00:00 AM -100000 -179968 -100000 -100000 -100000 -100000
11/1/2020 7:15:00 AM -100000 -179968 -100000 -100000 -100000 -100000
11/1/2020 7:30:00 AM -100000 -179968 -100000 -100000 -100000 -100000
11/1/2020 7:45:00 AM -100000 -179968 -100000 -100000 -100000 -100000
11/1/2020 8:00:00 AM -100000 -179968 -100000 -100000 -100000 -100000
11/1/2020 8:15:00 AM -100000 -179968 -100000 -100000 -100000 -100000
11/1/2020 8:30:00 AM -100000 -179968 -100000 -100000 -100000 -100000
11/1/2020 8:45:00 AM -100000 -179968 -100000 -100000 -100000 -100000
11/1/2020 9:00:00 AM -100000 -179968 -100000 -100000 -100000 -100000
11/1/2020 9:15:00 AM -100000 -179968 -100000 -100000 -100000 -100000
11/1/2020 9:30:00 AM -100000 -179968 -100000 -100000 -100000 -100000
11/1/2020 9:45:00 AM -100000 -179968 -100000 -100000 -100000 -100000
11/1/2020 10:00:00 AM -100000 -179968 -100000 -100000 -100000 -100000
11/1/2020 10:15:00 AM -100000 -179968 -100000 -100000 -100000 -100000
11/1/2020 10:30:00 AM -100000 -179968 -100000 -100000 -100000 -100000
11/1/2020 10:45:00 AM -100000 -179968 -100000 -100000 -100000 -100000
11/1/2020 11:00:00 AM -100000 -179968 -100000 -100000 -100000 -100000
11/1/2020 11:15:00 AM -100000 -179968 -100000 -100000 -100000 -100000
11/1/2020 11:30:00 AM -100000 -179968 -100000 -100000 -100000 -100000
11/1/2020 11:45:00 AM -100000 -179968 -100000 -100000 -100000 -100000
11/1/2020 12:00:00 PM -100000 -179968 -100000 -100000 -100000 -100000
11/1/2020 12:15:00 PM -100000 -179968 -100000 -100000 -100000 -100000
11/1/2020 12:30:00 PM -100000 -179968 -100000 -100000 -100000 -100000
11/1/2020 12:45:00 PM -100000 -179968 -100000 -100000 -100000 -100000
11/1/2020 1:00:00 PM -100000 -179968 -100000 -100000 -100000 -100000
11/1/2020 1:15:00 PM -100000 -179968 -100000 -100000 -100000 -100000
11/1/2020 1:30:00 PM -100000 -179968 -100000 -100000 -100000 -100000
11/1/2020 1:45:00 PM -100000 -179968 -100000 -100000 -100000 -100000
11/1/2020 2:00:00 PM -100000 -179968 -100000 -100000 -100000 -100000
11/1/2020 2:15:00 PM -100000 -179968 -100000 -100000 -100000 -100000
11/1/2020 2:30:00 PM -100000 -179968 -100000 -100000 -100000 -100000
11/1/2020 2:45:00 PM -100000 -179968 -100000 -100000 -100000 -100000
11/1/2020 3:00:00 PM -100000 -179968 -100000 -100000 -100000 -100000
11/1/2020 3:15:00 PM -100000 -179968 -100000 -100000 -100000 -100000
11/1/2020 3:30:00 PM -100000 -179968 -100000 -100000 -100000 -100000
11/1/2020 3:45:00 PM -100000 -179968 -100000 -100000 -100000 -100000
11/1/2020 4:00:00 PM -100000 -179968 -100000 -100000 -100000 -100000
11/1/2020 4:15:00 PM -100000 -179968 -100000 -100000 -100000 -100000
11/1/2020 4:30:00 PM -100000 -179968 -100000 -100000 -100000 -100000
11/1/2020 4:45:00 PM -100000 -179968 -100000 -100000 -100000 -100000
11/1/2020 5:00:00 PM -100000 -179968 -100000 -100000 -100000 -100000
11/1/2020 5:15:00 PM -100000 -179968 -100000 -100000 -100000 -100000
11/1/2020 5:30:00 PM -100000 -179968 -100000 -100000 -100000 -100000
11/1/2020 5:45:00 PM -100000 -179968 -100000 -100000 -100000 -100000
11/1/2020 6:00:00 PM -100000 -179968 -100000 -100000 -100000 -100000
11/1/2020 6:15:00 PM -100000 -179968 -100000 -100000 -100000 -100000
11/1/2020 6:30:00 PM -100000 -179968 -100000 -100000 -100000 -100000
11/1/2020 6:45:00 PM -100000 -179968 -100000 -100000 -100000 -100000
11/1/2020 7:00:00 PM -100000 -179968 -100000 -100000 -100000 -100000
11/1/2020 7:15:00 PM -100000 -179968 -100000 -100000 -100000 -100000
11/1/2020 7:30:00 PM -100000 -179968 -100000 -100000 -100000 -100000
11/1/2020 7:45:00 PM -100000 -179968 -100000 -100000 -100000 -100000
11/1/2020 8:00:00 PM -100000 -179968 -100000 -100000 -100000 -100000
11/1/2020 8:15:00 PM -100000 -179968 -100000 -100000 -100000 -100000
11/1/2020 8:30:00 PM -100000 -179968 -100000 -100000 -100000 -100000
11/1/2020 8:45:00 PM -100000 -179968 -100000 -100000 -100000 -100000
11/1/2020 9:00:00 PM -100000 -179968 -100000 -100000 -100000 -100000
11/1/2020 9:15:00 PM -100000 -179968 -100000 -100000 -100000 -100000
11/1/2020 9:30:00 PM -100000 -179968 -100000 -100000 -100000 -100000
11/1/2020 9:45:00 PM -100000 -179968 -100000 -100000 -100000 -100000
11/1/2020 10:00:00 PM -100000 -179968 -100000 -100000 -100000 -100000
11/1/2020 10:15:00 PM -100000 -179968 -100000 -100000 -100000 -100000
11/1/2020 10:30:00 PM -100000 -179968 -100000 -100000 -100000 -100000
11/1/2020 10:45:00 PM -100000 -179968 -100000 -100000 -100000 -100000
11/1/2020 11:00:00 PM -100000 -179968 -100000 -100000 -100000 -100000
11/1/2020 11:15:00 PM -100000 -179968 -100000 -100000 -100000 -100000
11/1/2020 11:30:00 PM -100000 -179968 -100000 -100000 -100000 -100000
11/1/2020 11:45:00 PM -100000 -179968 -100000 -100000 -100000 -100000
11/2/2020 12:00:00 AM -100000 -179968 -100000 -100000 -100000 -100000
11/2/2020 12:15:00 AM -100000 -179968 -100000 -100000 -100000 -100000
11/2/2020 12:30:00 AM -100000 -179968 -100000 -100000 -100000 -100000
11/2/2020 12:45:00 AM -100000 -179968 -100000 -100000 -100000 -100000
11/2/2020 1:00:00 AM -100000 -179968 -100000 -100000 -100000 -100000
11/2/2020 1:15:00 AM -100000 -179968 -100000 -100000 -100000 -100000
11/2/2020 1:30:00 AM -100000 -179968 -100000 -100000 -100000 -100000
11/2/2020 1:45:00 AM -100000 -179968 -100000 -100000 -100000 -100000
11/2/2020 2:00:00 AM -100000 -179968 -100000 -100000 -100000 -100000
11/2/2020 2:15:00 AM -100000 -179968 -100000 -100000 -100000 -100000
11/2/2020 2:30:00 AM -100000 -179968 -100000 -100000 -100000 -100000
11/2/2020 2:45:00 AM -100000 -179968 -100000 -100000 -100000 -100000
11/2/2020 3:00:00 AM -100000 -179968 -100000 -100000 -100000 -100000
11/2/2020 3:15:00 AM -100000 -179968 -100000 -100000 -100000 -100000
11/2/2020 3:30:00 AM -100000 -179968 -100000 -100000 -100000 -100000
11/2/2020 3:45:00 AM -100000 -179968 -100000 -100000 -100000 -100000
11/2/2020 4:00:00 AM -100000 -179968 -100000 -100000 -100000 -100000
11/2/2020 4:15:00 AM -100000 -179968 -100000 -100000 -100000 -100000
11/2/2020 4:30:00 AM -100000 -179968 -100000 -100000 -100000 -100000
11/2/2020 4:45:00 AM -100000 -179968 -100000 -100000 -100000 -100000
11/2/2020 5:00:00 AM -100000 -179968 -100000 -100000 -100000 -100000
11/2/2020 5:15:00 AM -100000 -179968 -100000 -100000 -100000 -100000
11/2/2020 5:30:00 AM -100000 -179968 -100000 -100000 -100000 -100000
11/2/2020 5:45:00 AM -100000 -179968 -100000 -100000 -100000 -100000
11/2/2020 6:00:00 AM -100000 -179968 -100000 -100000 -100000 -100000
11/2/2020 6:15:00 AM -100000 -179968 -100000 -100000 -100000 -100000
11/2/2020 6:30:00 AM -100000 -179968 -100000 -100000 -100000 -100000
11/2/2020 6:45:00 AM -100000 -179968 -100000 -100000 -100000 -100000
11/2/2020 7:00:00 AM -100000 -179968 -100000 -100000 -100000 -100000
11/2/2020 7:15:00 AM -100000 -179968 -100000 -100000 -100000 -100000
11/2/2020 7:30:00 AM -100000 -179968 -100000 -100000 -100000 -100000
11/2/2020 7:45:00 AM -100000 -179968 -100000 -100000 -100000 -100000
11/2/2020 8:00:00 AM -100000 -179968 -100000 -100000 -100000 -100000
11/2/2020 8:15:00 AM -100000 -179968 -100000 -100000 -100000 -100000
11/2/2020 8:30:00 AM -100000 -179968 -100000 -100000 -100000 -100000
11/2/2020 8:45:00 AM -100000 -179968 -100000 -100000 -100000 -100000
11/2/2020 9:00:00 AM -100000 -179968 -100000 -100000 -100000 -100000
11/2/2020 9:15:00 AM -100000 -179968 -100000 -100000 -100000 -100000
11/2/2020 9:30:00 AM -100000 -179968 -100000 -100000 -100000 -100000
11/2/2020 9:45:00 AM 7.91 46.238 315 6.82 244.1 10.8
11/2/2020 10:00:00 AM -100000 -179968 -100000 -100000 -100000 -100000
11/2/2020 10:15:00 AM 0 32 406.8 6.82 147.3 13.52
11/2/2020 10:30:00 AM 7.92 46.256 314.6 6.96 139.9 11.08
11/2/2020 10:45:00 AM 7.91 46.238 316.6 7.04 229.4 11.17
11/2/2020 11:00:00 AM 7.92 46.256 317.2 7.17 189.9 11.24
11/2/2020 11:15:00 AM 8.02 46.436 318.1 7.97 146.6 11.63
11/2/2020 11:30:00 AM 8.04 46.472 318.1 8.03 170.2 11.7
11/2/2020 11:45:00 AM 8.06 46.508 318 7.92 206.6 11.75
11/2/2020 12:00:00 PM 8.07 46.526 0 34.18 114 0
11/2/2020 12:15:00 PM -100000 -179968 -100000 -100000 -100000 -100000
11/2/2020 12:30:00 PM -100000 -179968 -100000 -100000 -100000 -100000
11/2/2020 12:45:00 PM -100000 -179968 -100000 -100000 -100000 -100000
11/2/2020 1:00:00 PM -100000 -179968 -100000 -100000 -100000 -100000
11/2/2020 1:15:00 PM -100000 -179968 -100000 -100000 -100000 -100000
11/2/2020 1:30:00 PM -100000 -179968 -100000 -100000 -100000 -100000
11/2/2020 1:45:00 PM -100000 -179968 -100000 -100000 -100000 -100000
11/2/2020 2:00:00 PM -100000 -179968 -100000 -100000 -100000 -100000
11/2/2020 2:15:00 PM -100000 -179968 -100000 -100000 -100000 -100000
11/2/2020 2:30:00 PM -100000 -179968 -100000 -100000 -100000 -100000
11/2/2020 2:45:00 PM -100000 -179968 -100000 -100000 -100000 -100000
11/2/2020 3:00:00 PM -100000 -179968 -100000 -100000 -100000 -100000
11/2/2020 3:15:00 PM -100000 -179968 -100000 -100000 -100000 -100000
11/2/2020 3:30:00 PM -100000 -179968 -100000 -100000 -100000 -100000
11/2/2020 3:45:00 PM -100000 -179968 -100000 -100000 -100000 -100000
11/2/2020 4:00:00 PM -100000 -179968 -100000 -100000 -100000 -100000
11/2/2020 4:15:00 PM -100000 -179968 -100000 -100000 -100000 -100000
11/2/2020 4:30:00 PM -100000 -179968 -100000 -100000 -100000 -100000
11/2/2020 4:45:00 PM -100000 -179968 -100000 -100000 -100000 -100000
11/2/2020 5:00:00 PM -100000 -179968 -100000 -100000 -100000 -100000
11/2/2020 5:15:00 PM -100000 -179968 -100000 -100000 -100000 -100000
11/2/2020 5:30:00 PM -100000 -179968 -100000 -100000 -100000 -100000
11/2/2020 5:45:00 PM -100000 -179968 -100000 -100000 -100000 -100000
11/2/2020 6:00:00 PM -100000 -179968 -100000 -100000 -100000 -100000
11/2/2020 6:15:00 PM -100000 -179968 -100000 -100000 -100000 -100000
11/2/2020 6:30:00 PM -100000 -179968 -100000 -100000 -100000 -100000
11/2/2020 6:45:00 PM -100000 -179968 -100000 -100000 -100000 -100000
11/2/2020 7:00:00 PM -100000 -179968 -100000 -100000 -100000 -100000
11/2/2020 7:15:00 PM -100000 -179968 -100000 -100000 -100000 -100000
11/2/2020 7:30:00 PM -100000 -179968 -100000 -100000 -100000 -100000
11/2/2020 7:45:00 PM -100000 -179968 -100000 -100000 -100000 -100000
11/2/2020 8:00:00 PM -100000 -179968 -100000 -100000 -100000 -100000
11/2/2020 8:15:00 PM -100000 -179968 -100000 -100000 -100000 -100000
11/2/2020 8:30:00 PM -100000 -179968 -100000 -100000 -100000 -100000
11/2/2020 8:45:00 PM -100000 -179968 -100000 -100000 -100000 -100000
11/2/2020 9:00:00 PM -100000 -179968 -100000 -100000 -100000 -100000
11/2/2020 9:15:00 PM -100000 -179968 -100000 -100000 -100000 -100000
11/2/2020 9:30:00 PM -100000 -179968 -100000 -100000 -100000 -100000
11/2/2020 9:45:00 PM -100000 -179968 -100000 -100000 -100000 -100000
11/2/2020 10:00:00 PM -100000 -179968 -100000 -100000 -100000 -100000
11/2/2020 10:15:00 PM -100000 -179968 -100000 -100000 -100000 -100000
11/2/2020 10:30:00 PM -100000 -179968 -100000 -100000 -100000 -100000
11/2/2020 10:45:00 PM -100000 -179968 -100000 -100000 -100000 -100000
11/2/2020 11:00:00 PM -100000 -179968 -100000 -100000 -100000 -100000
11/2/2020 11:15:00 PM -100000 -179968 -100000 -100000 -100000 -100000
11/2/2020 11:30:00 PM -100000 -179968 -100000 -100000 -100000 -100000
11/2/2020 11:45:00 PM -100000 -179968 -100000 -100000 -100000 -100000
11/3/2020 12:00:00 AM -100000 -179968 -100000 -100000 -100000 -100000
11/3/2020 12:15:00 AM -100000 -179968 -100000 -100000 -100000 -100000
11/3/2020 12:30:00 AM -100000 -179968 -100000 -100000 -100000 -100000
11/3/2020 12:45:00 AM -100000 -179968 -100000 -100000 -100000 -100000
11/3/2020 1:00:00 AM -100000 -179968 -100000 -100000 -100000 -100000
11/3/2020 1:15:00 AM -100000 -179968 -100000 -100000 -100000 -100000
11/3/2020 1:30:00 AM -100000 -179968 -100000 -100000 -100000 -100000
11/3/2020 1:45:00 AM -100000 -179968 -100000 -100000 -100000 -100000
11/3/2020 2:00:00 AM -100000 -179968 -100000 -100000 -100000 -100000
11/3/2020 2:15:00 AM -100000 -179968 -100000 -100000 -100000 -100000
11/3/2020 2:30:00 AM -100000 -179968 -100000 -100000 -100000 -100000
11/3/2020 2:45:00 AM -100000 -179968 -100000 -100000 -100000 -100000
11/3/2020 3:00:00 AM -100000 -179968 -100000 -100000 -100000 -100000
11/3/2020 3:15:00 AM -100000 -179968 -100000 -100000 -100000 -100000
11/3/2020 3:30:00 AM -100000 -179968 -100000 -100000 -100000 -100000
11/3/2020 3:45:00 AM -100000 -179968 -100000 -100000 -100000 -100000
11/3/2020 4:00:00 AM -100000 -179968 -100000 -100000 -100000 -100000
11/3/2020 4:15:00 AM -100000 -179968 -100000 -100000 -100000 -100000
11/3/2020 4:30:00 AM -100000 -179968 -100000 -100000 -100000 -100000
11/3/2020 4:45:00 AM -100000 -179968 -100000 -100000 -100000 -100000
11/3/2020 5:00:00 AM -100000 -179968 -100000 -100000 -100000 -100000
11/3/2020 5:15:00 AM -100000 -179968 -100000 -100000 -100000 -100000
11/3/2020 5:30:00 AM -100000 -179968 -100000 -100000 -100000 -100000
11/3/2020 5:45:00 AM -100000 -179968 -100000 -100000 -100000 -100000
11/3/2020 6:00:00 AM -100000 -179968 -100000 -100000 -100000 -100000
11/3/2020 6:15:00 AM -100000 -179968 -100000 -100000 -100000 -100000
11/3/2020 6:30:00 AM -100000 -179968 -100000 -100000 -100000 -100000
11/3/2020 6:45:00 AM -100000 -179968 -100000 -100000 -100000 -100000
11/3/2020 7:00:00 AM -100000 -179968 -100000 -100000 -100000 -100000
11/3/2020 7:15:00 AM -100000 -179968 -100000 -100000 -100000 -100000
11/3/2020 7:30:00 AM -100000 -179968 -100000 -100000 -100000 -100000
11/3/2020 7:45:00 AM -100000 -179968 -100000 -100000 -100000 -100000
11/3/2020 8:00:00 AM -100000 -179968 -100000 -100000 -100000 -100000
11/3/2020 8:15:00 AM -100000 -179968 -100000 -100000 -100000 -100000
11/3/2020 8:30:00 AM -100000 -179968 -100000 -100000 -100000 -100000
11/3/2020 8:45:00 AM 6.97 44.546 320.5 6.79 21.6 11.3
11/3/2020 9:00:00 AM -100000 -179968 -100000 -100000 -100000 -100000
11/3/2020 9:15:00 AM 7.03 44.654 320.4 6.77 19.67 11.46
11/3/2020 9:30:00 AM 7.06 44.708 320.5 6.99 32.91 11.55
11/3/2020 9:45:00 AM 7.09 44.762 320.4 7.75 20.72 11.61
11/3/2020 10:00:00 AM 7.14 44.852 320.3 9.6 24.45 11.69
11/3/2020 10:15:00 AM 7.21 44.978 320.2 11.02 24.89 11.75
11/3/2020 10:30:00 AM 7.26 45.068 320.3 11.74 21.61 11.83
11/3/2020 10:45:00 AM 7.33 45.194 320.7 12.24 26.91 11.9
11/3/2020 11:00:00 AM 7.4 45.32 320.9 12.26 22.46 11.95
11/3/2020 11:15:00 AM 7.47 45.446 321.4 12.73 20.64 12.01
11/3/2020 11:30:00 AM 7.54 45.572 321.5 12.58 25.45 12.09
11/3/2020 11:45:00 AM 7.62 45.716 321.8 12.86 23.9 12.15
11/3/2020 12:00:00 PM 7.71 45.878 321.8 13.02 23.75 12.18
11/3/2020 12:15:00 PM 7.79 46.022 321.9 13.36 23.26 12.26
11/3/2020 12:30:00 PM 7.86 46.148 321.8 13.46 23.93 12.3
11/3/2020 12:45:00 PM 7.93 46.274 321.5 13.2 23.64 12.36
11/3/2020 1:00:00 PM 8 46.4 321.3 13.24 23.87 12.39
11/3/2020 1:15:00 PM 8.07 46.526 320.8 13.45 26.27 12.43
11/3/2020 1:30:00 PM -100000 -179968 -100000 -100000 -100000 -100000
11/3/2020 1:45:00 PM -100000 -179968 -100000 -100000 -100000 -100000
11/3/2020 2:00:00 PM -100000 -179968 -100000 -100000 -100000 -100000
11/3/2020 2:15:00 PM -100000 -179968 -100000 -100000 -100000 -100000
11/3/2020 2:30:00 PM -100000 -179968 -100000 -100000 -100000 -100000
11/3/2020 2:45:00 PM -100000 -179968 -100000 -100000 -100000 -100000
11/3/2020 3:00:00 PM -100000 -179968 -100000 -100000 -100000 -100000
11/3/2020 3:15:00 PM -100000 -179968 -100000 -100000 -100000 -100000
11/3/2020 3:30:00 PM -100000 -179968 -100000 -100000 -100000 -100000
11/3/2020 3:45:00 PM -100000 -179968 -100000 -100000 -100000 -100000
11/3/2020 4:00:00 PM -100000 -179968 -100000 -100000 -100000 -100000
11/3/2020 4:15:00 PM -100000 -179968 -100000 -100000 -100000 -100000
11/3/2020 4:30:00 PM -100000 -179968 -100000 -100000 -100000 -100000
11/3/2020 4:45:00 PM -100000 -179968 -100000 -100000 -100000 -100000
11/3/2020 5:00:00 PM -100000 -179968 -100000 -100000 -100000 -100000
11/3/2020 5:15:00 PM -100000 -179968 -100000 -100000 -100000 -100000
11/3/2020 5:30:00 PM -100000 -179968 -100000 -100000 -100000 -100000
11/3/2020 5:45:00 PM -100000 -179968 -100000 -100000 -100000 -100000
11/3/2020 6:00:00 PM -100000 -179968 -100000 -100000 -100000 -100000
11/3/2020 6:15:00 PM -100000 -179968 -100000 -100000 -100000 -100000
11/3/2020 6:30:00 PM -100000 -179968 -100000 -100000 -100000 -100000
11/3/2020 6:45:00 PM -100000 -179968 -100000 -100000 -100000 -100000
11/3/2020 7:00:00 PM -100000 -179968 -100000 -100000 -100000 -100000
11/3/2020 7:15:00 PM -100000 -179968 -100000 -100000 -100000 -100000
11/3/2020 7:30:00 PM -100000 -179968 -100000 -100000 -100000 -100000
11/3/2020 7:45:00 PM -100000 -179968 -100000 -100000 -100000 -100000
11/3/2020 8:00:00 PM -100000 -179968 -100000 -100000 -100000 -100000
11/3/2020 8:15:00 PM -100000 -179968 -100000 -100000 -100000 -100000
11/3/2020 8:30:00 PM -100000 -179968 -100000 -100000 -100000 -100000
11/3/2020 8:45:00 PM -100000 -179968 -100000 -100000 -100000 -100000
11/3/2020 9:00:00 PM -100000 -179968 -100000 -100000 -100000 -100000
11/3/2020 9:15:00 PM -100000 -179968 -100000 -100000 -100000 -100000
11/3/2020 9:30:00 PM -100000 -179968 -100000 -100000 -100000 -100000
11/3/2020 9:45:00 PM -100000 -179968 -100000 -100000 -100000 -100000
11/3/2020 10:00:00 PM -100000 -179968 -100000 -100000 -100000 -100000
11/3/2020 10:15:00 PM -100000 -179968 -100000 -100000 -100000 -100000
11/3/2020 10:30:00 PM -100000 -179968 -100000 -100000 -100000 -100000
11/3/2020 10:45:00 PM -100000 -179968 -100000 -100000 -100000 -100000
11/3/2020 11:00:00 PM -100000 -179968 -100000 -100000 -100000 -100000
11/3/2020 11:15:00 PM -100000 -179968 -100000 -100000 -100000 -100000
11/3/2020 11:30:00 PM -100000 -179968 -100000 -100000 -100000 -100000
11/3/2020 11:45:00 PM -100000 -179968 -100000 -100000 -100000 -100000
11/4/2020 12:00:00 AM -100000 -179968 -100000 -100000 -100000 -100000
11/4/2020 12:15:00 AM -100000 -179968 -100000 -100000 -100000 -100000
11/4/2020 12:30:00 AM -100000 -179968 -100000 -100000 -100000 -100000
11/4/2020 12:45:00 AM -100000 -179968 -100000 -100000 -100000 -100000
11/4/2020 1:00:00 AM -100000 -179968 -100000 -100000 -100000 -100000
11/4/2020 1:15:00 AM -100000 -179968 -100000 -100000 -100000 -100000
11/4/2020 1:30:00 AM -100000 -179968 -100000 -100000 -100000 -100000
11/4/2020 1:45:00 AM -100000 -179968 -100000 -100000 -100000 -100000
11/4/2020 2:00:00 AM -100000 -179968 -100000 -100000 -100000 -100000
11/4/2020 2:15:00 AM -100000 -179968 -100000 -100000 -100000 -100000
11/4/2020 2:30:00 AM -100000 -179968 -100000 -100000 -100000 -100000
11/4/2020 2:45:00 AM -100000 -179968 -100000 -100000 -100000 -100000
11/4/2020 3:00:00 AM -100000 -179968 -100000 -100000 -100000 -100000
11/4/2020 3:15:00 AM -100000 -179968 -100000 -100000 -100000 -100000
11/4/2020 3:30:00 AM -100000 -179968 -100000 -100000 -100000 -100000
11/4/2020 3:45:00 AM -100000 -179968 -100000 -100000 -100000 -100000
11/4/2020 4:00:00 AM -100000 -179968 -100000 -100000 -100000 -100000
11/4/2020 4:15:00 AM -100000 -179968 -100000 -100000 -100000 -100000
11/4/2020 4:30:00 AM -100000 -179968 -100000 -100000 -100000 -100000
11/4/2020 4:45:00 AM -100000 -179968 -100000 -100000 -100000 -100000
11/4/2020 5:00:00 AM -100000 -179968 -100000 -100000 -100000 -100000
11/4/2020 5:15:00 AM -100000 -179968 -100000 -100000 -100000 -100000
11/4/2020 5:30:00 AM -100000 -179968 -100000 -100000 -100000 -100000
11/4/2020 5:45:00 AM -100000 -179968 -100000 -100000 -100000 -100000
11/4/2020 6:00:00 AM -100000 -179968 -100000 -100000 -100000 -100000
11/4/2020 6:15:00 AM -100000 -179968 -100000 -100000 -100000 -100000
11/4/2020 6:30:00 AM -100000 -179968 -100000 -100000 -100000 -100000
11/4/2020 6:45:00 AM -100000 -179968 -100000 -100000 -100000 -100000
11/4/2020 7:00:00 AM -100000 -179968 -100000 -100000 -100000 -100000
11/4/2020 7:15:00 AM -100000 -179968 -100000 -100000 -100000 -100000
11/4/2020 7:30:00 AM -100000 -179968 -100000 -100000 -100000 -100000
11/4/2020 7:45:00 AM -100000 -179968 -100000 -100000 -100000 -100000
11/4/2020 8:00:00 AM -100000 -179968 -100000 -100000 -100000 -100000
11/4/2020 8:15:00 AM -100000 -179968 -100000 -100000 -100000 -100000
11/4/2020 8:30:00 AM -100000 -179968 -100000 -100000 -100000 -100000
11/4/2020 8:45:00 AM 7.37 45.266 0 7 0 0
11/4/2020 9:00:00 AM -100000 -179968 -100000 -100000 -100000 -100000
11/4/2020 9:15:00 AM 7.45 45.41 0 13.58 0 0
11/4/2020 9:30:00 AM 7.48 45.464 326.6 7.3 30.23 11.49
11/4/2020 9:45:00 AM 7.52 45.536 326.3 9.25 28.23 11.55
11/4/2020 10:00:00 AM 7.59 45.662 326.2 10.4 28.38 11.63
11/4/2020 10:15:00 AM 7.65 45.77 326.4 11.5 30.41 11.71
11/4/2020 10:30:00 AM 7.72 45.896 326.3 12.56 28.61 11.75
11/4/2020 10:45:00 AM 7.8 46.04 326.4 13.07 28.53 11.83
11/4/2020 11:00:00 AM 7.88 46.184 326.5 13.3 26.58 11.9
11/4/2020 11:15:00 AM 7.96 46.328 326.9 13.61 29.57 11.96
11/4/2020 11:30:00 AM 8.05 46.49 327.1 13.54 32.73 12.03
11/4/2020 11:45:00 AM 8.14 46.652 327.2 13.51 28.84 12.09
11/4/2020 12:00:00 PM 8.24 46.832 327.3 13.5 28.46 12.15
11/4/2020 12:15:00 PM 8.33 46.994 327.4 13.55 27.6 12.2
11/4/2020 12:30:00 PM 8.42 47.156 327.1 13.49 27.64 12.25
11/4/2020 12:45:00 PM 8.51 47.318 326.7 13.02 27.57 12.31
11/4/2020 1:00:00 PM 8.61 47.498 326.4 13.13 28.59 12.35
11/4/2020 1:15:00 PM 8.69 47.642 326.1 13.08 21.29 12.39
11/4/2020 1:30:00 PM 8.78 47.804 325.9 12.92 35.3 12.42
11/4/2020 1:45:00 PM 8.86 47.948 325.8 12.77 29.22 12.43
11/4/2020 2:00:00 PM 8.94 48.092 325.6 12.46 27.04 12.43
11/4/2020 2:15:00 PM 9.01 48.218 325.6 12.23 32.11 12.47
11/4/2020 2:30:00 PM 9.07 48.326 325.8 11.85 32.83 12.46
11/4/2020 2:45:00 PM 9.13 48.434 325.8 12.11 27.73 12.46
11/4/2020 3:00:00 PM 9.17 48.506 325.8 12.03 22.16 12.43
11/4/2020 3:15:00 PM 9.21 48.578 325.6 12.2 24.83 12.42
11/4/2020 3:30:00 PM 9.24 48.632 325.4 12.27 24.13 12.39
11/4/2020 3:45:00 PM 9.26 48.668 325.3 11.88 22.41 12.35
11/4/2020 4:00:00 PM 9.27 48.686 324.9 12.26 25.57 12.31
11/4/2020 4:15:00 PM 9.27 48.686 324.7 12.42 23.64 12.25
11/4/2020 4:30:00 PM 9.26 48.668 324.4 12.59 29.49 12.17
11/4/2020 4:45:00 PM 9.24 48.632 324.2 12.73 25.77 12.1
11/4/2020 5:00:00 PM -100000 -179968 -100000 -100000 -100000 -100000
11/4/2020 5:15:00 PM -100000 -179968 -100000 -100000 -100000 -100000
11/4/2020 5:30:00 PM -100000 -179968 -100000 -100000 -100000 -100000
11/4/2020 5:45:00 PM -100000 -179968 -100000 -100000 -100000 -100000
11/4/2020 6:00:00 PM -100000 -179968 -100000 -100000 -100000 -100000
11/4/2020 6:15:00 PM -100000 -179968 -100000 -100000 -100000 -100000
11/4/2020 6:30:00 PM -100000 -179968 -100000 -100000 -100000 -100000
11/4/2020 6:45:00 PM -100000 -179968 -100000 -100000 -100000 -100000
11/4/2020 7:00:00 PM -100000 -179968 -100000 -100000 -100000 -100000
11/4/2020 7:15:00 PM -100000 -179968 -100000 -100000 -100000 -100000
11/4/2020 7:30:00 PM -100000 -179968 -100000 -100000 -100000 -100000
11/4/2020 7:45:00 PM -100000 -179968 -100000 -100000 -100000 -100000
11/4/2020 8:00:00 PM -100000 -179968 -100000 -100000 -100000 -100000
11/4/2020 8:15:00 PM -100000 -179968 -100000 -100000 -100000 -100000
11/4/2020 8:30:00 PM -100000 -179968 -100000 -100000 -100000 -100000
11/4/2020 8:45:00 PM -100000 -179968 -100000 -100000 -100000 -100000
11/4/2020 9:00:00 PM -100000 -179968 -100000 -100000 -100000 -100000
11/4/2020 9:15:00 PM -100000 -179968 -100000 -100000 -100000 -100000
11/4/2020 9:30:00 PM -100000 -179968 -100000 -100000 -100000 -100000
11/4/2020 9:45:00 PM -100000 -179968 -100000 -100000 -100000 -100000
11/4/2020 10:00:00 PM -100000 -179968 -100000 -100000 -100000 -100000
11/4/2020 10:15:00 PM -100000 -179968 -100000 -100000 -100000 -100000
11/4/2020 10:30:00 PM -100000 -179968 -100000 -100000 -100000 -100000
11/4/2020 10:45:00 PM -100000 -179968 -100000 -100000 -100000 -100000
11/4/2020 11:00:00 PM -100000 -179968 -100000 -100000 -100000 -100000
11/4/2020 11:15:00 PM -100000 -179968 -100000 -100000 -100000 -100000
11/4/2020 11:30:00 PM -100000 -179968 -100000 -100000 -100000 -100000
11/4/2020 11:45:00 PM -100000 -179968 -100000 -100000 -100000 -100000
11/5/2020 12:00:00 AM -100000 -179968 -100000 -100000 -100000 -100000
11/5/2020 12:15:00 AM -100000 -179968 -100000 -100000 -100000 -100000
11/5/2020 12:30:00 AM -100000 -179968 -100000 -100000 -100000 -100000
11/5/2020 12:45:00 AM -100000 -179968 -100000 -100000 -100000 -100000
11/5/2020 1:00:00 AM -100000 -179968 -100000 -100000 -100000 -100000
11/5/2020 1:15:00 AM -100000 -179968 -100000 -100000 -100000 -100000
11/5/2020 1:30:00 AM -100000 -179968 -100000 -100000 -100000 -100000
11/5/2020 1:45:00 AM -100000 -179968 -100000 -100000 -100000 -100000
11/5/2020 2:00:00 AM -100000 -179968 -100000 -100000 -100000 -100000
11/5/2020 2:15:00 AM -100000 -179968 -100000 -100000 -100000 -100000
11/5/2020 2:30:00 AM -100000 -179968 -100000 -100000 -100000 -100000
11/5/2020 2:45:00 AM -100000 -179968 -100000 -100000 -100000 -100000
11/5/2020 3:00:00 AM -100000 -179968 -100000 -100000 -100000 -100000
11/5/2020 3:15:00 AM -100000 -179968 -100000 -100000 -100000 -100000
11/5/2020 3:30:00 AM -100000 -179968 -100000 -100000 -100000 -100000
11/5/2020 3:45:00 AM -100000 -179968 -100000 -100000 -100000 -100000
11/5/2020 4:00:00 AM -100000 -179968 -100000 -100000 -100000 -100000
11/5/2020 4:15:00 AM -100000 -179968 -100000 -100000 -100000 -100000
11/5/2020 4:30:00 AM -100000 -179968 -100000 -100000 -100000 -100000
11/5/2020 4:45:00 AM -100000 -179968 -100000 -100000 -100000 -100000
11/5/2020 5:00:00 AM -100000 -179968 -100000 -100000 -100000 -100000
11/5/2020 5:15:00 AM -100000 -179968 -100000 -100000 -100000 -100000
11/5/2020 5:30:00 AM -100000 -179968 -100000 -100000 -100000 -100000
11/5/2020 5:45:00 AM -100000 -179968 -100000 -100000 -100000 -100000
11/5/2020 6:00:00 AM -100000 -179968 -100000 -100000 -100000 -100000
11/5/2020 6:15:00 AM -100000 -179968 -100000 -100000 -100000 -100000
11/5/2020 6:30:00 AM -100000 -179968 -100000 -100000 -100000 -100000
11/5/2020 6:45:00 AM -100000 -179968 -100000 -100000 -100000 -100000
11/5/2020 7:00:00 AM -100000 -179968 -100000 -100000 -100000 -100000
11/5/2020 7:15:00 AM -100000 -179968 -100000 -100000 -100000 -100000
11/5/2020 7:30:00 AM -100000 -179968 -100000 -100000 -100000 -100000
11/5/2020 7:45:00 AM -100000 -179968 -100000 -100000 -100000 -100000
11/5/2020 8:00:00 AM -100000 -179968 -100000 -100000 -100000 -100000
11/5/2020 8:15:00 AM -100000 -179968 -100000 -100000 -100000 -100000
11/5/2020 8:30:00 AM -100000 -179968 -100000 -100000 -100000 -100000
11/5/2020 8:45:00 AM -100000 -179968 -100000 -100000 -100000 -100000
11/5/2020 9:00:00 AM -100000 -179968 -100000 -100000 -100000 -100000
11/5/2020 9:15:00 AM -100000 -179968 -100000 -100000 -100000 -100000
11/5/2020 9:30:00 AM 8.58 47.444 326 6.84 25.65 11.13
11/5/2020 9:45:00 AM 8.63 47.534 326.1 7.1 16.2 11.23
11/5/2020 10:00:00 AM 8.7 47.66 325.8 8.81 33.83 11.3
11/5/2020 10:15:00 AM 8.78 47.804 325.7 11.27 24.52 11.4
11/5/2020 10:30:00 AM 8.86 47.948 325.6 12.46 33.45 11.48
11/5/2020 10:45:00 AM 8.94 48.092 325.6 12.97 45.43 11.58
11/5/2020 11:00:00 AM 9.03 48.254 325.9 13.36 26.89 11.66
11/5/2020 11:15:00 AM 9.12 48.416 326.3 13.01 28.07 11.73
11/5/2020 11:30:00 AM 9.22 48.596 326.7 13.78 29.9 11.81
11/5/2020 11:45:00 AM 9.31 48.758 327.1 13.66 27.16 11.9
11/5/2020 12:00:00 PM 9.42 48.956 327.1 12.99 35.15 11.99
11/5/2020 12:15:00 PM 11.72 53.096 1 13.03 1.06 11.17
11/5/2020 12:45:00 PM 9.68 49.424 0.325 7.27 0.14 12.26
11/5/2020 1:00:00 PM 9.76 49.568 0.325 7.39 0.04 12.31
11/5/2020 1:15:00 PM 9.85 49.73 0.324 7.15 0.06 12.38
11/5/2020 1:30:00 PM 9.94 49.892 0.323 6.76 -0.06 12.42
11/5/2020 1:45:00 PM 10.05 50.09 0.323 6.56 0.14 12.48
11/5/2020 2:00:00 PM 10.14 50.252 0.323 6.31 -0.05 12.52
11/5/2020 2:15:00 PM 10.23 50.414 0.323 6.27 0.15 12.54
11/5/2020 2:30:00 PM 10.29 50.522 0.323 6.27 0.45 12.57
11/5/2020 2:45:00 PM 10.36 50.648 0.323 6.27 0.02 12.56
11/5/2020 3:00:00 PM 10.4 50.72 0.323 6.33 0.09 12.56
11/5/2020 3:15:00 PM 10.44 50.792 0.323 6.44 0.13 12.52
11/5/2020 3:30:00 PM 10.47 50.846 0.323 6.48 0.01 12.46
11/5/2020 3:45:00 PM 10.5 50.9 0.322 6.49 0.01 12.44
11/5/2020 4:00:00 PM 10.51 50.918 0.322 6.65 0.11 12.39
11/5/2020 4:15:00 PM 10.51 50.918 0.321 6.74 -0.02 12.3
11/5/2020 4:30:00 PM 10.51 50.918 0.321 6.89 0.02 12.22
11/5/2020 4:45:00 PM 10.5 50.9 0.321 7.03 0.04 12.1
11/5/2020 5:00:00 PM 10.49 50.882 0.32 7.14 0 12.01
11/5/2020 5:15:00 PM 10.48 50.864 0.32 7.27 0.04 11.9
11/5/2020 5:30:00 PM 10.47 50.846 0.32 7.39 0.01 11.8
11/5/2020 5:45:00 PM 10.45 50.81 0.32 7.46 0.05 11.69
11/5/2020 6:00:00 PM 10.43 50.774 0.32 7.51 0.14 11.6
11/5/2020 6:15:00 PM 10.42 50.756 0.319 7.55 0.13 11.5
11/5/2020 6:30:00 PM 10.4 50.72 0.319 7.62 0.01 11.4
11/5/2020 6:45:00 PM 10.38 50.684 0.319 7.63 0.42 11.32
11/5/2020 7:00:00 PM 10.36 50.648 0.318 7.64 0.27 11.23
11/5/2020 7:15:00 PM 10.34 50.612 0.318 7.68 0.32 11.15
11/5/2020 7:30:00 PM 10.33 50.594 0.318 7.69 0.27 11.07
11/5/2020 7:45:00 PM 10.31 50.558 0.318 7.7 0.43 10.99
11/5/2020 8:00:00 PM 10.3 50.54 0.318 7.71 0.34 10.92
11/5/2020 8:15:00 PM 10.28 50.504 0.318 7.73 0.69 10.86
11/5/2020 8:30:00 PM 10.27 50.486 0.319 7.73 0.38 10.78
11/5/2020 8:45:00 PM 10.25 50.45 0.319 7.73 0.21 10.71
11/5/2020 9:00:00 PM 10.23 50.414 0.318 7.73 0.17 10.64
11/5/2020 9:15:00 PM 10.22 50.396 0.318 7.73 0.35 10.58
11/5/2020 9:30:00 PM 10.21 50.378 0.318 7.73 0.38 10.53
11/5/2020 9:45:00 PM 10.2 50.36 0.318 7.73 0.2 10.49
11/5/2020 10:00:00 PM 10.19 50.342 0.318 7.72 0.46 10.46
11/5/2020 10:15:00 PM 10.19 50.342 0.317 7.72 0.5 10.4
11/5/2020 10:30:00 PM 10.18 50.324 0.318 7.72 0.27 10.37
11/5/2020 10:45:00 PM 10.16 50.288 0.318 7.74 0.68 10.34
11/5/2020 11:00:00 PM 10.16 50.288 0.318 7.73 0.8 10.31
11/5/2020 11:15:00 PM 10.15 50.27 0.319 7.74 0.48 10.25
11/5/2020 11:30:00 PM 10.14 50.252 0.319 7.74 0.93 10.25
11/5/2020 11:45:00 PM 10.14 50.252 0.32 7.76 0.5 10.22
11/6/2020 12:00:00 AM 10.13 50.234 0.32 7.77 0.62 10.2
11/6/2020 12:15:00 AM 10.12 50.216 0.32 7.77 0.31 10.18
11/6/2020 12:30:00 AM 10.12 50.216 0.319 7.77 0.87 10.16
11/6/2020 12:45:00 AM 10.12 50.216 0.319 7.79 0.67 10.13
11/6/2020 1:00:00 AM 10.11 50.198 0.319 7.78 0.47 10.11
11/6/2020 1:15:00 AM 10.11 50.198 0.318 7.79 0.34 10.09
11/6/2020 1:30:00 AM 10.1 50.18 0.318 7.78 0.75 10.08
11/6/2020 1:45:00 AM 10.1 50.18 0.319 7.79 1.31 10.05
11/6/2020 2:00:00 AM 10.11 50.198 0.319 7.77 0.58 10.03
11/6/2020 2:15:00 AM 10.11 50.198 0.32 7.77 0.57 10.01
11/6/2020 2:30:00 AM 10.11 50.198 0.321 7.76 0.42 9.99
11/6/2020 2:45:00 AM 10.12 50.216 0.321 7.76 1.25 9.99
11/6/2020 3:00:00 AM 10.11 50.198 0.321 7.75 0.27 9.97
11/6/2020 3:15:00 AM 10.11 50.198 0.321 7.74 1.17 9.96
11/6/2020 3:30:00 AM 10.11 50.198 0.321 7.74 0.88 9.95
11/6/2020 3:45:00 AM 10.1 50.18 0.32 7.75 1.16 9.94
11/6/2020 4:00:00 AM 10.1 50.18 0.32 7.74 1.51 9.93
11/6/2020 4:15:00 AM 10.09 50.162 0.319 7.73 0.56 9.92
11/6/2020 4:30:00 AM 10.08 50.144 0.319 7.73 0.6 9.9
11/6/2020 4:45:00 AM 10.07 50.126 0.319 7.72 0.51 9.91
11/6/2020 5:00:00 AM 10.05 50.09 0.32 7.74 0.48 9.9
11/6/2020 5:15:00 AM 10.04 50.072 0.32 7.73 1.04 9.89
11/6/2020 5:30:00 AM 10.03 50.054 0.32 7.73 0.79 9.89
11/6/2020 5:45:00 AM 10.02 50.036 0.32 7.73 0.5 9.89
11/6/2020 6:00:00 AM 10 50 0.32 7.73 0.76 9.89
11/6/2020 6:15:00 AM 9.99 49.982 0.32 7.73 0.54 9.88
11/6/2020 6:30:00 AM 9.96 49.928 0.32 7.73 1.18 9.88
11/6/2020 6:45:00 AM 9.94 49.892 0.32 7.74 2.6 9.88
11/6/2020 7:00:00 AM 9.92 49.856 0.319 7.75 1.34 9.89
11/6/2020 7:15:00 AM 9.89 49.802 0.319 7.74 0.38 9.91
11/6/2020 7:30:00 AM 9.87 49.766 0.319 7.74 0.59 9.93
11/6/2020 7:45:00 AM 9.85 49.73 0.32 7.74 0.39 9.96
11/6/2020 8:00:00 AM 9.83 49.694 0.32 7.73 0.31 10.02
11/6/2020 8:15:00 AM 9.86 49.748 0.321 7.66 0.28 10.11
11/6/2020 8:30:00 AM 9.88 49.784 0.321 7.45 0.46 10.2
11/6/2020 8:45:00 AM 9.89 49.802 0.322 7.35 0.42 10.29
11/6/2020 9:00:00 AM 9.92 49.856 0.322 7.26 0.51 10.39
11/6/2020 9:15:00 AM 9.96 49.928 0.322 7.17 0.67 10.48
11/6/2020 9:30:00 AM 9.99 49.982 0.322 7.13 0.32 10.58
11/6/2020 9:45:00 AM 10.03 50.054 0.321 7.11 0.21 10.68
11/6/2020 10:00:00 AM 10.09 50.162 0.321 7.08 0.12 10.77
11/6/2020 10:15:00 AM 10.15 50.27 0.321 7.1 0.26 10.89
11/6/2020 10:30:00 AM 10.21 50.378 0.321 7.1 0.58 10.96
11/6/2020 10:45:00 AM 10.28 50.504 0.321 7.09 0.04 11.06
11/6/2020 11:00:00 AM 10.35 50.63 0.322 7.1 0.29 11.16
11/6/2020 11:15:00 AM 10.43 50.774 0.322 7.08 0.35 11.23
11/6/2020 11:30:00 AM 10.51 50.918 0.323 7.06 0.16 11.32
11/6/2020 11:45:00 AM 10.59 51.062 0.323 7.02 0.2 11.39
11/6/2020 12:00:00 PM 10.67 51.206 0.323 7.05 0.17 11.5
11/6/2020 12:15:00 PM 10.75 51.35 0.323 7.08 0.12 11.55
11/6/2020 12:30:00 PM 10.84 51.512 0.323 7.11 0.1 11.62
11/6/2020 12:45:00 PM 10.92 51.656 0.322 7.11 0.21 11.69
11/6/2020 1:00:00 PM 11 51.8 0.322 7.11 0.62 11.76
11/6/2020 1:15:00 PM 11.08 51.944 0.321 7.11 0.14 11.81
11/6/2020 1:30:00 PM 11.15 52.07 0.321 7.15 0.1 11.85
11/6/2020 1:45:00 PM 11.22 52.196 0.321 7.16 0.11 11.87
11/6/2020 2:00:00 PM 11.29 52.322 0.321 7.19 0.31 11.92
11/6/2020 2:15:00 PM 11.36 52.448 0.321 7.21 0.13 11.93
11/6/2020 2:30:00 PM 11.41 52.538 0.321 7.22 0.53 11.93
11/6/2020 2:45:00 PM 11.46 52.628 0.321 7.27 0.29 11.94
11/6/2020 3:00:00 PM 11.5 52.7 0.321 7.29 0.14 11.91
11/6/2020 3:15:00 PM 11.54 52.772 0.321 7.33 0.47 11.9
11/6/2020 3:30:00 PM 11.56 52.808 0.32 7.34 0.02 11.85
11/6/2020 3:45:00 PM 11.58 52.844 0.32 7.37 0.05 11.81
11/6/2020 4:00:00 PM 11.58 52.844 0.32 7.39 0.11 11.73
11/6/2020 4:15:00 PM 11.58 52.844 0.32 7.44 0.03 11.65
11/6/2020 4:30:00 PM 11.56 52.808 0.319 7.48 0.19 11.55
11/6/2020 4:45:00 PM 11.54 52.772 0.319 7.53 0.19 11.47
11/6/2020 5:00:00 PM 11.51 52.718 0.319 7.56 0.12 11.35
11/6/2020 5:15:00 PM 11.48 52.664 0.319 7.6 0.43 11.24
11/6/2020 5:30:00 PM 11.45 52.61 0.319 7.65 0.36 11.13
11/6/2020 5:45:00 PM 11.41 52.538 0.319 7.69 0.14 11.04
11/6/2020 6:00:00 PM 11.37 52.466 0.319 7.72 0.57 10.95
11/6/2020 6:15:00 PM 11.33 52.394 0.319 7.74 0.29 10.86
11/6/2020 6:30:00 PM 11.29 52.322 0.319 7.75 0.3 10.77
11/6/2020 6:45:00 PM 11.25 52.25 0.319 7.78 0.12 10.68
11/6/2020 7:00:00 PM 11.21 52.178 0.319 7.78 0.63 10.61
11/6/2020 7:15:00 PM 11.18 52.124 0.319 7.78 0.18 10.54
11/6/2020 7:30:00 PM 11.15 52.07 0.319 7.78 0.08 10.49
11/6/2020 7:45:00 PM 11.11 51.998 0.32 7.78 0.28 10.43
11/6/2020 8:00:00 PM 11.08 51.944 0.32 7.79 0.52 10.37
11/6/2020 8:15:00 PM 11.05 51.89 0.32 7.8 0.36 10.3
11/6/2020 8:30:00 PM 11.02 51.836 0.32 7.8 0.82 10.26
11/6/2020 8:45:00 PM 11 51.8 0.32 7.81 0.36 10.22
11/6/2020 9:00:00 PM 10.97 51.746 0.32 7.8 0.33 10.18
11/6/2020 9:15:00 PM 10.95 51.71 0.32 7.8 0.5 10.12
11/6/2020 9:30:00 PM 10.93 51.674 0.321 7.82 0.05 10.09
11/6/2020 9:45:00 PM 10.9 51.62 0.321 7.84 0.59 10.05
11/6/2020 10:00:00 PM 10.87 51.566 0.321 7.84 0.42 10.02
11/6/2020 10:15:00 PM 10.85 51.53 0.321 7.84 0.42 9.99
11/6/2020 10:30:00 PM 10.83 51.494 0.322 7.84 1.12 9.96
11/6/2020 10:45:00 PM 10.81 51.458 0.323 7.85 0.45 9.94
11/6/2020 11:00:00 PM 10.79 51.422 0.325 7.84 0.57 9.9
11/6/2020 11:15:00 PM 10.77 51.386 0.327 7.83 0.73 9.88
11/6/2020 11:30:00 PM 10.76 51.368 0.328 7.84 2.27 9.86
11/6/2020 11:45:00 PM 10.74 51.332 0.329 7.84 0.41 9.85
11/7/2020 12:00:00 AM 10.73 51.314 0.33 7.85 0.51 9.82
11/7/2020 12:15:00 AM 10.71 51.278 0.331 7.85 0.62 9.79
11/7/2020 12:30:00 AM 10.7 51.26 0.331 7.85 0.37 9.79
11/7/2020 12:45:00 AM 10.68 51.224 0.33 7.86 0.45 9.76
11/7/2020 1:00:00 AM 10.66 51.188 0.33 7.86 1.94 9.76
11/7/2020 1:15:00 AM 10.64 51.152 0.33 7.85 0.72 9.75
11/7/2020 1:30:00 AM 10.62 51.116 0.33 7.86 0.51 9.75
11/7/2020 1:45:00 AM 10.61 51.098 0.33 7.86 0.9 9.71
11/7/2020 2:00:00 AM 10.59 51.062 0.33 7.86 0.67 9.72
11/7/2020 2:15:00 AM 10.57 51.026 0.33 7.87 0.22 9.71
11/7/2020 2:30:00 AM 10.55 50.99 0.331 7.87 0.58 9.69
11/7/2020 2:45:00 AM 10.54 50.972 0.331 7.87 0.35 9.69
11/7/2020 3:00:00 AM 10.5 50.9 0.331 7.87 0.59 9.69
11/7/2020 3:15:00 AM 10.49 50.882 0.331 7.86 0.33 9.68
11/7/2020 3:30:00 AM 10.46 50.828 0.331 7.87 0.36 9.68
11/7/2020 3:45:00 AM 10.44 50.792 0.33 7.87 0.91 9.67
11/7/2020 4:00:00 AM 10.41 50.738 0.33 7.87 0.5 9.66
11/7/2020 4:15:00 AM 10.38 50.684 0.329 7.87 0.73 9.67
11/7/2020 4:30:00 AM 10.35 50.63 0.329 7.87 1.53 9.68
11/7/2020 4:45:00 AM 10.32 50.576 0.329 7.86 0.33 9.68
11/7/2020 5:00:00 AM 10.29 50.522 0.329 7.86 0.4 9.67
11/7/2020 5:15:00 AM 10.25 50.45 0.33 7.86 0.56 9.67
11/7/2020 5:30:00 AM 10.22 50.396 0.33 7.85 1.48 9.68
11/7/2020 5:45:00 AM 10.19 50.342 0.33 7.86 4.44 9.69
11/7/2020 6:00:00 AM 10.15 50.27 0.33 7.86 0.37 9.7
11/7/2020 6:15:00 AM 10.12 50.216 0.33 7.86 0.94 9.69
11/7/2020 6:30:00 AM 10.08 50.144 0.33 7.85 0.87 9.7
11/7/2020 6:45:00 AM 10.04 50.072 0.33 7.86 0.88 9.72
11/7/2020 7:00:00 AM 10 50 0.329 7.86 0.59 9.74
11/7/2020 7:15:00 AM 9.97 49.946 0.329 7.85 0.86 9.76
11/7/2020 7:30:00 AM 9.94 49.892 0.329 7.85 0.45 9.8
11/7/2020 7:45:00 AM 9.92 49.856 0.329 7.85 0.79 9.88
11/7/2020 8:00:00 AM 9.92 49.856 0.33 7.83 0.37 9.95
11/7/2020 8:15:00 AM 9.95 49.91 0.33 7.76 0.25 10.05
11/7/2020 8:30:00 AM 9.96 49.928 0.331 7.59 0.4 10.13
11/7/2020 8:45:00 AM 9.97 49.946 0.331 7.4 0.35 10.21
11/7/2020 9:00:00 AM 10 50 0.331 7.26 0.24 10.33
11/7/2020 9:15:00 AM 10.04 50.072 0.331 7.16 0.73 10.44
11/7/2020 9:30:00 AM 10.08 50.144 0.331 7.08 1.24 10.56
11/7/2020 9:45:00 AM 10.13 50.234 0.331 6.97 0.46 10.67
11/7/2020 10:00:00 AM 10.2 50.36 0.331 6.9 0.35 10.77
11/7/2020 10:15:00 AM 10.26 50.468 0.33 6.82 0.45 10.88
11/7/2020 10:30:00 AM 10.32 50.576 0.33 6.8 0.11 11
11/7/2020 10:45:00 AM 10.39 50.702 0.33 6.67 0.18 11.09
11/7/2020 11:00:00 AM 10.47 50.846 0.331 6.52 0.19 11.22
11/7/2020 11:15:00 AM 10.55 50.99 0.331 6.45 0.26 11.29
11/7/2020 11:30:00 AM 10.63 51.134 0.332 6.36 0.18 11.39
11/7/2020 11:45:00 AM 10.71 51.278 0.332 6.31 0.13 11.49
11/7/2020 12:00:00 PM 10.8 51.44 0.332 6.34 0.29 11.59
11/7/2020 12:15:00 PM 10.88 51.584 0.331 6.28 0.35 11.65
11/7/2020 12:30:00 PM 10.96 51.728 0.331 6.3 0.17 11.74
11/7/2020 12:45:00 PM 11.04 51.872 0.331 6.31 0.3 11.81
11/7/2020 1:00:00 PM 11.12 52.016 0.33 6.38 0.5 11.87
11/7/2020 1:15:00 PM 11.2 52.16 0.33 6.44 0.32 11.93
11/7/2020 1:30:00 PM 11.27 52.286 0.329 6.47 0.29 11.96
11/7/2020 1:45:00 PM 11.34 52.412 0.329 6.53 0.31 11.99
11/7/2020 2:00:00 PM 11.4 52.52 0.329 6.57 0.28 12.04
11/7/2020 2:15:00 PM 11.46 52.628 0.329 6.59 0.24 12.05
11/7/2020 2:30:00 PM 11.51 52.718 0.329 6.57 0.33 12.03
11/7/2020 2:45:00 PM 11.56 52.808 0.329 6.57 0.1 12.03
11/7/2020 3:00:00 PM 11.6 52.88 0.328 6.67 0.57 12.01
11/7/2020 3:15:00 PM 11.63 52.934 0.328 6.71 0.12 11.99
11/7/2020 3:30:00 PM 11.65 52.97 0.328 6.79 0.34 11.95
11/7/2020 3:45:00 PM 11.66 52.988 0.327 6.92 0.78 11.88
11/7/2020 4:00:00 PM 11.66 52.988 0.327 6.98 0.99 11.81
11/7/2020 4:15:00 PM 11.65 52.97 0.326 7.04 0.12 11.73
11/7/2020 4:30:00 PM 11.63 52.934 0.326 7.07 0.1 11.64
11/7/2020 4:45:00 PM 11.6 52.88 0.326 7.16 0.13 11.54
11/7/2020 5:00:00 PM 11.57 52.826 0.325 7.24 0.09 11.42
11/7/2020 5:15:00 PM 11.53 52.754 0.325 7.3 0.2 11.32
11/7/2020 5:30:00 PM 11.5 52.7 0.325 7.37 2.46 11.18
11/7/2020 5:45:00 PM 11.45 52.61 0.325 7.45 0.22 11.1
11/7/2020 6:00:00 PM 11.41 52.538 0.324 7.52 0.33 11.01
11/7/2020 6:15:00 PM 11.37 52.466 0.324 7.57 0.11 10.92
11/7/2020 6:30:00 PM 11.33 52.394 0.324 7.6 0.43 10.83
11/7/2020 6:45:00 PM 11.29 52.322 0.324 7.64 0.27 10.73
11/7/2020 7:00:00 PM 11.25 52.25 0.323 7.68 0.35 10.67
11/7/2020 7:15:00 PM 11.21 52.178 0.323 7.69 0.3 10.59
11/7/2020 7:30:00 PM 11.17 52.106 0.322 7.71 0.56 10.5
11/7/2020 7:45:00 PM 11.13 52.034 0.322 7.74 0.3 10.46
11/7/2020 8:00:00 PM 11.1 51.98 0.322 7.77 0.35 10.4
11/7/2020 8:15:00 PM 11.06 51.908 0.322 7.78 0.5 10.34
11/7/2020 8:30:00 PM 11.03 51.854 0.322 7.79 0.77 10.29
11/7/2020 8:45:00 PM 11 51.8 0.322 7.8 0.65 10.25
11/7/2020 9:00:00 PM 10.97 51.746 0.322 7.8 0.48 10.19
11/7/2020 9:15:00 PM 10.94 51.692 0.322 7.81 0.85 10.16
11/7/2020 9:30:00 PM 10.92 51.656 0.322 7.8 0.64 10.12
11/7/2020 9:45:00 PM 10.88 51.584 0.321 7.83 1.08 10.09
11/7/2020 10:00:00 PM 10.85 51.53 0.321 7.83 0.41 10.04
11/7/2020 10:15:00 PM 10.83 51.494 0.321 7.83 0.85 10.02
11/7/2020 10:30:00 PM 10.8 51.44 0.322 7.83 0.94 9.98
11/7/2020 10:45:00 PM 10.77 51.386 0.322 7.84 0.5 9.95
11/7/2020 11:00:00 PM 10.76 51.368 0.323 7.84 0.66 9.94
11/7/2020 11:15:00 PM 10.74 51.332 0.324 7.83 0.46 9.9
11/7/2020 11:30:00 PM 10.72 51.296 0.325 7.83 0.54 9.89
11/7/2020 11:45:00 PM 10.69 51.242 0.325 7.84 1.04 9.87
11/8/2020 12:00:00 AM 10.67 51.206 0.326 7.85 0.46 9.85
11/8/2020 12:15:00 AM 10.66 51.188 0.326 7.86 2.25 9.82
11/8/2020 12:30:00 AM 10.64 51.152 0.326 7.86 1.66 9.82
11/8/2020 12:45:00 AM 10.63 51.134 0.326 7.85 1.28 9.81
11/8/2020 1:00:00 AM 10.6 51.08 0.326 7.87 0.81 9.79
11/8/2020 1:15:00 AM 10.58 51.044 0.326 7.87 1.24 9.76
11/8/2020 1:30:00 AM 10.56 51.008 0.326 7.86 0.73 9.76
11/8/2020 1:45:00 AM 10.55 50.99 0.327 7.87 0.64 9.76
11/8/2020 2:00:00 AM 10.53 50.954 0.327 7.87 0.58 9.74
11/8/2020 2:15:00 AM 10.52 50.936 0.328 7.87 0.67 9.73
11/8/2020 2:30:00 AM 10.5 50.9 0.329 7.87 0.57 9.73
11/8/2020 2:45:00 AM 10.48 50.864 0.33 7.88 0.2 9.71
11/8/2020 3:00:00 AM 10.46 50.828 0.331 7.87 0.33 9.7
11/8/2020 3:15:00 AM 10.44 50.792 0.331 7.88 0.72 9.7
11/8/2020 3:30:00 AM 10.42 50.756 0.331 7.88 0.29 9.67
11/8/2020 3:45:00 AM 10.4 50.72 0.33 7.87 0.52 9.71
11/8/2020 4:00:00 AM 10.37 50.666 0.33 7.87 0.37 9.69
11/8/2020 4:15:00 AM 10.34 50.612 0.33 7.87 0.15 9.69
11/8/2020 4:30:00 AM 10.3 50.54 0.329 7.87 0.56 9.7
11/8/2020 4:45:00 AM 10.28 50.504 0.329 7.87 0.85 9.7
11/8/2020 5:00:00 AM 10.25 50.45 0.329 7.87 0.41 9.69
11/8/2020 5:15:00 AM 10.22 50.396 0.329 7.87 0.67 9.7
11/8/2020 5:30:00 AM 10.19 50.342 0.329 7.87 0.69 9.7
11/8/2020 5:45:00 AM 10.15 50.27 0.33 7.86 0.49 9.7
11/8/2020 6:00:00 AM 10.11 50.198 0.329 7.86 0.5 9.71
11/8/2020 6:15:00 AM 10.08 50.144 0.329 7.87 0.44 9.72
11/8/2020 6:30:00 AM 10.04 50.072 0.329 7.86 0.27 9.71
11/8/2020 6:45:00 AM 10 50 0.328 7.87 0.6 9.75
11/8/2020 7:00:00 AM 9.96 49.928 0.328 7.87 0.44 9.75
11/8/2020 7:15:00 AM 9.92 49.856 0.328 7.86 0.71 9.78
11/8/2020 7:30:00 AM 9.9 49.82 0.327 7.86 0.34 9.83
11/8/2020 7:45:00 AM 9.87 49.766 0.328 7.85 0.28 9.88
11/8/2020 8:00:00 AM 9.87 49.766 0.328 7.83 0.49 9.97
11/8/2020 8:15:00 AM 9.89 49.802 0.328 7.78 0.79 10.09
11/8/2020 8:30:00 AM 9.9 49.82 0.329 7.67 0.63 10.16
11/8/2020 8:45:00 AM 9.91 49.838 0.329 7.47 0.37 10.25
11/8/2020 9:00:00 AM 9.94 49.892 0.329 7.35 0.88 10.37
11/8/2020 9:15:00 AM 9.97 49.946 0.329 7.23 0.26 10.48
11/8/2020 9:30:00 AM 10 50 0.329 7.11 0.48 10.59
11/8/2020 9:45:00 AM 10.05 50.09 0.328 6.97 0.26 10.7
11/8/2020 10:00:00 AM 10.12 50.216 0.328 6.85 0.52 10.82
11/8/2020 10:15:00 AM 10.18 50.324 0.328 6.76 0.11 10.92
11/8/2020 10:30:00 AM 10.24 50.432 0.327 6.61 0.08 11.03
11/8/2020 10:45:00 AM 10.3 50.54 0.327 6.52 0.18 11.14
11/8/2020 11:00:00 AM 10.38 50.684 0.327 6.33 1.03 11.23
11/8/2020 11:15:00 AM 10.46 50.828 0.327 6.33 1.74 11.34
11/8/2020 11:30:00 AM 10.54 50.972 0.328 6.16 0.54 11.42
11/8/2020 11:45:00 AM 10.62 51.116 0.328 6.06 0.16 11.52
11/8/2020 12:00:00 PM 10.71 51.278 0.328 6 0.37 11.6
11/8/2020 12:15:00 PM 10.79 51.422 0.328 6.03 0.18 11.7
11/8/2020 12:30:00 PM 10.88 51.584 0.328 6.02 0.89 11.78
11/8/2020 12:45:00 PM 10.95 51.71 0.328 5.96 0.34 11.84
11/8/2020 1:00:00 PM 11.04 51.872 0.327 5.97 29.26 11.82
11/8/2020 1:15:00 PM 11.11 51.998 0.327 6.01 13.95 11.86
11/8/2020 1:30:00 PM 11.19 52.142 0.327 6.05 0.19 12.01
11/8/2020 1:45:00 PM 11.26 52.268 0.326 6.1 0.46 12.04
11/8/2020 2:00:00 PM 11.33 52.394 0.327 6.13 0.33 12.07
11/8/2020 2:15:00 PM 11.39 52.502 0.327 6.17 0.27 12.1
11/8/2020 2:30:00 PM 11.44 52.592 0.327 6.22 0.18 12.11
11/8/2020 2:45:00 PM 11.49 52.682 0.327 6.23 0.05 12.1
11/8/2020 3:00:00 PM 11.54 52.772 0.328 6.29 0.19 12.07
11/8/2020 3:15:00 PM 11.57 52.826 0.327 6.36 0.06 12.05
11/8/2020 3:30:00 PM 11.59 52.862 0.327 6.39 0.1 12.03
11/8/2020 3:45:00 PM 11.61 52.898 0.327 6.42 0.2 11.96
11/8/2020 4:00:00 PM 11.61 52.898 0.327 6.48 0.4 11.89
11/8/2020 4:15:00 PM 11.6 52.88 0.326 6.52 0.17 11.81
11/8/2020 4:30:00 PM 11.58 52.844 0.326 6.57 0.38 11.7
11/8/2020 4:45:00 PM 11.55 52.79 0.326 6.71 0.07 11.6
11/8/2020 5:00:00 PM 11.51 52.718 0.325 6.8 0.05 11.49
11/8/2020 5:15:00 PM 11.47 52.646 0.327 6.98 0.13 11.39
11/8/2020 5:30:00 PM 11.44 52.592 0.331 7.12 0.21 11.26
11/8/2020 5:45:00 PM 11.39 52.502 0.326 7.23 0.19 11.15
11/8/2020 6:00:00 PM 11.36 52.448 0.325 7.3 0.1 11.06
11/8/2020 6:15:00 PM 11.31 52.358 0.324 7.38 0.35 10.98
11/8/2020 6:30:00 PM 11.27 52.286 0.324 7.42 0.24 10.88
11/8/2020 6:45:00 PM 11.23 52.214 0.323 7.47 0.07 10.82
11/8/2020 7:00:00 PM 11.19 52.142 0.322 7.52 0.1 10.72
11/8/2020 7:15:00 PM 11.15 52.07 0.322 7.57 0.44 10.65
11/8/2020 7:30:00 PM 11.12 52.016 0.322 7.6 0.31 10.57
11/8/2020 7:45:00 PM 11.09 51.962 0.321 7.63 0.82 10.5
11/8/2020 8:00:00 PM 11.06 51.908 0.321 7.67 0.17 10.45
11/8/2020 8:15:00 PM 11.03 51.854 0.314 7.7 1.92 10.38
11/8/2020 8:30:00 PM 11 51.8 0.32 7.68 0.3 10.35
11/8/2020 8:45:00 PM 10.97 51.746 0.32 7.67 0.42 10.29
11/8/2020 9:00:00 PM 10.95 51.71 0.32 7.73 0.47 10.23
11/8/2020 9:15:00 PM 10.92 51.656 0.319 7.71 0.46 10.2
11/8/2020 9:30:00 PM 10.9 51.62 0.319 7.75 1.07 10.16
11/8/2020 9:45:00 PM 10.88 51.584 0.319 7.75 1 10.13
11/8/2020 10:00:00 PM 10.85 51.53 0.318 7.75 0.29 10.09
11/8/2020 10:15:00 PM 10.83 51.494 0.318 7.76 1.12 10.06
11/8/2020 10:30:00 PM 10.82 51.476 0.318 7.75 1.76 10.03
11/8/2020 10:45:00 PM 10.8 51.44 0.318 7.77 0.63 10
11/8/2020 11:00:00 PM 10.78 51.404 0.319 7.77 0.68 9.97
11/8/2020 11:15:00 PM 10.77 51.386 0.319 7.8 0.39 9.94
11/8/2020 11:30:00 PM 10.76 51.368 0.32 7.78 0.99 9.92
11/8/2020 11:45:00 PM 10.75 51.35 0.32 7.78 0.63 9.91
11/9/2020 12:00:00 AM 10.74 51.332 0.321 7.81 0.78 9.89
11/9/2020 12:15:00 AM 10.73 51.314 0.321 7.8 1.69 9.86
11/9/2020 12:30:00 AM 10.72 51.296 0.321 7.81 0.84 9.85
11/9/2020 12:45:00 AM 10.7 51.26 0.32 7.83 0.54 9.84
11/9/2020 1:00:00 AM 10.69 51.242 0.32 7.82 1.66 9.81
11/9/2020 1:15:00 AM 10.69 51.242 0.32 7.82 0.71 9.8
11/9/2020 1:30:00 AM 10.68 51.224 0.32 7.82 1.11 9.78
11/9/2020 1:45:00 AM 10.67 51.206 0.32 7.82 1 9.78
11/9/2020 2:00:00 AM 10.66 51.188 0.321 7.83 1.05 9.75
11/9/2020 2:15:00 AM 10.66 51.188 0.322 7.83 0.68 9.75
11/9/2020 2:30:00 AM 10.65 51.17 0.323 7.82 0.85 9.72
11/9/2020 2:45:00 AM 10.64 51.152 0.323 7.83 0.55 9.72
11/9/2020 3:00:00 AM 10.63 51.134 0.324 7.83 2.5 9.7
11/9/2020 3:15:00 AM 10.62 51.116 0.324 7.82 1.21 9.69
11/9/2020 3:30:00 AM 10.61 51.098 0.324 7.83 0.4 9.69
11/9/2020 3:45:00 AM 10.6 51.08 0.323 7.83 0.57 9.69
11/9/2020 4:00:00 AM 10.57 51.026 0.323 7.84 0.99 9.68
11/9/2020 4:15:00 AM 10.56 51.008 0.323 7.83 0.92 9.68
11/9/2020 4:30:00 AM 10.54 50.972 0.323 7.83 0.8 9.66
11/9/2020 4:45:00 AM 10.51 50.918 0.323 7.83 0.61 9.67
11/9/2020 5:00:00 AM 10.49 50.882 0.322 7.83 2.56 9.67
11/9/2020 5:15:00 AM 10.47 50.846 0.324 7.83 0.8 9.66
11/9/2020 5:30:00 AM 10.44 50.792 0.324 7.83 0.83 9.67
11/9/2020 5:45:00 AM 10.42 50.756 0.325 7.83 0.87 9.67
11/9/2020 6:00:00 AM 10.39 50.702 0.325 7.84 0.88 9.67
11/9/2020 6:15:00 AM 10.36 50.648 0.325 7.83 0.99 9.66
11/9/2020 6:30:00 AM 10.33 50.594 0.325 7.83 0.68 9.67
11/9/2020 6:45:00 AM 10.29 50.522 0.325 7.83 0.81 9.67
11/9/2020 7:00:00 AM 10.26 50.468 0.324 7.83 0.71 9.71
11/9/2020 7:15:00 AM 10.24 50.432 0.324 7.83 0.91 9.71
11/9/2020 7:30:00 AM 10.21 50.378 0.324 7.82 0.82 9.77
11/9/2020 7:45:00 AM 10.2 50.36 0.324 7.81 0.37 9.82
11/9/2020 8:00:00 AM 10.2 50.36 0.324 7.78 1.27 9.88
11/9/2020 8:15:00 AM 10.23 50.414 0.325 7.65 0.51 10
11/9/2020 8:30:00 AM 10.24 50.432 0.325 7.51 0.53 10.08
11/9/2020 8:45:00 AM 10.25 50.45 0.326 7.33 0.61 10.17
11/9/2020 9:00:00 AM 10.28 50.504 0.326 7.21 0.35 10.3
11/9/2020 9:15:00 AM 10.33 50.594 0.326 7.08 0.76 10.4
11/9/2020 9:30:00 AM 10.36 50.648 0.326 6.96 0.55 10.52
11/9/2020 9:45:00 AM 10.41 50.738 0.326 6.86 0.47 10.63
11/9/2020 10:00:00 AM 10.47 50.846 0.326 6.75 0.35 10.74
11/9/2020 10:15:00 AM 10.53 50.954 0.325 6.62 0.19 10.85
11/9/2020 10:30:00 AM 10.59 51.062 0.325 6.53 0.36 10.96
11/9/2020 10:45:00 AM 10.66 51.188 0.325 6.42 0.15 11.07
11/9/2020 11:00:00 AM 10.74 51.332 0.325 6.35 0.35 11.17
11/9/2020 11:15:00 AM 10.82 51.476 0.326 6.31 0.23 11.28
11/9/2020 11:30:00 AM 10.9 51.62 0.326 6.3 0.3 11.38
11/9/2020 11:45:00 AM 10.98 51.764 0.327 6.33 0.35 11.49
11/9/2020 12:00:00 PM 11.07 51.926 0.327 6.29 0.2 11.57
11/9/2020 12:15:00 PM 11.16 52.088 0.327 6.35 0.24 11.64
11/9/2020 12:30:00 PM 11.25 52.25 0.327 6.37 0.39 11.72
11/9/2020 12:45:00 PM 11.33 52.394 0.326 6.44 0.11 11.81
11/9/2020 1:00:00 PM 11.41 52.538 0.326 6.41 0.32 11.84
11/9/2020 1:15:00 PM 11.5 52.7 0.325 6.58 0.25 11.92
11/9/2020 1:30:00 PM 11.59 52.862 0.325 6.56 0.34 11.98
11/9/2020 1:45:00 PM 11.67 53.006 0.325 6.62 0.25 12
11/9/2020 2:00:00 PM 11.74 53.132 0.325 6.68 0.22 12.03
11/9/2020 2:15:00 PM 11.81 53.258 0.325 6.71 0.35 12.05
11/9/2020 2:30:00 PM 11.87 53.366 0.325 6.75 0.24 12.04
11/9/2020 2:45:00 PM 11.93 53.474 0.325 6.77 0.26 12.04
11/9/2020 3:00:00 PM 11.98 53.564 0.325 6.79 0.28 12
11/9/2020 3:15:00 PM 12.02 53.636 0.325 6.82 0.39 11.99
11/9/2020 3:30:00 PM 12.05 53.69 0.324 6.88 0.24 11.94
11/9/2020 3:45:00 PM 12.07 53.726 0.324 6.88 0.29 11.87
11/9/2020 4:00:00 PM 12.08 53.744 0.324 6.93 0.88 11.79
11/9/2020 4:15:00 PM 12.07 53.726 0.323 6.96 0.45 11.7
11/9/2020 4:30:00 PM 12.06 53.708 0.323 6.93 0.22 11.59
11/9/2020 4:45:00 PM 12.04 53.672 0.323 7 1.63 11.47
11/9/2020 5:00:00 PM 12.01 53.618 0.323 7.06 0.33 11.35
11/9/2020 5:15:00 PM 11.98 53.564 0.322 7.14 0.27 11.22
11/9/2020 5:30:00 PM 11.95 53.51 0.322 7.24 0.65 11.12
11/9/2020 5:45:00 PM 11.93 53.474 0.322 7.31 0.23 10.99
11/9/2020 6:00:00 PM 11.9 53.42 0.322 7.37 0.96 10.91
11/9/2020 6:15:00 PM 11.87 53.366 0.322 7.43 0.58 10.8
11/9/2020 6:30:00 PM 11.85 53.33 0.322 7.48 0.64 10.69
11/9/2020 6:45:00 PM 11.82 53.276 0.321 7.52 0.75 10.6
11/9/2020 7:00:00 PM 11.79 53.222 0.321 7.54 1.49 10.51
11/9/2020 7:15:00 PM 11.77 53.186 0.321 7.58 0.39 10.43
11/9/2020 7:30:00 PM 11.74 53.132 0.321 7.6 0.97 10.36
11/9/2020 7:45:00 PM 11.72 53.096 0.321 7.63 1.38 10.3
11/9/2020 8:00:00 PM 11.7 53.06 0.32 7.64 1.22 10.22
11/9/2020 8:15:00 PM 11.67 53.006 0.32 7.66 0.41 10.17
11/9/2020 8:30:00 PM 11.66 52.988 0.32 7.67 0.4 10.13
11/9/2020 8:45:00 PM 11.64 52.952 0.32 7.68 0.64 10.07
11/9/2020 9:00:00 PM 11.62 52.916 0.32 7.69 1.09 10.01
11/9/2020 9:15:00 PM 11.61 52.898 0.32 7.71 1.03 9.97
11/9/2020 9:30:00 PM 11.6 52.88 0.32 7.71 1.69 9.92
11/9/2020 9:45:00 PM 11.58 52.844 0.32 7.72 0.81 9.87
11/9/2020 10:00:00 PM 11.56 52.808 0.32 7.71 0.53 9.85
11/9/2020 10:15:00 PM 11.55 52.79 0.319 7.71 0.56 9.8
11/9/2020 10:30:00 PM 11.54 52.772 0.32 7.71 0.74 9.76
11/9/2020 10:45:00 PM 11.53 52.754 0.32 7.72 1.43 9.74
11/9/2020 11:00:00 PM 11.51 52.718 0.322 7.72 0.63 9.7
11/9/2020 11:15:00 PM 11.51 52.718 0.323 7.71 0.91 9.68
11/9/2020 11:30:00 PM 11.5 52.7 0.324 7.71 0.78 9.63
11/9/2020 11:45:00 PM 11.49 52.682 0.326 7.71 1.06 9.62
11/10/2020 12:00:00 AM 11.49 52.682 0.327 7.71 0.82 9.58
11/10/2020 12:15:00 AM 11.5 52.7 0.328 7.7 0.8 9.57
11/10/2020 12:30:00 AM 11.5 52.7 0.329 7.7 0.92 9.56
11/10/2020 12:45:00 AM 11.5 52.7 0.328 7.68 2.55 9.53
11/10/2020 1:00:00 AM 11.5 52.7 0.328 7.68 0.89 9.51
11/10/2020 1:15:00 AM 11.51 52.718 0.328 7.67 2.09 9.5
11/10/2020 1:30:00 AM 11.52 52.736 0.327 7.65 0.97 9.48
11/10/2020 1:45:00 AM 11.52 52.736 0.327 7.64 0.7 9.45
11/10/2020 2:00:00 AM 11.52 52.736 0.328 7.63 1.02 9.45
11/10/2020 2:15:00 AM 11.52 52.736 0.328 7.63 1.32 9.42
11/10/2020 2:30:00 AM 11.52 52.736 0.329 7.62 2.27 9.4
11/10/2020 2:45:00 AM 11.52 52.736 0.329 7.63 1.33 9.4
11/10/2020 3:00:00 AM 11.52 52.736 0.33 7.64 1.1 9.39
11/10/2020 3:15:00 AM 11.52 52.736 0.33 7.64 1.64 9.36
11/10/2020 3:30:00 AM 11.51 52.718 0.329 7.64 1.62 9.36
11/10/2020 3:45:00 AM 11.5 52.7 0.329 7.65 1.3 9.35
11/10/2020 4:00:00 AM 11.49 52.682 0.328 7.66 1.95 9.33
11/10/2020 4:15:00 AM 11.48 52.664 0.328 7.67 1.71 9.34
11/10/2020 4:30:00 AM 11.47 52.646 0.327 7.68 1.13 9.32
11/10/2020 4:45:00 AM 11.45 52.61 0.327 7.68 1.46 9.31
11/10/2020 5:00:00 AM 11.43 52.574 0.326 7.69 1.35 9.31
11/10/2020 5:15:00 AM 11.41 52.538 0.323 7.7 2.13 9.33
11/10/2020 5:30:00 AM 11.38 52.484 0.325 7.7 1.34 9.32
11/10/2020 5:45:00 AM 11.37 52.466 0.325 7.71 1.2 9.31
11/10/2020 6:00:00 AM 11.34 52.412 0.325 7.71 1.04 9.3
11/10/2020 6:15:00 AM 11.32 52.376 0.326 7.72 2.19 9.31
11/10/2020 6:30:00 AM 11.29 52.322 0.326 7.73 2.42 9.32
11/10/2020 6:45:00 AM 11.26 52.268 0.325 7.73 1.62 9.32
11/10/2020 7:00:00 AM 11.24 52.232 0.325 7.73 0.69 9.34
11/10/2020 7:15:00 AM 11.21 52.178 0.324 7.72 1.2 9.35
11/10/2020 7:30:00 AM 11.2 52.16 0.324 7.7 0.8 9.39
11/10/2020 7:45:00 AM 11.19 52.142 0.324 7.69 1.04 9.44
11/10/2020 8:00:00 AM 11.19 52.142 0.324 7.61 1.07 9.53
11/10/2020 8:15:00 AM 11.22 52.196 0.324 7.46 1.18 9.64
11/10/2020 8:30:00 AM 11.23 52.214 0.325 7.31 0.8 9.71
11/10/2020 8:45:00 AM 11.24 52.232 0.325 7.21 1.33 9.8
11/10/2020 9:00:00 AM 11.28 52.304 0.325 7.1 1.01 9.9
11/10/2020 9:15:00 AM 11.32 52.376 0.325 7.05 0.76 10.02
11/10/2020 9:30:00 AM 11.35 52.43 0.325 7.01 1.16 10.15
11/10/2020 9:45:00 AM 11.4 52.52 0.325 7.01 0.9 10.27
11/10/2020 10:00:00 AM 11.47 52.646 0.325 7.02 0.5 10.37
11/10/2020 10:15:00 AM 11.53 52.754 0.324 7.07 1.07 10.5
11/10/2020 10:30:00 AM 11.6 52.88 0.325 7.09 0.66 10.59
11/10/2020 10:45:00 AM 11.68 53.024 0.325 7.1 0.75 10.71
11/10/2020 11:00:00 AM 11.76 53.168 0.325 7.06 0.61 10.81
11/10/2020 11:15:00 AM 11.85 53.33 0.326 7.13 0.68 10.93
11/10/2020 11:30:00 AM 11.95 53.51 0.326 7.11 1.05 11.02
11/10/2020 11:45:00 AM 12.05 53.69 0.327 7.1 0.92 11.13
11/10/2020 12:00:00 PM 12.14 53.852 0.327 7.16 1.33 11.23
11/10/2020 12:15:00 PM 12.25 54.05 0.327 7.17 1.07 11.28
11/10/2020 12:30:00 PM 12.36 54.248 0.327 7.19 0.95 11.4
11/10/2020 12:45:00 PM 12.47 54.446 0.327 7.2 1.03 11.49
11/10/2020 1:00:00 PM 12.57 54.626 0.327 7.23 0.56 11.57
11/10/2020 1:15:00 PM 12.65 54.77 0.326 7.3 0.96 11.61
11/10/2020 1:30:00 PM 12.72 54.896 0.326 7.31 1.16 11.63
11/10/2020 1:45:00 PM 12.8 55.04 0.325 7.33 1.05 11.68
11/10/2020 2:00:00 PM 12.88 55.184 0.325 7.37 0.99 11.73
11/10/2020 2:15:00 PM 12.97 55.346 0.325 7.38 1.25 11.75
11/10/2020 2:30:00 PM 13.05 55.49 0.325 7.4 1.2 11.76
11/10/2020 2:45:00 PM 13.12 55.616 0.325 7.43 1.06 11.76
11/10/2020 3:00:00 PM 13.17 55.706 0.324 7.46 2.39 11.72
11/10/2020 3:15:00 PM 13.21 55.778 0.324 7.47 0.74 11.7
11/10/2020 3:30:00 PM 13.25 55.85 0.324 7.49 0.9 11.65
11/10/2020 3:45:00 PM 13.3 55.94 0.323 7.51 0.67 11.61
11/10/2020 4:00:00 PM 13.34 56.012 0.323 7.52 0.72 11.53
11/10/2020 4:15:00 PM 13.36 56.048 0.322 7.55 0.53 11.45
11/10/2020 4:30:00 PM 13.36 56.048 0.322 7.57 0.61 11.33
11/10/2020 4:45:00 PM 13.35 56.03 0.322 7.58 0.61 11.2
11/10/2020 5:00:00 PM 13.36 56.048 0.322 7.6 0.77 11.04
11/10/2020 5:15:00 PM 13.36 56.048 0.321 7.62 0.71 10.9
11/10/2020 5:30:00 PM 13.35 56.03 0.321 7.64 1.02 10.76
11/10/2020 5:45:00 PM 13.33 55.994 0.321 7.66 0.72 10.64
11/10/2020 6:00:00 PM 13.31 55.958 0.321 7.68 1.14 10.51
11/10/2020 6:15:00 PM 13.29 55.922 0.321 7.69 1.21 10.39
11/10/2020 6:30:00 PM 13.27 55.886 0.321 7.69 1.04 10.27
11/10/2020 6:45:00 PM 13.26 55.868 0.321 7.68 1.19 10.15
11/10/2020 7:00:00 PM 13.24 55.832 0.32 7.68 2.1 10.06
11/10/2020 7:15:00 PM 13.23 55.814 0.32 7.66 1.12 9.95
11/10/2020 7:30:00 PM 13.21 55.778 0.32 7.67 1.07 9.88
11/10/2020 7:45:00 PM 13.19 55.742 0.32 7.69 1.71 9.8
11/10/2020 8:00:00 PM 13.17 55.706 0.32 7.68 1.97 9.72
11/10/2020 8:15:00 PM 13.15 55.67 0.321 7.7 1.02 9.65
11/10/2020 8:30:00 PM 13.13 55.634 0.321 7.7 1.44 9.59
11/10/2020 8:45:00 PM 13.12 55.616 0.321 7.7 1.44 9.53
11/10/2020 9:00:00 PM 13.11 55.598 0.321 7.67 1.45 9.46
11/10/2020 9:15:00 PM 13.11 55.598 0.321 7.65 1.36 9.41
11/10/2020 9:30:00 PM 13.11 55.598 0.321 7.64 1.56 9.36
11/10/2020 9:45:00 PM 13.1 55.58 0.321 7.63 1.23 9.31
11/10/2020 10:00:00 PM 13.1 55.58 0.321 7.63 1.66 9.27
11/10/2020 10:15:00 PM 13.11 55.598 0.321 7.62 1.88 9.23
11/10/2020 10:30:00 PM 13.11 55.598 0.321 7.6 2.03 9.2
11/10/2020 10:45:00 PM 13.11 55.598 0.321 7.59 1.79 9.17
11/10/2020 11:00:00 PM 13.11 55.598 0.321 7.61 2.62 9.13
11/10/2020 11:15:00 PM 13.12 55.616 0.322 7.6 2.05 9.1
11/10/2020 11:30:00 PM 13.12 55.616 0.323 7.6 1.21 9.07
11/10/2020 11:45:00 PM 13.13 55.634 0.323 7.61 2.98 9.05
11/11/2020 12:00:00 AM 13.14 55.652 0.324 7.61 1.57 9.01
11/11/2020 12:15:00 AM 13.15 55.67 0.324 7.62 1.99 8.98
11/11/2020 12:30:00 AM 13.15 55.67 0.324 7.61 4.43 8.96
11/11/2020 12:45:00 AM 13.16 55.688 0.324 7.62 2.29 8.94
11/11/2020 1:00:00 AM 13.16 55.688 0.323 7.64 2.32 8.92
11/11/2020 1:15:00 AM 13.16 55.688 0.323 7.65 1.83 8.9
11/11/2020 1:30:00 AM 13.16 55.688 0.323 7.65 2.04 8.87
11/11/2020 1:45:00 AM 13.16 55.688 0.323 7.66 1.69 8.85
11/11/2020 2:00:00 AM 13.17 55.706 0.324 7.66 1.89 8.83
11/11/2020 2:15:00 AM 13.17 55.706 0.324 7.66 2.37 8.81
11/11/2020 2:30:00 AM 13.18 55.724 0.325 7.66 1.87 8.78
11/11/2020 2:45:00 AM 13.18 55.724 0.326 7.66 2.84 8.78
11/11/2020 3:00:00 AM 13.19 55.742 0.326 7.67 2.17 8.77
11/11/2020 3:15:00 AM 13.19 55.742 0.327 7.66 2.29 8.75
11/11/2020 3:30:00 AM 13.2 55.76 0.327 7.67 2.5 8.73
11/11/2020 3:45:00 AM 13.2 55.76 0.326 7.67 2.16 8.72
11/11/2020 4:00:00 AM 13.21 55.778 0.326 7.67 2.7 8.71
11/11/2020 4:15:00 AM 13.23 55.814 0.326 7.66 2.04 8.7
11/11/2020 4:30:00 AM 13.25 55.85 0.325 7.65 2.28 8.69
11/11/2020 4:45:00 AM 13.27 55.886 0.325 7.64 2.98 8.67
11/11/2020 5:00:00 AM 13.29 55.922 0.325 7.62 3.98 8.65
11/11/2020 5:15:00 AM 13.32 55.976 0.325 7.59 3.04 8.66
11/11/2020 5:30:00 AM 13.34 56.012 0.326 7.57 3.31 8.64
11/11/2020 5:45:00 AM 13.37 56.066 0.323 7.53 1.79 8.63
11/11/2020 6:00:00 AM 13.4 56.12 0.327 7.51 1.63 8.63
11/11/2020 6:15:00 AM 13.42 56.156 0.326 7.5 3.51 8.61
11/11/2020 6:30:00 AM 13.43 56.174 0.326 7.5 1.36 8.61
11/11/2020 6:45:00 AM 13.44 56.192 0.326 7.5 2.02 8.61
11/11/2020 7:00:00 AM 13.46 56.228 0.324 7.49 2.17 8.61
11/11/2020 7:15:00 AM 13.48 56.264 0.324 7.49 1.27 8.61
11/11/2020 7:30:00 AM 13.5 56.3 0.321 7.48 1.68 8.63
11/11/2020 7:45:00 AM 13.51 56.318 0.323 7.47 2.08 8.65
11/11/2020 8:00:00 AM 13.54 56.372 0.324 7.47 1.38 8.65
11/11/2020 8:15:00 AM 13.56 56.408 0.325 7.47 1.48 8.67
11/11/2020 8:30:00 AM 13.58 56.444 0.326 7.46 1.54 8.67
11/11/2020 8:45:00 AM 13.61 56.498 0.326 7.46 1.66 8.7
11/11/2020 9:00:00 AM 13.63 56.534 0.326 7.47 1.88 8.73
11/11/2020 9:15:00 AM 13.65 56.57 0.326 7.49 1.47 8.78
11/11/2020 9:30:00 AM 13.68 56.624 0.326 7.48 1.4 8.81
11/11/2020 9:45:00 AM 13.71 56.678 0.326 7.48 1.58 8.85
11/11/2020 10:00:00 AM 13.74 56.732 0.325 7.49 1.47 8.88
11/11/2020 10:15:00 AM 13.77 56.786 0.327 7.5 1.31 8.9
11/11/2020 10:30:00 AM 13.81 56.858 0.311 7.5 1.67 8.96
11/11/2020 10:45:00 AM 13.84 56.912 0.322 7.51 1.8 9.05
11/11/2020 11:00:00 AM 13.88 56.984 0.323 7.53 1.81 9.13
11/11/2020 11:15:00 AM 13.91 57.038 0.326 7.54 2.37 9.2
11/11/2020 11:30:00 AM 13.95 57.11 0.327 7.54 1.64 9.24
11/11/2020 11:45:00 AM 13.99 57.182 0.327 7.55 1.45 9.29
11/11/2020 12:00:00 PM 14.03 57.254 0.327 7.56 1.41 9.36
11/11/2020 12:15:00 PM 14.07 57.326 0.327 7.57 1.31 9.42
11/11/2020 12:30:00 PM 14.11 57.398 0.327 7.59 1.44 9.48
11/11/2020 12:45:00 PM 14.14 57.452 0.326 7.61 1.55 9.55
11/11/2020 1:00:00 PM 14.18 57.524 0.326 7.62 1.53 9.62
11/11/2020 1:15:00 PM 14.21 57.578 0.325 7.63 1.49 9.64
11/11/2020 1:30:00 PM 14.22 57.596 0.325 7.64 1.42 9.66
11/11/2020 1:45:00 PM 14.25 57.65 0.324 7.65 1.79 9.66
11/11/2020 2:00:00 PM 14.28 57.704 0.324 7.66 1.38 9.67
11/11/2020 2:15:00 PM 14.31 57.758 0.324 7.66 1.37 9.67
11/11/2020 2:30:00 PM 14.36 57.848 0.322 7.67 1.54 9.68
11/11/2020 2:45:00 PM 14.4 57.92 0.322 7.68 1.7 9.69
11/11/2020 3:00:00 PM 14.43 57.974 0.322 7.69 1.33 9.69
11/11/2020 3:15:00 PM 14.46 58.028 0.321 7.69 1.32 9.69
11/11/2020 3:30:00 PM 14.48 58.064 0.322 7.69 1.59 9.64
11/11/2020 3:45:00 PM 14.49 58.082 0.321 7.7 1.42 9.62
11/11/2020 4:00:00 PM 14.52 58.136 0.321 7.71 1.42 9.57
11/11/2020 4:15:00 PM 14.54 58.172 0.321 7.71 1.87 9.51
11/11/2020 4:30:00 PM 14.55 58.19 0.32 7.71 1.61 9.47
11/11/2020 4:45:00 PM 14.58 58.244 0.318 7.7 1.46 9.4
11/11/2020 5:00:00 PM 14.58 58.244 0.318 7.71 1.39 9.35
11/11/2020 5:15:00 PM 14.59 58.262 0.317 7.72 1.5 9.3
11/11/2020 5:30:00 PM 14.6 58.28 0.317 7.72 1.4 9.24
11/11/2020 5:45:00 PM 14.6 58.28 0.315 7.72 3.18 9.19
11/11/2020 6:00:00 PM 14.61 58.298 0.305 7.72 2.16 9.12
11/11/2020 6:15:00 PM 14.61 58.298 0.315 7.72 1.64 9.06
11/11/2020 6:30:00 PM 14.61 58.298 0.316 7.71 1.83 8.99
11/11/2020 6:45:00 PM 14.62 58.316 0.316 7.71 2.27 8.95
11/11/2020 7:00:00 PM 14.62 58.316 0.267 7.7 2.07 8.9
11/11/2020 7:15:00 PM 14.63 58.334 0.314 7.69 2.13 8.84
11/11/2020 7:30:00 PM 14.63 58.334 0.314 7.69 2.23 8.8
11/11/2020 7:45:00 PM 14.64 58.352 0.315 7.68 2.27 8.74
11/11/2020 8:00:00 PM 14.64 58.352 0.314 7.67 1.8 8.72
11/11/2020 8:15:00 PM 14.64 58.352 0.314 7.67 1.86 8.69
11/11/2020 8:30:00 PM 14.64 58.352 0.311 7.66 2.43 8.63
11/11/2020 8:45:00 PM 14.64 58.352 0.311 7.66 1.61 8.59
11/11/2020 9:00:00 PM 14.65 58.37 0.308 7.66 1.87 8.56
11/11/2020 9:15:00 PM 14.65 58.37 0.314 7.64 2.42 8.54
11/11/2020 9:30:00 PM 14.66 58.388 0.314 7.64 3.51 8.51
11/11/2020 9:45:00 PM 14.66 58.388 0.309 7.64 3.26 8.49
11/11/2020 10:00:00 PM 14.67 58.406 0.315 7.63 2.92 8.45
11/11/2020 10:15:00 PM 14.68 58.424 0.312 7.63 2.17 8.44
11/11/2020 10:30:00 PM 14.69 58.442 0.299 7.63 3.12 8.42
11/11/2020 10:45:00 PM 14.7 58.46 0.312 7.62 4.57 8.41
11/11/2020 11:00:00 PM 14.72 58.496 0.312 7.62 2.58 8.39
11/11/2020 11:15:00 PM 14.73 58.514 0.315 7.62 2.22 8.36
11/11/2020 11:30:00 PM 14.74 58.532 0.318 7.61 2.95 8.35
11/11/2020 11:45:00 PM 14.76 58.568 0.313 7.61 2.71 8.33
11/12/2020 12:00:00 AM 14.77 58.586 0.317 7.61 3.31 8.32
11/12/2020 12:15:00 AM 14.78 58.604 0.313 7.61 2.59 8.3
11/12/2020 12:30:00 AM 14.8 58.64 0.316 7.6 2.66 8.3
11/12/2020 12:45:00 AM 14.81 58.658 0.317 7.6 2.67 8.29
11/12/2020 1:00:00 AM 14.82 58.676 0.31 7.6 3.31 8.27
11/12/2020 1:15:00 AM 14.84 58.712 0.315 7.59 3.6 8.25
11/12/2020 1:30:00 AM 14.85 58.73 0.314 7.59 3.96 8.24
11/12/2020 1:45:00 AM 14.86 58.748 0.317 7.59 3.35 8.24
11/12/2020 2:00:00 AM 14.87 58.766 0.316 7.59 2.76 8.22
11/12/2020 2:15:00 AM 14.88 58.784 0.315 7.59 3.19 8.21
11/12/2020 2:30:00 AM 14.88 58.784 0.316 7.59 4.4 8.2
11/12/2020 2:45:00 AM 14.9 58.82 0.316 7.59 2.93 8.18
11/12/2020 3:00:00 AM 14.9 58.82 0.287 7.59 3.77 8.19
11/12/2020 3:15:00 AM 14.91 58.838 0.314 7.58 4.27 8.17
11/12/2020 3:30:00 AM 14.92 58.856 0.309 7.58 5.44 8.18
11/12/2020 3:45:00 AM 14.92 58.856 0.297 7.58 4.71 8.16
11/12/2020 4:00:00 AM 14.93 58.874 0.314 7.58 3.24 8.16
11/12/2020 4:15:00 AM 14.93 58.874 0.313 7.58 4.29 8.15
11/12/2020 4:30:00 AM 14.94 58.892 0.313 7.57 3.24 8.15
11/12/2020 4:45:00 AM 14.95 58.91 0.315 7.57 4.32 8.14
11/12/2020 5:00:00 AM 14.95 58.91 0.316 7.58 3 8.14
11/12/2020 5:15:00 AM 14.94 58.892 0.315 7.58 3.52 8.14
11/12/2020 5:30:00 AM 14.93 58.874 0.316 7.59 6.53 8.15
11/12/2020 5:45:00 AM 14.92 58.856 0.316 7.59 4.31 8.14
11/12/2020 6:00:00 AM 14.91 58.838 0.316 7.59 4.16 8.14
11/12/2020 6:15:00 AM 14.89 58.802 0.317 7.59 3.98 8.15
11/12/2020 6:30:00 AM 14.87 58.766 0.317 7.6 4.24 8.15
11/12/2020 6:45:00 AM 14.85 58.73 0.318 7.61 3.39 8.14
11/12/2020 7:00:00 AM 14.81 58.658 0.32 7.62 5.56 8.15
11/12/2020 7:15:00 AM 14.78 58.604 0.321 7.62 3.32 8.16
11/12/2020 7:30:00 AM 14.76 58.568 0.323 7.63 2.84 8.17
11/12/2020 7:45:00 AM 14.73 58.514 0.324 7.63 3.66 8.18
11/12/2020 8:00:00 AM 14.71 58.478 0.326 7.64 5.79 8.21
11/12/2020 8:15:00 AM 14.69 58.442 0.326 7.64 4.1 8.26
11/12/2020 8:30:00 AM 14.66 58.388 0.327 7.64 6.38 8.28
11/12/2020 8:45:00 AM 14.63 58.334 0.327 7.65 3.81 8.32
11/12/2020 9:00:00 AM 14.6 58.28 0.328 7.66 3.59 8.36
11/12/2020 9:15:00 AM 14.57 58.226 0.328 7.67 2.7 8.38
11/12/2020 9:30:00 AM 14.54 58.172 0.329 7.68 3.17 8.43
11/12/2020 9:45:00 AM 14.5 58.1 0.33 7.68 3.49 8.45
11/12/2020 10:00:00 AM 14.46 58.028 0.331 7.69 2.62 8.48
11/12/2020 10:15:00 AM 14.44 57.992 0.332 7.69 3.09 8.54
11/12/2020 10:30:00 AM 14.42 57.956 0.333 7.7 2.62 8.63
11/12/2020 10:45:00 AM 14.39 57.902 0.334 7.71 2.56 8.7
11/12/2020 11:00:00 AM 14.36 57.848 0.334 7.72 2.71 8.76
11/12/2020 11:15:00 AM 14.32 57.776 0.334 7.73 2.41 8.82
11/12/2020 11:30:00 AM 14.28 57.704 0.333 7.74 3.12 8.87
11/12/2020 11:45:00 AM 14.25 57.65 0.333 7.77 2.4 8.97
11/12/2020 12:00:00 PM 14.23 57.614 0.332 7.78 2.33 9.03
11/12/2020 12:15:00 PM 14.21 57.578 0.332 7.79 2.47 9.09
11/12/2020 12:30:00 PM 14.19 57.542 0.331 7.79 2.68 9.17
11/12/2020 12:45:00 PM 14.17 57.506 0.331 7.8 8.23 9.22
11/12/2020 1:00:00 PM 14.15 57.47 0.33 7.8 2.81 9.34
11/12/2020 1:15:00 PM 14.13 57.434 0.33 7.82 4.14 9.43
11/12/2020 1:30:00 PM 14.1 57.38 0.33 7.82 2.93 9.5
11/12/2020 1:45:00 PM 14.07 57.326 0.329 7.83 2.91 9.54
11/12/2020 2:00:00 PM 14.04 57.272 0.329 7.84 2.69 9.57
11/12/2020 2:15:00 PM 14.02 57.236 0.328 7.84 2.54 9.6
11/12/2020 2:30:00 PM 13.98 57.164 0.328 7.84 2.87 9.62
11/12/2020 2:45:00 PM 13.95 57.11 0.327 7.84 2.99 9.61
11/12/2020 3:00:00 PM 13.91 57.038 0.326 7.85 3.44 9.59
11/12/2020 3:15:00 PM 13.88 56.984 0.325 7.85 3.8 9.58
11/12/2020 3:30:00 PM 13.84 56.912 0.325 7.85 2.89 9.59
11/12/2020 3:45:00 PM 13.81 56.858 0.324 7.85 3.35 9.58
11/12/2020 4:00:00 PM 13.77 56.786 0.324 7.85 3.23 9.58
11/12/2020 4:15:00 PM 13.74 56.732 0.323 7.85 2.99 9.54
11/12/2020 4:30:00 PM 13.7 56.66 0.323 7.85 4.15 9.54
11/12/2020 4:45:00 PM 13.65 56.57 0.323 7.85 3.85 9.5
11/12/2020 5:00:00 PM 13.61 56.498 0.323 7.85 3.81 9.46
11/12/2020 5:15:00 PM 13.56 56.408 0.322 7.85 5.19 9.43
11/12/2020 5:30:00 PM 13.51 56.318 0.322 7.85 3.58 9.39
11/12/2020 5:45:00 PM 13.47 56.246 0.321 7.85 4.07 9.34
11/12/2020 6:00:00 PM 13.42 56.156 0.321 7.84 4.03 9.31
11/12/2020 6:15:00 PM 13.38 56.084 0.321 7.83 5.44 9.28
11/12/2020 6:30:00 PM 13.35 56.03 0.32 7.83 3.96 9.24
11/12/2020 6:45:00 PM 13.3 55.94 0.32 7.83 5.58 9.2
11/12/2020 7:00:00 PM 13.26 55.868 0.321 7.83 7.79 9.18
11/12/2020 7:15:00 PM 13.21 55.778 0.321 7.83 6.99 9.16
11/12/2020 7:30:00 PM 13.15 55.67 0.321 7.84 9.11 9.13
11/12/2020 7:45:00 PM 13.11 55.598 0.321 7.84 7.18 9.13
11/12/2020 8:00:00 PM 13.07 55.526 0.321 7.83 8.31 9.1
11/12/2020 8:15:00 PM 13.03 55.454 0.321 7.82 9.57 9.09
11/12/2020 8:30:00 PM 12.97 55.346 0.32 7.82 4.96 9.07
11/12/2020 8:45:00 PM 12.91 55.238 0.32 7.83 4.73 9.06
11/12/2020 9:00:00 PM 12.85 55.13 0.32 7.84 7.69 9.06
11/12/2020 9:15:00 PM 12.79 55.022 0.32 7.85 5.52 9.04
11/12/2020 9:30:00 PM 12.73 54.914 0.32 7.86 6.23 9.04
11/12/2020 9:45